PWSweather.com
Personal Weather Stations
Station Observations
HVALPSUND
Hvalpsund, FarsoeDK 9640

HvalpsundFarsoeDK 9640

Lat: 56.705311, Lon: 9.203638

Elevation: 5

Station Type: Vantage Pro2

http://hvalpsundvejr.dk

High Low Average
Temperature 61.1°F16.2°C 45.0°F7.2°C 51.6°F10.9°C
Dew Point 46.7°F8.2°C 33.9°F1.1°C 40.6°F4.8°C
Winds 25.8 mph 41.5 kmh 5.8 mph 9.3 kmh 16.0 mph E25.7 kmh E
Wind Gusts 34.0 mph54.7 kmh 10.0 mph16.1 kmh 23.0 mph37.0 kmh
Humidity 72% 58% 66%
Pressure 29.93 in1013.5 mb 29.85 in1010.8 mb -
Precipitation 0.00 in0.0 mm - -
Hour Temp Dew Point Humidity Winds Wind Gusts Pressure Precip Precip Rate Daily Precip Total
12:00 AM 47.2°F8.4°C 35.3°F1.8°C 63% 16.9 mph E27.2 kmh E 24.0 mph38.6 kmh 29.92 in1013.2 mb 0.00 in0.0 mm 0.00 in0.0 mm 0.00 in0.0 mm
12:01 AM 47.1°F8.4°C 35.2°F1.8°C 63% 16.5 mph E26.6 kmh E 26.0 mph41.8 kmh 29.92 in1013.2 mb 0.00 in0.0 mm 0.00 in0.0 mm 0.00 in0.0 mm
12:02 AM 47.1°F8.4°C 35.2°F1.8°C 63% 15.5 mph E24.9 kmh E 26.0 mph41.8 kmh 29.93 in1013.5 mb 0.00 in0.0 mm 0.00 in0.0 mm 0.00 in0.0 mm
12:03 AM 47.2°F8.4°C 35.3°F1.8°C 63% 12.4 mph E20.0 kmh E 24.0 mph38.6 kmh 29.93 in1013.5 mb 0.00 in0.0 mm 0.00 in0.0 mm 0.00 in0.0 mm
12:04 AM 47.0°F8.3°C 35.1°F1.7°C 63% 14.5 mph E23.3 kmh E 21.0 mph33.8 kmh 29.93 in1013.5 mb 0.00 in0.0 mm 0.00 in0.0 mm 0.00 in0.0 mm
12:05 AM 47.0°F8.3°C 35.1°F1.7°C 63% 16.6 mph E26.7 kmh E 21.0 mph33.8 kmh 29.92 in1013.2 mb 0.00 in0.0 mm 0.00 in0.0 mm 0.00 in0.0 mm
12:06 AM 47.0°F8.3°C 35.1°F1.7°C 63% 13.6 mph E21.9 kmh E 23.0 mph37.0 kmh 29.93 in1013.5 mb 0.00 in0.0 mm 0.00 in0.0 mm 0.00 in0.0 mm
12:07 AM 47.0°F8.3°C 35.1°F1.7°C 63% 14.2 mph E22.9 kmh E 23.0 mph37.0 kmh 29.93 in1013.5 mb 0.00 in0.0 mm 0.00 in0.0 mm 0.00 in0.0 mm
12:08 AM 47.0°F8.3°C 35.1°F1.7°C 63% 16.1 mph E25.9 kmh E 21.0 mph33.8 kmh 29.92 in1013.2 mb 0.00 in0.0 mm 0.00 in0.0 mm 0.00 in0.0 mm
12:09 AM 47.0°F8.3°C 35.1°F1.7°C 63% 12.9 mph E20.8 kmh E 20.0 mph32.2 kmh 29.93 in1013.5 mb 0.00 in0.0 mm 0.00 in0.0 mm 0.00 in0.0 mm
12:10 AM 47.0°F8.3°C 35.1°F1.7°C 63% 15.1 mph E24.3 kmh E 18.0 mph29.0 kmh 29.92 in1013.2 mb 0.00 in0.0 mm 0.00 in0.0 mm 0.00 in0.0 mm
12:11 AM 46.9°F8.3°C 35.0°F1.7°C 63% 16.7 mph E26.9 kmh E 21.0 mph33.8 kmh 29.93 in1013.5 mb 0.00 in0.0 mm 0.00 in0.0 mm 0.00 in0.0 mm
12:12 AM 47.0°F8.3°C 35.1°F1.7°C 63% 15.5 mph E24.9 kmh E 25.0 mph40.2 kmh 29.92 in1013.2 mb 0.00 in0.0 mm 0.00 in0.0 mm 0.00 in0.0 mm
12:13 AM 46.9°F8.3°C 35.0°F1.7°C 63% 12.0 mph E19.3 kmh E 25.0 mph40.2 kmh 29.92 in1013.2 mb 0.00 in0.0 mm 0.00 in0.0 mm 0.00 in0.0 mm
12:14 AM 46.9°F8.3°C 35.0°F1.7°C 63% 17.0 mph E27.4 kmh E 25.0 mph40.2 kmh 29.92 in1013.2 mb 0.00 in0.0 mm 0.00 in0.0 mm 0.00 in0.0 mm
12:15 AM 46.9°F8.3°C 35.0°F1.7°C 63% 16.2 mph E26.1 kmh E 25.0 mph40.2 kmh 29.92 in1013.2 mb 0.00 in0.0 mm 0.00 in0.0 mm 0.00 in0.0 mm
12:16 AM 46.8°F8.2°C 34.9°F1.6°C 63% 14.1 mph E22.7 kmh E 20.0 mph32.2 kmh 29.92 in1013.2 mb 0.00 in0.0 mm 0.00 in0.0 mm 0.00 in0.0 mm
12:17 AM 46.8°F8.2°C 34.9°F1.6°C 63% 13.9 mph E22.4 kmh E 19.0 mph30.6 kmh 29.92 in1013.2 mb 0.00 in0.0 mm 0.00 in0.0 mm 0.00 in0.0 mm
12:18 AM 46.8°F8.2°C 34.9°F1.6°C 63% 18.3 mph E29.5 kmh E 24.0 mph38.6 kmh 29.92 in1013.2 mb 0.00 in0.0 mm 0.00 in0.0 mm 0.00 in0.0 mm
12:19 AM 46.8°F8.2°C 34.9°F1.6°C 63% 18.9 mph E30.4 kmh E 25.0 mph40.2 kmh 29.92 in1013.2 mb 0.00 in0.0 mm 0.00 in0.0 mm 0.00 in0.0 mm
12:20 AM 46.8°F8.2°C 34.9°F1.6°C 63% 19.7 mph E31.7 kmh E 25.0 mph40.2 kmh 29.92 in1013.2 mb 0.00 in0.0 mm 0.00 in0.0 mm 0.00 in0.0 mm
12:21 AM 46.8°F8.2°C 34.9°F1.6°C 63% 12.9 mph E20.8 kmh E 24.0 mph38.6 kmh 29.92 in1013.2 mb 0.00 in0.0 mm 0.00 in0.0 mm 0.00 in0.0 mm
12:22 AM 46.7°F8.2°C 34.8°F1.6°C 63% 16.3 mph E26.2 kmh E 23.0 mph37.0 kmh 29.92 in1013.2 mb 0.00 in0.0 mm 0.00 in0.0 mm 0.00 in0.0 mm
12:23 AM 46.7°F8.2°C 34.8°F1.6°C 63% 13.9 mph E22.4 kmh E 23.0 mph37.0 kmh 29.92 in1013.2 mb 0.00 in0.0 mm 0.00 in0.0 mm 0.00 in0.0 mm
12:24 AM 46.7°F8.2°C 34.8°F1.6°C 63% 15.4 mph E24.8 kmh E 23.0 mph37.0 kmh 29.92 in1013.2 mb 0.00 in0.0 mm 0.00 in0.0 mm 0.00 in0.0 mm
12:25 AM 46.6°F8.1°C 34.7°F1.5°C 63% 13.3 mph E21.4 kmh E 23.0 mph37.0 kmh 29.92 in1013.2 mb 0.00 in0.0 mm 0.00 in0.0 mm 0.00 in0.0 mm
12:26 AM 46.6°F8.1°C 34.7°F1.5°C 63% 16.0 mph E25.7 kmh E 21.0 mph33.8 kmh 29.92 in1013.2 mb 0.00 in0.0 mm 0.00 in0.0 mm 0.00 in0.0 mm
12:27 AM 46.6°F8.1°C 34.7°F1.5°C 63% 18.2 mph E29.3 kmh E 24.0 mph38.6 kmh 29.92 in1013.2 mb 0.00 in0.0 mm 0.00 in0.0 mm 0.00 in0.0 mm
12:28 AM 46.6°F8.1°C 34.7°F1.5°C 63% 16.8 mph E27.0 kmh E 24.0 mph38.6 kmh 29.92 in1013.2 mb 0.00 in0.0 mm 0.00 in0.0 mm 0.00 in0.0 mm
12:29 AM 46.6°F8.1°C 34.7°F1.5°C 63% 18.6 mph E29.9 kmh E 27.0 mph43.5 kmh 29.92 in1013.2 mb 0.00 in0.0 mm 0.00 in0.0 mm 0.00 in0.0 mm
12:30 AM 46.6°F8.1°C 34.7°F1.5°C 63% 18.1 mph E29.1 kmh E 31.0 mph49.9 kmh 29.92 in1013.2 mb 0.00 in0.0 mm 0.00 in0.0 mm 0.00 in0.0 mm
12:31 AM 46.5°F8.1°C 34.6°F1.4°C 63% 15.2 mph E24.5 kmh E 31.0 mph49.9 kmh 29.92 in1013.2 mb 0.00 in0.0 mm 0.00 in0.0 mm 0.00 in0.0 mm
12:32 AM 46.6°F8.1°C 34.7°F1.5°C 63% 15.6 mph E25.1 kmh E 27.0 mph43.5 kmh 29.92 in1013.2 mb 0.00 in0.0 mm 0.00 in0.0 mm 0.00 in0.0 mm
12:33 AM 46.5°F8.1°C 34.6°F1.4°C 63% 13.9 mph E22.4 kmh E 27.0 mph43.5 kmh 29.92 in1013.2 mb 0.00 in0.0 mm 0.00 in0.0 mm 0.00 in0.0 mm
12:34 AM 46.5°F8.1°C 34.6°F1.4°C 63% 17.9 mph E28.8 kmh E 25.0 mph40.2 kmh 29.92 in1013.2 mb 0.00 in0.0 mm 0.00 in0.0 mm 0.00 in0.0 mm
12:35 AM 46.5°F8.1°C 34.6°F1.4°C 63% 15.1 mph E24.3 kmh E 25.0 mph40.2 kmh 29.92 in1013.2 mb 0.00 in0.0 mm 0.00 in0.0 mm 0.00 in0.0 mm
12:36 AM 46.5°F8.1°C 34.6°F1.4°C 63% 17.0 mph E27.4 kmh E 22.0 mph35.4 kmh 29.92 in1013.2 mb 0.00 in0.0 mm 0.00 in0.0 mm 0.00 in0.0 mm
12:37 AM 46.5°F8.1°C 34.6°F1.4°C 63% 19.3 mph E31.1 kmh E 26.0 mph41.8 kmh 29.92 in1013.2 mb 0.00 in0.0 mm 0.00 in0.0 mm 0.00 in0.0 mm
12:38 AM 46.5°F8.1°C 34.6°F1.4°C 63% 17.6 mph E28.3 kmh E 26.0 mph41.8 kmh 29.92 in1013.2 mb 0.00 in0.0 mm 0.00 in0.0 mm 0.00 in0.0 mm
12:39 AM 46.5°F8.1°C 34.6°F1.4°C 63% 14.6 mph E23.5 kmh E 23.0 mph37.0 kmh 29.92 in1013.2 mb 0.00 in0.0 mm 0.00 in0.0 mm 0.00 in0.0 mm
12:40 AM 46.5°F8.1°C 34.6°F1.4°C 63% 16.2 mph E26.1 kmh E 22.0 mph35.4 kmh 29.92 in1013.2 mb 0.00 in0.0 mm 0.00 in0.0 mm 0.00 in0.0 mm
12:41 AM 46.5°F8.1°C 34.6°F1.4°C 63% 13.3 mph E21.4 kmh E 22.0 mph35.4 kmh 29.92 in1013.2 mb 0.00 in0.0 mm 0.00 in0.0 mm 0.00 in0.0 mm
12:42 AM 46.4°F8.0°C 34.5°F1.4°C 63% 19.2 mph E30.9 kmh E 25.0 mph40.2 kmh 29.92 in1013.2 mb 0.00 in0.0 mm 0.00 in0.0 mm 0.00 in0.0 mm
12:43 AM 46.5°F8.1°C 34.6°F1.4°C 63% 18.0 mph E29.0 kmh E 25.0 mph40.2 kmh 29.91 in1012.9 mb 0.00 in0.0 mm 0.00 in0.0 mm 0.00 in0.0 mm
12:44 AM 46.5°F8.1°C 34.6°F1.4°C 63% 17.0 mph E27.4 kmh E 22.0 mph35.4 kmh 29.92 in1013.2 mb 0.00 in0.0 mm 0.00 in0.0 mm 0.00 in0.0 mm
12:45 AM 46.4°F8.0°C 34.5°F1.4°C 63% 19.6 mph E31.5 kmh E 24.0 mph38.6 kmh 29.91 in1012.9 mb 0.00 in0.0 mm 0.00 in0.0 mm 0.00 in0.0 mm
12:46 AM 46.4°F8.0°C 34.1°F1.2°C 62% 17.0 mph E27.4 kmh E 24.0 mph38.6 kmh 29.91 in1012.9 mb 0.00 in0.0 mm 0.00 in0.0 mm 0.00 in0.0 mm
12:47 AM 46.4°F8.0°C 34.1°F1.2°C 62% 16.9 mph E27.2 kmh E 26.0 mph41.8 kmh 29.91 in1012.9 mb 0.00 in0.0 mm 0.00 in0.0 mm 0.00 in0.0 mm
12:48 AM 46.4°F8.0°C 34.1°F1.2°C 62% 14.5 mph E23.3 kmh E 26.0 mph41.8 kmh 29.91 in1012.9 mb 0.00 in0.0 mm 0.00 in0.0 mm 0.00 in0.0 mm
12:49 AM 46.4°F8.0°C 34.1°F1.2°C 62% 16.8 mph E27.0 kmh E 23.0 mph37.0 kmh 29.91 in1012.9 mb 0.00 in0.0 mm 0.00 in0.0 mm 0.00 in0.0 mm
12:50 AM 46.4°F8.0°C 34.1°F1.2°C 62% 18.1 mph E29.1 kmh E 25.0 mph40.2 kmh 29.91 in1012.9 mb 0.00 in0.0 mm 0.00 in0.0 mm 0.00 in0.0 mm
12:51 AM 46.4°F8.0°C 34.1°F1.2°C 62% 19.3 mph E31.1 kmh E 25.0 mph40.2 kmh 29.91 in1012.9 mb 0.00 in0.0 mm 0.00 in0.0 mm 0.00 in0.0 mm
12:52 AM 46.4°F8.0°C 34.1°F1.2°C 62% 21.5 mph E34.6 kmh E 27.0 mph43.5 kmh 29.91 in1012.9 mb 0.00 in0.0 mm 0.00 in0.0 mm 0.00 in0.0 mm
12:53 AM 46.4°F8.0°C 34.1°F1.2°C 62% 15.6 mph E25.1 kmh E 27.0 mph43.5 kmh 29.91 in1012.9 mb 0.00 in0.0 mm 0.00 in0.0 mm 0.00 in0.0 mm
12:54 AM 46.3°F7.9°C 34.0°F1.1°C 62% 14.9 mph E24.0 kmh E 21.0 mph33.8 kmh 29.91 in1012.9 mb 0.00 in0.0 mm 0.00 in0.0 mm 0.00 in0.0 mm
12:55 AM 46.3°F7.9°C 34.0°F1.1°C 62% 17.7 mph E28.5 kmh E 23.0 mph37.0 kmh 29.91 in1012.9 mb 0.00 in0.0 mm 0.00 in0.0 mm 0.00 in0.0 mm
12:56 AM 46.3°F7.9°C 34.0°F1.1°C 62% 17.5 mph E28.2 kmh E 23.0 mph37.0 kmh 29.91 in1012.9 mb 0.00 in0.0 mm 0.00 in0.0 mm 0.00 in0.0 mm
12:57 AM 46.3°F7.9°C 34.0°F1.1°C 62% 19.4 mph E31.2 kmh E 28.0 mph45.1 kmh 29.91 in1012.9 mb 0.00 in0.0 mm 0.00 in0.0 mm 0.00 in0.0 mm
12:58 AM 46.3°F7.9°C 34.0°F1.1°C 62% 20.9 mph E33.6 kmh E 28.0 mph45.1 kmh 29.91 in1012.9 mb 0.00 in0.0 mm 0.00 in0.0 mm 0.00 in0.0 mm
12:59 AM 46.3°F7.9°C 34.0°F1.1°C 62% 16.6 mph E26.7 kmh E 27.0 mph43.5 kmh 29.91 in1012.9 mb 0.00 in0.0 mm 0.00 in0.0 mm 0.00 in0.0 mm
01:00 AM 46.2°F7.9°C 33.9°F1.1°C 62% 17.0 mph E27.4 kmh E 22.0 mph35.4 kmh 29.91 in1012.9 mb 0.00 in0.0 mm 0.00 in0.0 mm 0.00 in0.0 mm
01:01 AM 46.3°F7.9°C 34.0°F1.1°C 62% 20.1 mph E32.3 kmh E 24.0 mph38.6 kmh 29.91 in1012.9 mb 0.00 in0.0 mm 0.00 in0.0 mm 0.00 in0.0 mm
01:02 AM 46.3°F7.9°C 34.0°F1.1°C 62% 17.5 mph E28.2 kmh E 26.0 mph41.8 kmh 29.91 in1012.9 mb 0.00 in0.0 mm 0.00 in0.0 mm 0.00 in0.0 mm
01:03 AM 46.3°F7.9°C 34.0°F1.1°C 62% 20.5 mph E33.0 kmh E 26.0 mph41.8 kmh 29.91 in1012.9 mb 0.00 in0.0 mm 0.00 in0.0 mm 0.00 in0.0 mm
01:04 AM 46.2°F7.9°C 33.9°F1.1°C 62% 20.5 mph E33.0 kmh E 26.0 mph41.8 kmh 29.91 in1012.9 mb 0.00 in0.0 mm 0.00 in0.0 mm 0.00 in0.0 mm
01:05 AM 46.3°F7.9°C 34.0°F1.1°C 62% 16.2 mph E26.1 kmh E 26.0 mph41.8 kmh 29.91 in1012.9 mb 0.00 in0.0 mm 0.00 in0.0 mm 0.00 in0.0 mm
01:06 AM 46.2°F7.9°C 33.9°F1.1°C 62% 15.4 mph E24.8 kmh E 25.0 mph40.2 kmh 29.91 in1012.9 mb 0.00 in0.0 mm 0.00 in0.0 mm 0.00 in0.0 mm
01:07 AM 46.2°F7.9°C 33.9°F1.1°C 62% 18.8 mph E30.3 kmh E 26.0 mph41.8 kmh 29.91 in1012.9 mb 0.00 in0.0 mm 0.00 in0.0 mm 0.00 in0.0 mm
01:08 AM 46.2°F7.9°C 33.9°F1.1°C 62% 18.5 mph E29.8 kmh E 29.0 mph46.7 kmh 29.91 in1012.9 mb 0.00 in0.0 mm 0.00 in0.0 mm 0.00 in0.0 mm
01:09 AM 46.2°F7.9°C 33.9°F1.1°C 62% 17.6 mph E28.3 kmh E 29.0 mph46.7 kmh 29.91 in1012.9 mb 0.00 in0.0 mm 0.00 in0.0 mm 0.00 in0.0 mm
01:10 AM 46.1°F7.8°C 34.2°F1.2°C 63% 13.3 mph E21.4 kmh E 26.0 mph41.8 kmh 29.91 in1012.9 mb 0.00 in0.0 mm 0.00 in0.0 mm 0.00 in0.0 mm
01:11 AM 46.1°F7.8°C 34.2°F1.2°C 63% 14.4 mph E23.2 kmh E 20.0 mph32.2 kmh 29.91 in1012.9 mb 0.00 in0.0 mm 0.00 in0.0 mm 0.00 in0.0 mm
01:12 AM 46.0°F7.8°C 34.1°F1.2°C 63% 16.6 mph E26.7 kmh E 24.0 mph38.6 kmh 29.91 in1012.9 mb 0.00 in0.0 mm 0.00 in0.0 mm 0.00 in0.0 mm
01:13 AM 46.1°F7.8°C 34.2°F1.2°C 63% 16.9 mph E27.2 kmh E 24.0 mph38.6 kmh 29.91 in1012.9 mb 0.00 in0.0 mm 0.00 in0.0 mm 0.00 in0.0 mm
01:14 AM 46.0°F7.8°C 34.1°F1.2°C 63% 17.5 mph E28.2 kmh E 23.0 mph37.0 kmh 29.91 in1012.9 mb 0.00 in0.0 mm 0.00 in0.0 mm 0.00 in0.0 mm
01:15 AM 46.1°F7.8°C 34.2°F1.2°C 63% 21.0 mph E33.8 kmh E 30.0 mph48.3 kmh 29.91 in1012.9 mb 0.00 in0.0 mm 0.00 in0.0 mm 0.00 in0.0 mm
01:16 AM 46.1°F7.8°C 34.2°F1.2°C 63% 14.4 mph E23.2 kmh E 30.0 mph48.3 kmh 29.91 in1012.9 mb 0.00 in0.0 mm 0.00 in0.0 mm 0.00 in0.0 mm
01:17 AM 46.1°F7.8°C 34.2°F1.2°C 63% 19.9 mph E32.0 kmh E 26.0 mph41.8 kmh 29.91 in1012.9 mb 0.00 in0.0 mm 0.00 in0.0 mm 0.00 in0.0 mm
01:18 AM 46.0°F7.8°C 34.1°F1.2°C 63% 15.7 mph E25.3 kmh E 26.0 mph41.8 kmh 29.91 in1012.9 mb 0.00 in0.0 mm 0.00 in0.0 mm 0.00 in0.0 mm
01:19 AM 46.0°F7.8°C 34.1°F1.2°C 63% 18.5 mph E29.8 kmh E 28.0 mph45.1 kmh 29.91 in1012.9 mb 0.00 in0.0 mm 0.00 in0.0 mm 0.00 in0.0 mm
01:20 AM 46.0°F7.8°C 34.1°F1.2°C 63% 22.0 mph E35.4 kmh E 28.0 mph45.1 kmh 29.91 in1012.9 mb 0.00 in0.0 mm 0.00 in0.0 mm 0.00 in0.0 mm
01:21 AM 46.0°F7.8°C 34.1°F1.2°C 63% 19.2 mph E30.9 kmh E 28.0 mph45.1 kmh 29.91 in1012.9 mb 0.00 in0.0 mm 0.00 in0.0 mm 0.00 in0.0 mm
01:22 AM 46.0°F7.8°C 34.1°F1.2°C 63% 16.8 mph E27.0 kmh E 24.0 mph38.6 kmh 29.91 in1012.9 mb 0.00 in0.0 mm 0.00 in0.0 mm 0.00 in0.0 mm
01:23 AM 46.0°F7.8°C 34.1°F1.2°C 63% 18.4 mph E29.6 kmh E 23.0 mph37.0 kmh 29.91 in1012.9 mb 0.00 in0.0 mm 0.00 in0.0 mm 0.00 in0.0 mm
01:24 AM 46.0°F7.8°C 34.1°F1.2°C 63% 18.1 mph E29.1 kmh E 23.0 mph37.0 kmh 29.91 in1012.9 mb 0.00 in0.0 mm 0.00 in0.0 mm 0.00 in0.0 mm
01:25 AM 45.9°F7.7°C 34.0°F1.1°C 63% 20.1 mph E32.3 kmh E 25.0 mph40.2 kmh 29.91 in1012.9 mb 0.00 in0.0 mm 0.00 in0.0 mm 0.00 in0.0 mm
01:26 AM 46.0°F7.8°C 34.1°F1.2°C 63% 20.4 mph E32.8 kmh E 30.0 mph48.3 kmh 29.91 in1012.9 mb 0.00 in0.0 mm 0.00 in0.0 mm 0.00 in0.0 mm
01:27 AM 46.0°F7.8°C 34.1°F1.2°C 63% 16.8 mph E27.0 kmh E 30.0 mph48.3 kmh 29.91 in1012.9 mb 0.00 in0.0 mm 0.00 in0.0 mm 0.00 in0.0 mm
01:28 AM 45.9°F7.7°C 34.4°F1.3°C 64% 16.0 mph E25.7 kmh E 22.0 mph35.4 kmh 29.91 in1012.9 mb 0.00 in0.0 mm 0.00 in0.0 mm 0.00 in0.0 mm
01:29 AM 45.9°F7.7°C 34.4°F1.3°C 64% 19.6 mph E31.5 kmh E 27.0 mph43.5 kmh 29.91 in1012.9 mb 0.00 in0.0 mm 0.00 in0.0 mm 0.00 in0.0 mm
01:30 AM 45.8°F7.7°C 34.3°F1.3°C 64% 20.5 mph E33.0 kmh E 30.0 mph48.3 kmh 29.91 in1012.9 mb 0.00 in0.0 mm 0.00 in0.0 mm 0.00 in0.0 mm
01:31 AM 45.9°F7.7°C 34.4°F1.3°C 64% 18.2 mph E29.3 kmh E 30.0 mph48.3 kmh 29.91 in1012.9 mb 0.00 in0.0 mm 0.00 in0.0 mm 0.00 in0.0 mm
01:32 AM 45.8°F7.7°C 34.3°F1.3°C 64% 15.4 mph E24.8 kmh E 25.0 mph40.2 kmh 29.91 in1012.9 mb 0.00 in0.0 mm 0.00 in0.0 mm 0.00 in0.0 mm
01:33 AM 45.8°F7.7°C 34.3°F1.3°C 64% 16.4 mph E26.4 kmh E 20.0 mph32.2 kmh 29.91 in1012.9 mb 0.00 in0.0 mm 0.00 in0.0 mm 0.00 in0.0 mm
01:34 AM 45.7°F7.6°C 34.2°F1.2°C 64% 13.5 mph E21.7 kmh E 20.0 mph32.2 kmh 29.91 in1012.9 mb 0.00 in0.0 mm 0.00 in0.0 mm 0.00 in0.0 mm
01:35 AM 45.7°F7.6°C 34.2°F1.2°C 64% 16.9 mph E27.2 kmh E 24.0 mph38.6 kmh 29.91 in1012.9 mb 0.00 in0.0 mm 0.00 in0.0 mm 0.00 in0.0 mm
01:36 AM 45.7°F7.6°C 34.2°F1.2°C 64% 17.6 mph E28.3 kmh E 26.0 mph41.8 kmh 29.91 in1012.9 mb 0.00 in0.0 mm 0.00 in0.0 mm 0.00 in0.0 mm
01:37 AM 45.6°F7.6°C 34.1°F1.2°C 64% 18.3 mph E29.5 kmh E 27.0 mph43.5 kmh 29.91 in1012.9 mb 0.00 in0.0 mm 0.00 in0.0 mm 0.00 in0.0 mm
01:38 AM 45.7°F7.6°C 34.2°F1.2°C 64% 14.8 mph E23.8 kmh E 27.0 mph43.5 kmh 29.91 in1012.9 mb 0.00 in0.0 mm 0.00 in0.0 mm 0.00 in0.0 mm
01:39 AM 45.6°F7.6°C 34.1°F1.2°C 64% 15.9 mph E25.6 kmh E 23.0 mph37.0 kmh 29.91 in1012.9 mb 0.00 in0.0 mm 0.00 in0.0 mm 0.00 in0.0 mm
01:40 AM 45.6°F7.6°C 34.1°F1.2°C 64% 18.5 mph E29.8 kmh E 24.0 mph38.6 kmh 29.91 in1012.9 mb 0.00 in0.0 mm 0.00 in0.0 mm 0.00 in0.0 mm
01:41 AM 45.7°F7.6°C 34.2°F1.2°C 64% 18.5 mph E29.8 kmh E 24.0 mph38.6 kmh 29.91 in1012.9 mb 0.00 in0.0 mm 0.00 in0.0 mm 0.00 in0.0 mm
01:42 AM 45.6°F7.6°C 34.1°F1.2°C 64% 18.8 mph E30.3 kmh E 24.0 mph38.6 kmh 29.91 in1012.9 mb 0.00 in0.0 mm 0.00 in0.0 mm 0.00 in0.0 mm
01:43 AM 45.6°F7.6°C 34.1°F1.2°C 64% 19.6 mph E31.5 kmh E 25.0 mph40.2 kmh 29.91 in1012.9 mb 0.00 in0.0 mm 0.00 in0.0 mm 0.00 in0.0 mm
01:44 AM 45.6°F7.6°C 34.1°F1.2°C 64% 16.3 mph E26.2 kmh E 25.0 mph40.2 kmh 29.91 in1012.9 mb 0.00 in0.0 mm 0.00 in0.0 mm 0.00 in0.0 mm
01:45 AM 45.6°F7.6°C 34.1°F1.2°C 64% 21.4 mph E34.4 kmh E 27.0 mph43.5 kmh 29.91 in1012.9 mb 0.00 in0.0 mm 0.00 in0.0 mm 0.00 in0.0 mm
01:46 AM 45.6°F7.6°C 34.5°F1.4°C 65% 21.7 mph E34.9 kmh E 30.0 mph48.3 kmh 29.91 in1012.9 mb 0.00 in0.0 mm 0.00 in0.0 mm 0.00 in0.0 mm
01:47 AM 45.6°F7.6°C 34.1°F1.2°C 64% 18.3 mph E29.5 kmh E 30.0 mph48.3 kmh 29.91 in1012.9 mb 0.00 in0.0 mm 0.00 in0.0 mm 0.00 in0.0 mm
01:48 AM 45.6°F7.6°C 34.1°F1.2°C 64% 20.3 mph E32.7 kmh E 29.0 mph46.7 kmh 29.91 in1012.9 mb 0.00 in0.0 mm 0.00 in0.0 mm 0.00 in0.0 mm
01:49 AM 45.6°F7.6°C 34.5°F1.4°C 65% 13.1 mph E21.1 kmh E 29.0 mph46.7 kmh 29.91 in1012.9 mb 0.00 in0.0 mm 0.00 in0.0 mm 0.00 in0.0 mm
01:50 AM 45.6°F7.6°C 34.5°F1.4°C 65% 18.1 mph E29.1 kmh E 29.0 mph46.7 kmh 29.91 in1012.9 mb 0.00 in0.0 mm 0.00 in0.0 mm 0.00 in0.0 mm
01:51 AM 45.5°F7.5°C 34.4°F1.3°C 65% 15.6 mph E25.1 kmh E 29.0 mph46.7 kmh 29.91 in1012.9 mb 0.00 in0.0 mm 0.00 in0.0 mm 0.00 in0.0 mm
01:52 AM 45.6°F7.6°C 34.5°F1.4°C 65% 18.7 mph E30.1 kmh E 25.0 mph40.2 kmh 29.91 in1012.9 mb 0.00 in0.0 mm 0.00 in0.0 mm 0.00 in0.0 mm
01:53 AM 45.5°F7.5°C 34.4°F1.3°C 65% 17.2 mph E27.7 kmh E 25.0 mph40.2 kmh 29.91 in1012.9 mb 0.00 in0.0 mm 0.00 in0.0 mm 0.00 in0.0 mm
01:54 AM 45.5°F7.5°C 34.4°F1.3°C 65% 17.0 mph E27.4 kmh E 25.0 mph40.2 kmh 29.91 in1012.9 mb 0.00 in0.0 mm 0.00 in0.0 mm 0.00 in0.0 mm
01:55 AM 45.5°F7.5°C 34.4°F1.3°C 65% 15.3 mph E24.6 kmh E 27.0 mph43.5 kmh 29.91 in1012.9 mb 0.00 in0.0 mm 0.00 in0.0 mm 0.00 in0.0 mm
01:56 AM 45.5°F7.5°C 34.4°F1.3°C 65% 12.4 mph E20.0 kmh E 27.0 mph43.5 kmh 29.91 in1012.9 mb 0.00 in0.0 mm 0.00 in0.0 mm 0.00 in0.0 mm
01:57 AM 45.5°F7.5°C 34.4°F1.3°C 65% 16.0 mph E25.7 kmh E 23.0 mph37.0 kmh 29.91 in1012.9 mb 0.00 in0.0 mm 0.00 in0.0 mm 0.00 in0.0 mm
01:58 AM 45.5°F7.5°C 34.4°F1.3°C 65% 18.1 mph E29.1 kmh E 27.0 mph43.5 kmh 29.91 in1012.9 mb 0.00 in0.0 mm 0.00 in0.0 mm 0.00 in0.0 mm
01:59 AM 45.5°F7.5°C 34.4°F1.3°C 65% 17.1 mph E27.5 kmh E 27.0 mph43.5 kmh 29.91 in1012.9 mb 0.00 in0.0 mm 0.00 in0.0 mm 0.00 in0.0 mm
02:00 AM 45.5°F7.5°C 34.4°F1.3°C 65% 20.4 mph E32.8 kmh E 27.0 mph43.5 kmh 29.91 in1012.9 mb 0.00 in0.0 mm 0.00 in0.0 mm 0.00 in0.0 mm
02:01 AM 45.5°F7.5°C 34.4°F1.3°C 65% 16.7 mph E26.9 kmh E 27.0 mph43.5 kmh 29.91 in1012.9 mb 0.00 in0.0 mm 0.00 in0.0 mm 0.00 in0.0 mm
02:02 AM 45.5°F7.5°C 34.4°F1.3°C 65% 14.0 mph E22.5 kmh E 21.0 mph33.8 kmh 29.91 in1012.9 mb 0.00 in0.0 mm 0.00 in0.0 mm 0.00 in0.0 mm
02:03 AM 45.5°F7.5°C 34.4°F1.3°C 65% 11.4 mph E18.3 kmh E 20.0 mph32.2 kmh 29.91 in1012.9 mb 0.00 in0.0 mm 0.00 in0.0 mm 0.00 in0.0 mm
02:04 AM 45.6°F7.6°C 34.5°F1.4°C 65% 15.2 mph E24.5 kmh E 26.0 mph41.8 kmh 29.91 in1012.9 mb 0.00 in0.0 mm 0.00 in0.0 mm 0.00 in0.0 mm
02:05 AM 45.6°F7.6°C 34.5°F1.4°C 65% 18.1 mph E29.1 kmh E 27.0 mph43.5 kmh 29.91 in1012.9 mb 0.00 in0.0 mm 0.00 in0.0 mm 0.00 in0.0 mm
02:06 AM 45.6°F7.6°C 34.5°F1.4°C 65% 17.8 mph E28.6 kmh E 27.0 mph43.5 kmh 29.91 in1012.9 mb 0.00 in0.0 mm 0.00 in0.0 mm 0.00 in0.0 mm
02:07 AM 45.6°F7.6°C 34.5°F1.4°C 65% 16.2 mph E26.1 kmh E 24.0 mph38.6 kmh 29.91 in1012.9 mb 0.00 in0.0 mm 0.00 in0.0 mm 0.00 in0.0 mm
02:08 AM 45.6°F7.6°C 34.5°F1.4°C 65% 17.8 mph E28.6 kmh E 28.0 mph45.1 kmh 29.91 in1012.9 mb 0.00 in0.0 mm 0.00 in0.0 mm 0.00 in0.0 mm
02:09 AM 45.7°F7.6°C 34.2°F1.2°C 64% 19.1 mph E30.7 kmh E 28.0 mph45.1 kmh 29.91 in1012.9 mb 0.00 in0.0 mm 0.00 in0.0 mm 0.00 in0.0 mm
02:10 AM 45.6°F7.6°C 34.5°F1.4°C 65% 20.7 mph E33.3 kmh E 28.0 mph45.1 kmh 29.91 in1012.9 mb 0.00 in0.0 mm 0.00 in0.0 mm 0.00 in0.0 mm
02:11 AM 45.7°F7.6°C 34.2°F1.2°C 64% 16.6 mph E26.7 kmh E 28.0 mph45.1 kmh 29.91 in1012.9 mb 0.00 in0.0 mm 0.00 in0.0 mm 0.00 in0.0 mm
02:12 AM 45.7°F7.6°C 34.2°F1.2°C 64% 16.9 mph E27.2 kmh E 25.0 mph40.2 kmh 29.91 in1012.9 mb 0.00 in0.0 mm 0.00 in0.0 mm 0.00 in0.0 mm
02:13 AM 45.7°F7.6°C 34.2°F1.2°C 64% 15.8 mph E25.4 kmh E 21.0 mph33.8 kmh 29.91 in1012.9 mb 0.00 in0.0 mm 0.00 in0.0 mm 0.00 in0.0 mm
02:14 AM 45.7°F7.6°C 34.2°F1.2°C 64% 16.2 mph E26.1 kmh E 24.0 mph38.6 kmh 29.91 in1012.9 mb 0.00 in0.0 mm 0.00 in0.0 mm 0.00 in0.0 mm
02:15 AM 45.7°F7.6°C 34.2°F1.2°C 64% 14.5 mph E23.3 kmh E 24.0 mph38.6 kmh 29.91 in1012.9 mb 0.00 in0.0 mm 0.00 in0.0 mm 0.00 in0.0 mm
02:16 AM 45.7°F7.6°C 34.2°F1.2°C 64% 14.1 mph E22.7 kmh E 20.0 mph32.2 kmh 29.90 in1012.5 mb 0.00 in0.0 mm 0.00 in0.0 mm 0.00 in0.0 mm
02:17 AM 45.6°F7.6°C 34.5°F1.4°C 65% 15.5 mph E24.9 kmh E 20.0 mph32.2 kmh 29.90 in1012.5 mb 0.00 in0.0 mm 0.00 in0.0 mm 0.00 in0.0 mm
02:18 AM 45.6°F7.6°C 34.5°F1.4°C 65% 13.5 mph E21.7 kmh E 20.0 mph32.2 kmh 29.90 in1012.5 mb 0.00 in0.0 mm 0.00 in0.0 mm 0.00 in0.0 mm
02:19 AM 45.6°F7.6°C 34.5°F1.4°C 65% 14.8 mph E23.8 kmh E 20.0 mph32.2 kmh 29.90 in1012.5 mb 0.00 in0.0 mm 0.00 in0.0 mm 0.00 in0.0 mm
02:20 AM 45.6°F7.6°C 34.5°F1.4°C 65% 12.6 mph E20.3 kmh E 20.0 mph32.2 kmh 29.90 in1012.5 mb 0.00 in0.0 mm 0.00 in0.0 mm 0.00 in0.0 mm
02:21 AM 45.5°F7.5°C 34.4°F1.3°C 65% 15.5 mph E24.9 kmh E 23.0 mph37.0 kmh 29.90 in1012.5 mb 0.00 in0.0 mm 0.00 in0.0 mm 0.00 in0.0 mm
02:22 AM 45.6°F7.6°C 34.5°F1.4°C 65% 19.3 mph E31.1 kmh E 24.0 mph38.6 kmh 29.90 in1012.5 mb 0.00 in0.0 mm 0.00 in0.0 mm 0.00 in0.0 mm
02:23 AM 45.6°F7.6°C 34.5°F1.4°C 65% 18.2 mph E29.3 kmh E 24.0 mph38.6 kmh 29.90 in1012.5 mb 0.00 in0.0 mm 0.00 in0.0 mm 0.00 in0.0 mm
02:24 AM 45.6°F7.6°C 34.5°F1.4°C 65% 17.1 mph E27.5 kmh E 28.0 mph45.1 kmh 29.90 in1012.5 mb 0.00 in0.0 mm 0.00 in0.0 mm 0.00 in0.0 mm
02:25 AM 45.6°F7.6°C 34.5°F1.4°C 65% 18.5 mph E29.8 kmh E 28.0 mph45.1 kmh 29.89 in1012.2 mb 0.00 in0.0 mm 0.00 in0.0 mm 0.00 in0.0 mm
02:26 AM 45.6°F7.6°C 34.5°F1.4°C 65% 16.8 mph E27.0 kmh E 23.0 mph37.0 kmh 29.90 in1012.5 mb 0.00 in0.0 mm 0.00 in0.0 mm 0.00 in0.0 mm
02:27 AM 45.6°F7.6°C 34.5°F1.4°C 65% 16.7 mph E26.9 kmh E 24.0 mph38.6 kmh 29.90 in1012.5 mb 0.00 in0.0 mm 0.00 in0.0 mm 0.00 in0.0 mm
02:28 AM 45.6°F7.6°C 34.5°F1.4°C 65% 17.7 mph E28.5 kmh E 27.0 mph43.5 kmh 29.90 in1012.5 mb 0.00 in0.0 mm 0.00 in0.0 mm 0.00 in0.0 mm
02:29 AM 45.7°F7.6°C 34.6°F1.4°C 65% 21.5 mph E34.6 kmh E 30.0 mph48.3 kmh 29.90 in1012.5 mb 0.00 in0.0 mm 0.00 in0.0 mm 0.00 in0.0 mm
02:30 AM 45.6°F7.6°C 34.5°F1.4°C 65% 19.5 mph E31.4 kmh E 30.0 mph48.3 kmh 29.90 in1012.5 mb 0.00 in0.0 mm 0.00 in0.0 mm 0.00 in0.0 mm
02:31 AM 45.6°F7.6°C 34.5°F1.4°C 65% 17.7 mph E28.5 kmh E 27.0 mph43.5 kmh 29.90 in1012.5 mb 0.00 in0.0 mm 0.00 in0.0 mm 0.00 in0.0 mm
02:32 AM 45.6°F7.6°C 34.5°F1.4°C 65% 14.2 mph E22.9 kmh E 27.0 mph43.5 kmh 29.90 in1012.5 mb 0.00 in0.0 mm 0.00 in0.0 mm 0.00 in0.0 mm
02:33 AM 45.6°F7.6°C 34.5°F1.4°C 65% 18.2 mph E29.3 kmh E 27.0 mph43.5 kmh 29.90 in1012.5 mb 0.00 in0.0 mm 0.00 in0.0 mm 0.00 in0.0 mm
02:34 AM 45.6°F7.6°C 34.5°F1.4°C 65% 21.8 mph E35.1 kmh E 30.0 mph48.3 kmh 29.90 in1012.5 mb 0.00 in0.0 mm 0.00 in0.0 mm 0.00 in0.0 mm
02:35 AM 45.6°F7.6°C 34.5°F1.4°C 65% 19.2 mph E30.9 kmh E 30.0 mph48.3 kmh 29.90 in1012.5 mb 0.00 in0.0 mm 0.00 in0.0 mm 0.00 in0.0 mm
02:36 AM 45.6°F7.6°C 34.5°F1.4°C 65% 14.9 mph E24.0 kmh E 24.0 mph38.6 kmh 29.90 in1012.5 mb 0.00 in0.0 mm 0.00 in0.0 mm 0.00 in0.0 mm
02:37 AM 45.6°F7.6°C 34.5°F1.4°C 65% 14.0 mph E22.5 kmh E 21.0 mph33.8 kmh 29.90 in1012.5 mb 0.00 in0.0 mm 0.00 in0.0 mm 0.00 in0.0 mm
02:38 AM 45.6°F7.6°C 34.5°F1.4°C 65% 18.2 mph E29.3 kmh E 25.0 mph40.2 kmh 29.90 in1012.5 mb 0.00 in0.0 mm 0.00 in0.0 mm 0.00 in0.0 mm
02:39 AM 45.6°F7.6°C 34.5°F1.4°C 65% 16.8 mph E27.0 kmh E 25.0 mph40.2 kmh 29.90 in1012.5 mb 0.00 in0.0 mm 0.00 in0.0 mm 0.00 in0.0 mm
02:40 AM 45.5°F7.5°C 34.4°F1.3°C 65% 20.2 mph E32.5 kmh E 27.0 mph43.5 kmh 29.90 in1012.5 mb 0.00 in0.0 mm 0.00 in0.0 mm 0.00 in0.0 mm
02:41 AM 45.5°F7.5°C 34.4°F1.3°C 65% 17.9 mph E28.8 kmh E 27.0 mph43.5 kmh 29.89 in1012.2 mb 0.00 in0.0 mm 0.00 in0.0 mm 0.00 in0.0 mm
02:42 AM 45.5°F7.5°C 34.4°F1.3°C 65% 18.0 mph E29.0 kmh E 26.0 mph41.8 kmh 29.89 in1012.2 mb 0.00 in0.0 mm 0.00 in0.0 mm 0.00 in0.0 mm
02:43 AM 45.5°F7.5°C 34.4°F1.3°C 65% 16.6 mph E26.7 kmh E 26.0 mph41.8 kmh 29.89 in1012.2 mb 0.00 in0.0 mm 0.00 in0.0 mm 0.00 in0.0 mm
02:44 AM 45.5°F7.5°C 34.4°F1.3°C 65% 15.1 mph E24.3 kmh E 21.0 mph33.8 kmh 29.89 in1012.2 mb 0.00 in0.0 mm 0.00 in0.0 mm 0.00 in0.0 mm
02:45 AM 45.5°F7.5°C 34.4°F1.3°C 65% 16.8 mph E27.0 kmh E 25.0 mph40.2 kmh 29.89 in1012.2 mb 0.00 in0.0 mm 0.00 in0.0 mm 0.00 in0.0 mm
02:46 AM 45.5°F7.5°C 34.4°F1.3°C 65% 17.1 mph E27.5 kmh E 25.0 mph40.2 kmh 29.89 in1012.2 mb 0.00 in0.0 mm 0.00 in0.0 mm 0.00 in0.0 mm
02:47 AM 45.5°F7.5°C 34.4°F1.3°C 65% 17.4 mph E28.0 kmh E 23.0 mph37.0 kmh 29.89 in1012.2 mb 0.00 in0.0 mm 0.00 in0.0 mm 0.00 in0.0 mm
02:48 AM 45.5°F7.5°C 34.4°F1.3°C 65% 15.3 mph E24.6 kmh E 25.0 mph40.2 kmh 29.89 in1012.2 mb 0.00 in0.0 mm 0.00 in0.0 mm 0.00 in0.0 mm
02:49 AM 45.5°F7.5°C 34.4°F1.3°C 65% 21.8 mph E35.1 kmh E 30.0 mph48.3 kmh 29.89 in1012.2 mb 0.00 in0.0 mm 0.00 in0.0 mm 0.00 in0.0 mm
02:50 AM 45.5°F7.5°C 34.4°F1.3°C 65% 21.5 mph E34.6 kmh E 30.0 mph48.3 kmh 29.89 in1012.2 mb 0.00 in0.0 mm 0.00 in0.0 mm 0.00 in0.0 mm
02:51 AM 45.5°F7.5°C 34.4°F1.3°C 65% 16.8 mph E27.0 kmh E 29.0 mph46.7 kmh 29.89 in1012.2 mb 0.00 in0.0 mm 0.00 in0.0 mm 0.00 in0.0 mm
02:52 AM 45.5°F7.5°C 34.4°F1.3°C 65% 17.1 mph E27.5 kmh E 23.0 mph37.0 kmh 29.89 in1012.2 mb 0.00 in0.0 mm 0.00 in0.0 mm 0.00 in0.0 mm
02:53 AM 45.5°F7.5°C 34.4°F1.3°C 65% 18.0 mph E29.0 kmh E 27.0 mph43.5 kmh 29.89 in1012.2 mb 0.00 in0.0 mm 0.00 in0.0 mm 0.00 in0.0 mm
02:54 AM 45.5°F7.5°C 34.4°F1.3°C 65% 16.7 mph E26.9 kmh E 27.0 mph43.5 kmh 29.89 in1012.2 mb 0.00 in0.0 mm 0.00 in0.0 mm 0.00 in0.0 mm
02:55 AM 45.5°F7.5°C 34.4°F1.3°C 65% 18.0 mph E29.0 kmh E 25.0 mph40.2 kmh 29.89 in1012.2 mb 0.00 in0.0 mm 0.00 in0.0 mm 0.00 in0.0 mm
02:56 AM 45.5°F7.5°C 34.4°F1.3°C 65% 17.0 mph E27.4 kmh E 25.0 mph40.2 kmh 29.89 in1012.2 mb 0.00 in0.0 mm 0.00 in0.0 mm 0.00 in0.0 mm
02:57 AM 45.5°F7.5°C 34.4°F1.3°C 65% 17.1 mph E27.5 kmh E 24.0 mph38.6 kmh 29.89 in1012.2 mb 0.00 in0.0 mm 0.00 in0.0 mm 0.00 in0.0 mm
02:58 AM 45.5°F7.5°C 34.8°F1.6°C 66% 14.5 mph E23.3 kmh E 23.0 mph37.0 kmh 29.89 in1012.2 mb 0.00 in0.0 mm 0.00 in0.0 mm 0.00 in0.0 mm
02:59 AM 45.5°F7.5°C 34.8°F1.6°C 66% 19.6 mph E31.5 kmh E 25.0 mph40.2 kmh 29.89 in1012.2 mb 0.00 in0.0 mm 0.00 in0.0 mm 0.00 in0.0 mm
03:00 AM 45.5°F7.5°C 34.8°F1.6°C 66% 18.3 mph E29.5 kmh E 25.0 mph40.2 kmh 29.89 in1012.2 mb 0.00 in0.0 mm 0.00 in0.0 mm 0.00 in0.0 mm
03:01 AM 45.5°F7.5°C 34.8°F1.6°C 66% 22.7 mph E36.5 kmh E 30.0 mph48.3 kmh 29.89 in1012.2 mb 0.00 in0.0 mm 0.00 in0.0 mm 0.00 in0.0 mm
03:02 AM 45.5°F7.5°C 34.8°F1.6°C 66% 19.1 mph E30.7 kmh E 30.0 mph48.3 kmh 29.89 in1012.2 mb 0.00 in0.0 mm 0.00 in0.0 mm 0.00 in0.0 mm
03:03 AM 45.5°F7.5°C 34.8°F1.6°C 66% 16.2 mph E26.1 kmh E 26.0 mph41.8 kmh 29.89 in1012.2 mb 0.00 in0.0 mm 0.00 in0.0 mm 0.00 in0.0 mm
03:04 AM 45.5°F7.5°C 34.8°F1.6°C 66% 16.2 mph E26.1 kmh E 22.0 mph35.4 kmh 29.89 in1012.2 mb 0.00 in0.0 mm 0.00 in0.0 mm 0.00 in0.0 mm
03:05 AM 45.5°F7.5°C 34.8°F1.6°C 66% 15.2 mph E24.5 kmh E 21.0 mph33.8 kmh 29.89 in1012.2 mb 0.00 in0.0 mm 0.00 in0.0 mm 0.00 in0.0 mm
03:06 AM 45.4°F7.4°C 34.7°F1.5°C 66% 18.8 mph E30.3 kmh E 25.0 mph40.2 kmh 29.89 in1012.2 mb 0.00 in0.0 mm 0.00 in0.0 mm 0.00 in0.0 mm
03:07 AM 45.4°F7.4°C 34.7°F1.5°C 66% 17.5 mph E28.2 kmh E 25.0 mph40.2 kmh 29.89 in1012.2 mb 0.00 in0.0 mm 0.00 in0.0 mm 0.00 in0.0 mm
03:08 AM 45.4°F7.4°C 34.7°F1.5°C 66% 15.0 mph E24.1 kmh E 25.0 mph40.2 kmh 29.89 in1012.2 mb 0.00 in0.0 mm 0.00 in0.0 mm 0.00 in0.0 mm
03:09 AM 45.4°F7.4°C 34.7°F1.5°C 66% 16.2 mph E26.1 kmh E 24.0 mph38.6 kmh 29.89 in1012.2 mb 0.00 in0.0 mm 0.00 in0.0 mm 0.00 in0.0 mm
03:10 AM 45.4°F7.4°C 34.7°F1.5°C 66% 22.0 mph E35.4 kmh E 28.0 mph45.1 kmh 29.89 in1012.2 mb 0.00 in0.0 mm 0.00 in0.0 mm 0.00 in0.0 mm
03:11 AM 45.4°F7.4°C 34.7°F1.5°C 66% 20.1 mph E32.3 kmh E 28.0 mph45.1 kmh 29.89 in1012.2 mb 0.00 in0.0 mm 0.00 in0.0 mm 0.00 in0.0 mm
03:12 AM 45.4°F7.4°C 34.7°F1.5°C 66% 18.1 mph E29.1 kmh E 28.0 mph45.1 kmh 29.89 in1012.2 mb 0.00 in0.0 mm 0.00 in0.0 mm 0.00 in0.0 mm
03:13 AM 45.4°F7.4°C 34.7°F1.5°C 66% 20.2 mph E32.5 kmh E 28.0 mph45.1 kmh 29.89 in1012.2 mb 0.00 in0.0 mm 0.00 in0.0 mm 0.00 in0.0 mm
03:14 AM 45.4°F7.4°C 34.7°F1.5°C 66% 18.9 mph E30.4 kmh E 24.0 mph38.6 kmh 29.89 in1012.2 mb 0.00 in0.0 mm 0.00 in0.0 mm 0.00 in0.0 mm
03:15 AM 45.4°F7.4°C 34.7°F1.5°C 66% 16.8 mph E27.0 kmh E 26.0 mph41.8 kmh 29.89 in1012.2 mb 0.00 in0.0 mm 0.00 in0.0 mm 0.00 in0.0 mm
03:16 AM 45.4°F7.4°C 34.7°F1.5°C 66% 19.7 mph E31.7 kmh E 27.0 mph43.5 kmh 29.89 in1012.2 mb 0.00 in0.0 mm 0.00 in0.0 mm 0.00 in0.0 mm
03:17 AM 45.4°F7.4°C 34.7°F1.5°C 66% 17.4 mph E28.0 kmh E 27.0 mph43.5 kmh 29.88 in1011.9 mb 0.00 in0.0 mm 0.00 in0.0 mm 0.00 in0.0 mm
03:18 AM 45.4°F7.4°C 34.7°F1.5°C 66% 15.7 mph E25.3 kmh E 27.0 mph43.5 kmh 29.88 in1011.9 mb 0.00 in0.0 mm 0.00 in0.0 mm 0.00 in0.0 mm
03:19 AM 45.4°F7.4°C 35.1°F1.7°C 67% 17.5 mph E28.2 kmh E 24.0 mph38.6 kmh 29.89 in1012.2 mb 0.00 in0.0 mm 0.00 in0.0 mm 0.00 in0.0 mm
03:20 AM 45.3°F7.4°C 35.0°F1.7°C 67% 18.7 mph E30.1 kmh E 24.0 mph38.6 kmh 29.89 in1012.2 mb 0.00 in0.0 mm 0.00 in0.0 mm 0.00 in0.0 mm
03:21 AM 45.4°F7.4°C 34.7°F1.5°C 66% 21.1 mph E34.0 kmh E 27.0 mph43.5 kmh 29.88 in1011.9 mb 0.00 in0.0 mm 0.00 in0.0 mm 0.00 in0.0 mm
03:22 AM 45.3°F7.4°C 35.0°F1.7°C 67% 18.0 mph E29.0 kmh E 27.0 mph43.5 kmh 29.88 in1011.9 mb 0.00 in0.0 mm 0.00 in0.0 mm 0.00 in0.0 mm
03:23 AM 45.4°F7.4°C 34.7°F1.5°C 66% 20.2 mph E32.5 kmh E 27.0 mph43.5 kmh 29.88 in1011.9 mb 0.00 in0.0 mm 0.00 in0.0 mm 0.00 in0.0 mm
03:24 AM 45.4°F7.4°C 35.1°F1.7°C 67% 18.3 mph E29.5 kmh E 27.0 mph43.5 kmh 29.88 in1011.9 mb 0.00 in0.0 mm 0.00 in0.0 mm 0.00 in0.0 mm
03:25 AM 45.4°F7.4°C 35.1°F1.7°C 67% 19.9 mph E32.0 kmh E 26.0 mph41.8 kmh 29.88 in1011.9 mb 0.00 in0.0 mm 0.00 in0.0 mm 0.00 in0.0 mm
03:26 AM 45.4°F7.4°C 35.1°F1.7°C 67% 21.5 mph E34.6 kmh E 30.0 mph48.3 kmh 29.88 in1011.9 mb 0.00 in0.0 mm 0.00 in0.0 mm 0.00 in0.0 mm
03:27 AM 45.4°F7.4°C 34.7°F1.5°C 66% 21.5 mph E34.6 kmh E 30.0 mph48.3 kmh 29.88 in1011.9 mb 0.00 in0.0 mm 0.00 in0.0 mm 0.00 in0.0 mm
03:28 AM 45.4°F7.4°C 34.7°F1.5°C 66% 22.5 mph E36.2 kmh E 29.0 mph46.7 kmh 29.88 in1011.9 mb 0.00 in0.0 mm 0.00 in0.0 mm 0.00 in0.0 mm
03:29 AM 45.4°F7.4°C 35.1°F1.7°C 67% 18.8 mph E30.3 kmh E 29.0 mph46.7 kmh 29.88 in1011.9 mb 0.00 in0.0 mm 0.00 in0.0 mm 0.00 in0.0 mm
03:30 AM 45.4°F7.4°C 35.1°F1.7°C 67% 19.3 mph E31.1 kmh E 26.0 mph41.8 kmh 29.88 in1011.9 mb 0.00 in0.0 mm 0.00 in0.0 mm 0.00 in0.0 mm
03:31 AM 45.4°F7.4°C 35.1°F1.7°C 67% 17.7 mph E28.5 kmh E 23.0 mph37.0 kmh 29.88 in1011.9 mb 0.00 in0.0 mm 0.00 in0.0 mm 0.00 in0.0 mm
03:32 AM 45.3°F7.4°C 35.0°F1.7°C 67% 17.7 mph E28.5 kmh E 23.0 mph37.0 kmh 29.88 in1011.9 mb 0.00 in0.0 mm 0.00 in0.0 mm 0.00 in0.0 mm
03:33 AM 45.4°F7.4°C 35.1°F1.7°C 67% 16.6 mph E26.7 kmh E 22.0 mph35.4 kmh 29.88 in1011.9 mb 0.00 in0.0 mm 0.00 in0.0 mm 0.00 in0.0 mm
03:34 AM 45.3°F7.4°C 35.0°F1.7°C 67% 14.5 mph E23.3 kmh E 22.0 mph35.4 kmh 29.88 in1011.9 mb 0.00 in0.0 mm 0.00 in0.0 mm 0.00 in0.0 mm
03:35 AM 45.3°F7.4°C 35.0°F1.7°C 67% 19.9 mph E32.0 kmh E 26.0 mph41.8 kmh 29.88 in1011.9 mb 0.00 in0.0 mm 0.00 in0.0 mm 0.00 in0.0 mm
03:36 AM 45.3°F7.4°C 35.0°F1.7°C 67% 19.3 mph E31.1 kmh E 26.0 mph41.8 kmh 29.88 in1011.9 mb 0.00 in0.0 mm 0.00 in0.0 mm 0.00 in0.0 mm
03:37 AM 45.2°F7.3°C 34.9°F1.6°C 67% 17.5 mph E28.2 kmh E 26.0 mph41.8 kmh 29.88 in1011.9 mb 0.00 in0.0 mm 0.00 in0.0 mm 0.00 in0.0 mm
03:38 AM 45.3°F7.4°C 35.0°F1.7°C 67% 18.9 mph E30.4 kmh E 27.0 mph43.5 kmh 29.88 in1011.9 mb 0.00 in0.0 mm 0.00 in0.0 mm 0.00 in0.0 mm
03:39 AM 45.2°F7.3°C 34.9°F1.6°C 67% 17.5 mph E28.2 kmh E 27.0 mph43.5 kmh 29.88 in1011.9 mb 0.00 in0.0 mm 0.00 in0.0 mm 0.00 in0.0 mm
03:40 AM 45.3°F7.4°C 35.0°F1.7°C 67% 16.6 mph E26.7 kmh E 29.0 mph46.7 kmh 29.88 in1011.9 mb 0.00 in0.0 mm 0.00 in0.0 mm 0.00 in0.0 mm
03:41 AM 45.3°F7.4°C 35.0°F1.7°C 67% 17.9 mph E28.8 kmh E 29.0 mph46.7 kmh 29.88 in1011.9 mb 0.00 in0.0 mm 0.00 in0.0 mm 0.00 in0.0 mm
03:42 AM 45.2°F7.3°C 34.9°F1.6°C 67% 16.7 mph E26.9 kmh E 25.0 mph40.2 kmh 29.88 in1011.9 mb 0.00 in0.0 mm 0.00 in0.0 mm 0.00 in0.0 mm
03:43 AM 45.3°F7.4°C 35.0°F1.7°C 67% 18.3 mph E29.5 kmh E 25.0 mph40.2 kmh 29.88 in1011.9 mb 0.00 in0.0 mm 0.00 in0.0 mm 0.00 in0.0 mm
03:44 AM 45.3°F7.4°C 35.0°F1.7°C 67% 16.2 mph E26.1 kmh E 26.0 mph41.8 kmh 29.88 in1011.9 mb 0.00 in0.0 mm 0.00 in0.0 mm 0.00 in0.0 mm
03:45 AM 45.3°F7.4°C 35.0°F1.7°C 67% 13.5 mph E21.7 kmh E 26.0 mph41.8 kmh 29.88 in1011.9 mb 0.00 in0.0 mm 0.00 in0.0 mm 0.00 in0.0 mm
03:46 AM 45.2°F7.3°C 34.9°F1.6°C 67% 18.5 mph E29.8 kmh E 24.0 mph38.6 kmh 29.88 in1011.9 mb 0.00 in0.0 mm 0.00 in0.0 mm 0.00 in0.0 mm
03:47 AM 45.3°F7.4°C 35.0°F1.7°C 67% 18.8 mph E30.3 kmh E 27.0 mph43.5 kmh 29.88 in1011.9 mb 0.00 in0.0 mm 0.00 in0.0 mm 0.00 in0.0 mm
03:48 AM 45.3°F7.4°C 35.0°F1.7°C 67% 17.0 mph E27.4 kmh E 27.0 mph43.5 kmh 29.88 in1011.9 mb 0.00 in0.0 mm 0.00 in0.0 mm 0.00 in0.0 mm
03:49 AM 45.3°F7.4°C 35.0°F1.7°C 67% 16.8 mph E27.0 kmh E 27.0 mph43.5 kmh 29.88 in1011.9 mb 0.00 in0.0 mm 0.00 in0.0 mm 0.00 in0.0 mm
03:50 AM 45.3°F7.4°C 35.0°F1.7°C 67% 14.8 mph E23.8 kmh E 27.0 mph43.5 kmh 29.88 in1011.9 mb 0.00 in0.0 mm 0.00 in0.0 mm 0.00 in0.0 mm
03:51 AM 45.3°F7.4°C 35.0°F1.7°C 67% 16.3 mph E26.2 kmh E 25.0 mph40.2 kmh 29.88 in1011.9 mb 0.00 in0.0 mm 0.00 in0.0 mm 0.00 in0.0 mm
03:52 AM 45.3°F7.4°C 35.0°F1.7°C 67% 17.7 mph E28.5 kmh E 25.0 mph40.2 kmh 29.88 in1011.9 mb 0.00 in0.0 mm 0.00 in0.0 mm 0.00 in0.0 mm
03:53 AM 45.3°F7.4°C 35.0°F1.7°C 67% 16.0 mph E25.7 kmh E 24.0 mph38.6 kmh 29.88 in1011.9 mb 0.00 in0.0 mm 0.00 in0.0 mm 0.00 in0.0 mm
03:54 AM 45.3°F7.4°C 35.0°F1.7°C 67% 15.0 mph E24.1 kmh E 20.0 mph32.2 kmh 29.88 in1011.9 mb 0.00 in0.0 mm 0.00 in0.0 mm 0.00 in0.0 mm
03:55 AM 45.3°F7.4°C 35.0°F1.7°C 67% 14.6 mph E23.5 kmh E 20.0 mph32.2 kmh 29.88 in1011.9 mb 0.00 in0.0 mm 0.00 in0.0 mm 0.00 in0.0 mm
03:56 AM 45.3°F7.4°C 35.0°F1.7°C 67% 16.3 mph E26.2 kmh E 24.0 mph38.6 kmh 29.88 in1011.9 mb 0.00 in0.0 mm 0.00 in0.0 mm 0.00 in0.0 mm
03:57 AM 45.3°F7.4°C 35.0°F1.7°C 67% 18.7 mph E30.1 kmh E 27.0 mph43.5 kmh 29.88 in1011.9 mb 0.00 in0.0 mm 0.00 in0.0 mm 0.00 in0.0 mm
03:58 AM 45.2°F7.3°C 34.9°F1.6°C 67% 16.6 mph E26.7 kmh E 27.0 mph43.5 kmh 29.88 in1011.9 mb 0.00 in0.0 mm 0.00 in0.0 mm 0.00 in0.0 mm
03:59 AM 45.3°F7.4°C 35.0°F1.7°C 67% 14.7 mph E23.7 kmh E 22.0 mph35.4 kmh 29.88 in1011.9 mb 0.00 in0.0 mm 0.00 in0.0 mm 0.00 in0.0 mm
04:00 AM 45.2°F7.3°C 34.9°F1.6°C 67% 16.8 mph E27.0 kmh E 24.0 mph38.6 kmh 29.88 in1011.9 mb 0.00 in0.0 mm 0.00 in0.0 mm 0.00 in0.0 mm
04:01 AM 45.2°F7.3°C 34.9°F1.6°C 67% 16.8 mph E27.0 kmh E 24.0 mph38.6 kmh 29.88 in1011.9 mb 0.00 in0.0 mm 0.00 in0.0 mm 0.00 in0.0 mm
04:02 AM 45.2°F7.3°C 35.3°F1.8°C 68% 20.6 mph E33.2 kmh E 26.0 mph41.8 kmh 29.88 in1011.9 mb 0.00 in0.0 mm 0.00 in0.0 mm 0.00 in0.0 mm
04:03 AM 45.3°F7.4°C 35.0°F1.7°C 67% 17.8 mph E28.6 kmh E 28.0 mph45.1 kmh 29.88 in1011.9 mb 0.00 in0.0 mm 0.00 in0.0 mm 0.00 in0.0 mm
04:04 AM 45.3°F7.4°C 35.0°F1.7°C 67% 17.8 mph E28.6 kmh E 28.0 mph45.1 kmh 29.88 in1011.9 mb 0.00 in0.0 mm 0.00 in0.0 mm 0.00 in0.0 mm
04:05 AM 45.3°F7.4°C 35.4°F1.9°C 68% 15.3 mph E24.6 kmh E 27.0 mph43.5 kmh 29.88 in1011.9 mb 0.00 in0.0 mm 0.00 in0.0 mm 0.00 in0.0 mm
04:06 AM 45.3°F7.4°C 35.4°F1.9°C 68% 17.8 mph E28.6 kmh E 24.0 mph38.6 kmh 29.88 in1011.9 mb 0.00 in0.0 mm 0.00 in0.0 mm 0.00 in0.0 mm
04:07 AM 45.3°F7.4°C 35.0°F1.7°C 67% 19.0 mph E30.6 kmh E 26.0 mph41.8 kmh 29.88 in1011.9 mb 0.00 in0.0 mm 0.00 in0.0 mm 0.00 in0.0 mm
04:08 AM 45.3°F7.4°C 35.0°F1.7°C 67% 16.4 mph E26.4 kmh E 26.0 mph41.8 kmh 29.88 in1011.9 mb 0.00 in0.0 mm 0.00 in0.0 mm 0.00 in0.0 mm
04:09 AM 45.3°F7.4°C 35.4°F1.9°C 68% 16.9 mph E27.2 kmh E 24.0 mph38.6 kmh 29.88 in1011.9 mb 0.00 in0.0 mm 0.00 in0.0 mm 0.00 in0.0 mm
04:10 AM 45.2°F7.3°C 35.3°F1.8°C 68% 18.3 mph E29.5 kmh E 23.0 mph37.0 kmh 29.88 in1011.9 mb 0.00 in0.0 mm 0.00 in0.0 mm 0.00 in0.0 mm
04:11 AM 45.3°F7.4°C 35.4°F1.9°C 68% 14.6 mph E23.5 kmh E 23.0 mph37.0 kmh 29.89 in1012.2 mb 0.00 in0.0 mm 0.00 in0.0 mm 0.00 in0.0 mm
04:12 AM 45.2°F7.3°C 35.3°F1.8°C 68% 15.7 mph E25.3 kmh E 20.0 mph32.2 kmh 29.88 in1011.9 mb 0.00 in0.0 mm 0.00 in0.0 mm 0.00 in0.0 mm
04:13 AM 45.2°F7.3°C 35.3°F1.8°C 68% 16.0 mph E25.7 kmh E 24.0 mph38.6 kmh 29.89 in1012.2 mb 0.00 in0.0 mm 0.00 in0.0 mm 0.00 in0.0 mm
04:14 AM 45.2°F7.3°C 35.3°F1.8°C 68% 18.3 mph E29.5 kmh E 24.0 mph38.6 kmh 29.89 in1012.2 mb 0.00 in0.0 mm 0.00 in0.0 mm 0.00 in0.0 mm
04:15 AM 45.2°F7.3°C 35.3°F1.8°C 68% 17.7 mph E28.5 kmh E 23.0 mph37.0 kmh 29.88 in1011.9 mb 0.00 in0.0 mm 0.00 in0.0 mm 0.00 in0.0 mm
04:16 AM 45.3°F7.4°C 35.4°F1.9°C 68% 16.2 mph E26.1 kmh E 23.0 mph37.0 kmh 29.89 in1012.2 mb 0.00 in0.0 mm 0.00 in0.0 mm 0.00 in0.0 mm
04:17 AM 45.2°F7.3°C 35.3°F1.8°C 68% 14.3 mph E23.0 kmh E 21.0 mph33.8 kmh 29.88 in1011.9 mb 0.00 in0.0 mm 0.00 in0.0 mm 0.00 in0.0 mm
04:18 AM 45.2°F7.3°C 35.3°F1.8°C 68% 14.8 mph E23.8 kmh E 21.0 mph33.8 kmh 29.88 in1011.9 mb 0.00 in0.0 mm 0.00 in0.0 mm 0.00 in0.0 mm
04:19 AM 45.2°F7.3°C 35.3°F1.8°C 68% 13.5 mph E21.7 kmh E 19.0 mph30.6 kmh 29.88 in1011.9 mb 0.00 in0.0 mm 0.00 in0.0 mm 0.00 in0.0 mm
04:20 AM 45.2°F7.3°C 35.3°F1.8°C 68% 12.0 mph E19.3 kmh E 19.0 mph30.6 kmh 29.88 in1011.9 mb 0.00 in0.0 mm 0.00 in0.0 mm 0.00 in0.0 mm
04:21 AM 45.2°F7.3°C 35.3°F1.8°C 68% 16.5 mph E26.6 kmh E 21.0 mph33.8 kmh 29.89 in1012.2 mb 0.00 in0.0 mm 0.00 in0.0 mm 0.00 in0.0 mm
04:22 AM 45.2°F7.3°C 35.3°F1.8°C 68% 12.3 mph E19.8 kmh E 21.0 mph33.8 kmh 29.88 in1011.9 mb 0.00 in0.0 mm 0.00 in0.0 mm 0.00 in0.0 mm
04:23 AM 45.2°F7.3°C 35.3°F1.8°C 68% 16.2 mph E26.1 kmh E 21.0 mph33.8 kmh 29.88 in1011.9 mb 0.00 in0.0 mm 0.00 in0.0 mm 0.00 in0.0 mm
04:24 AM 45.2°F7.3°C 35.3°F1.8°C 68% 12.5 mph E20.1 kmh E 21.0 mph33.8 kmh 29.88 in1011.9 mb 0.00 in0.0 mm 0.00 in0.0 mm 0.00 in0.0 mm
04:25 AM 45.1°F7.3°C 35.2°F1.8°C 68% 12.4 mph E20.0 kmh E 19.0 mph30.6 kmh 29.88 in1011.9 mb 0.00 in0.0 mm 0.00 in0.0 mm 0.00 in0.0 mm
04:26 AM 45.1°F7.3°C 35.2°F1.8°C 68% 16.3 mph E26.2 kmh E 21.0 mph33.8 kmh 29.88 in1011.9 mb 0.00 in0.0 mm 0.00 in0.0 mm 0.00 in0.0 mm
04:27 AM 45.2°F7.3°C 35.3°F1.8°C 68% 16.9 mph E27.2 kmh E 21.0 mph33.8 kmh 29.88 in1011.9 mb 0.00 in0.0 mm 0.00 in0.0 mm 0.00 in0.0 mm
04:28 AM 45.1°F7.3°C 35.2°F1.8°C 68% 17.1 mph E27.5 kmh E 23.0 mph37.0 kmh 29.88 in1011.9 mb 0.00 in0.0 mm 0.00 in0.0 mm 0.00 in0.0 mm
04:29 AM 45.2°F7.3°C 35.3°F1.8°C 68% 13.5 mph E21.7 kmh E 23.0 mph37.0 kmh 29.88 in1011.9 mb 0.00 in0.0 mm 0.00 in0.0 mm 0.00 in0.0 mm
04:30 AM 45.2°F7.3°C 35.3°F1.8°C 68% 17.4 mph E28.0 kmh E 24.0 mph38.6 kmh 29.88 in1011.9 mb 0.00 in0.0 mm 0.00 in0.0 mm 0.00 in0.0 mm
04:31 AM 45.2°F7.3°C 35.3°F1.8°C 68% 14.4 mph E23.2 kmh E 24.0 mph38.6 kmh 29.88 in1011.9 mb 0.00 in0.0 mm 0.00 in0.0 mm 0.00 in0.0 mm
04:32 AM 45.1°F7.3°C 35.2°F1.8°C 68% 12.6 mph E20.3 kmh E 21.0 mph33.8 kmh 29.88 in1011.9 mb 0.00 in0.0 mm 0.00 in0.0 mm 0.00 in0.0 mm
04:33 AM 45.1°F7.3°C 35.2°F1.8°C 68% 18.4 mph E29.6 kmh E 22.0 mph35.4 kmh 29.88 in1011.9 mb 0.00 in0.0 mm 0.00 in0.0 mm 0.00 in0.0 mm
04:34 AM 45.1°F7.3°C 35.2°F1.8°C 68% 17.0 mph E27.4 kmh E 22.0 mph35.4 kmh 29.88 in1011.9 mb 0.00 in0.0 mm 0.00 in0.0 mm 0.00 in0.0 mm
04:35 AM 45.1°F7.3°C 35.2°F1.8°C 68% 13.1 mph E21.1 kmh E 21.0 mph33.8 kmh 29.88 in1011.9 mb 0.00 in0.0 mm 0.00 in0.0 mm 0.00 in0.0 mm
04:36 AM 45.1°F7.3°C 35.2°F1.8°C 68% 11.5 mph E18.5 kmh E 19.0 mph30.6 kmh 29.88 in1011.9 mb 0.00 in0.0 mm 0.00 in0.0 mm 0.00 in0.0 mm
04:37 AM 45.1°F7.3°C 35.2°F1.8°C 68% 15.9 mph E25.6 kmh E 23.0 mph37.0 kmh 29.88 in1011.9 mb 0.00 in0.0 mm 0.00 in0.0 mm 0.00 in0.0 mm
04:38 AM 45.1°F7.3°C 35.2°F1.8°C 68% 17.4 mph E28.0 kmh E 24.0 mph38.6 kmh 29.88 in1011.9 mb 0.00 in0.0 mm 0.00 in0.0 mm 0.00 in0.0 mm
04:39 AM 45.1°F7.3°C 35.2°F1.8°C 68% 16.4 mph E26.4 kmh E 24.0 mph38.6 kmh 29.88 in1011.9 mb 0.00 in0.0 mm 0.00 in0.0 mm 0.00 in0.0 mm
04:40 AM 45.1°F7.3°C 35.2°F1.8°C 68% 14.7 mph E23.7 kmh E 22.0 mph35.4 kmh 29.88 in1011.9 mb 0.00 in0.0 mm 0.00 in0.0 mm 0.00 in0.0 mm
04:41 AM 45.1°F7.3°C 35.2°F1.8°C 68% 14.2 mph E22.9 kmh E 20.0 mph32.2 kmh 29.88 in1011.9 mb 0.00 in0.0 mm 0.00 in0.0 mm 0.00 in0.0 mm
04:42 AM 45.1°F7.3°C 35.2°F1.8°C 68% 15.6 mph E25.1 kmh E 20.0 mph32.2 kmh 29.88 in1011.9 mb 0.00 in0.0 mm 0.00 in0.0 mm 0.00 in0.0 mm
04:43 AM 45.0°F7.2°C 35.1°F1.7°C 68% 16.7 mph E26.9 kmh E 23.0 mph37.0 kmh 29.88 in1011.9 mb 0.00 in0.0 mm 0.00 in0.0 mm 0.00 in0.0 mm
04:44 AM 45.1°F7.3°C 35.2°F1.8°C 68% 17.2 mph E27.7 kmh E 25.0 mph40.2 kmh 29.88 in1011.9 mb 0.00 in0.0 mm 0.00 in0.0 mm 0.00 in0.0 mm
04:45 AM 45.1°F7.3°C 35.2°F1.8°C 68% 15.4 mph E24.8 kmh E 25.0 mph40.2 kmh 29.88 in1011.9 mb 0.00 in0.0 mm 0.00 in0.0 mm 0.00 in0.0 mm
04:46 AM 45.0°F7.2°C 35.1°F1.7°C 68% 14.0 mph E22.5 kmh E 20.0 mph32.2 kmh 29.87 in1011.5 mb 0.00 in0.0 mm 0.00 in0.0 mm 0.00 in0.0 mm
04:47 AM 45.0°F7.2°C 35.1°F1.7°C 68% 18.4 mph E29.6 kmh E 28.0 mph45.1 kmh 29.88 in1011.9 mb 0.00 in0.0 mm 0.00 in0.0 mm 0.00 in0.0 mm
04:48 AM 45.1°F7.3°C 35.2°F1.8°C 68% 17.0 mph E27.4 kmh E 28.0 mph45.1 kmh 29.88 in1011.9 mb 0.00 in0.0 mm 0.00 in0.0 mm 0.00 in0.0 mm
04:49 AM 45.1°F7.3°C 35.2°F1.8°C 68% 17.3 mph E27.8 kmh E 22.0 mph35.4 kmh 29.88 in1011.9 mb 0.00 in0.0 mm 0.00 in0.0 mm 0.00 in0.0 mm
04:50 AM 45.1°F7.3°C 35.2°F1.8°C 68% 21.3 mph E34.3 kmh E 27.0 mph43.5 kmh 29.88 in1011.9 mb 0.00 in0.0 mm 0.00 in0.0 mm 0.00 in0.0 mm
04:51 AM 45.1°F7.3°C 35.2°F1.8°C 68% 19.7 mph E31.7 kmh E 27.0 mph43.5 kmh 29.87 in1011.5 mb 0.00 in0.0 mm 0.00 in0.0 mm 0.00 in0.0 mm
04:52 AM 45.2°F7.3°C 35.3°F1.8°C 68% 17.7 mph E28.5 kmh E 27.0 mph43.5 kmh 29.87 in1011.5 mb 0.00 in0.0 mm 0.00 in0.0 mm 0.00 in0.0 mm
04:53 AM 45.2°F7.3°C 35.3°F1.8°C 68% 15.5 mph E24.9 kmh E 22.0 mph35.4 kmh 29.87 in1011.5 mb 0.00 in0.0 mm 0.00 in0.0 mm 0.00 in0.0 mm
04:54 AM 45.2°F7.3°C 35.3°F1.8°C 68% 15.9 mph E25.6 kmh E 22.0 mph35.4 kmh 29.87 in1011.5 mb 0.00 in0.0 mm 0.00 in0.0 mm 0.00 in0.0 mm
04:55 AM 45.2°F7.3°C 35.3°F1.8°C 68% 20.9 mph E33.6 kmh E 27.0 mph43.5 kmh 29.87 in1011.5 mb 0.00 in0.0 mm 0.00 in0.0 mm 0.00 in0.0 mm
04:56 AM 45.2°F7.3°C 35.3°F1.8°C 68% 19.0 mph E30.6 kmh E 27.0 mph43.5 kmh 29.87 in1011.5 mb 0.00 in0.0 mm 0.00 in0.0 mm 0.00 in0.0 mm
04:57 AM 45.2°F7.3°C 35.3°F1.8°C 68% 14.2 mph E22.9 kmh E 23.0 mph37.0 kmh 29.87 in1011.5 mb 0.00 in0.0 mm 0.00 in0.0 mm 0.00 in0.0 mm
04:58 AM 45.2°F7.3°C 35.3°F1.8°C 68% 15.3 mph E24.6 kmh E 22.0 mph35.4 kmh 29.87 in1011.5 mb 0.00 in0.0 mm 0.00 in0.0 mm 0.00 in0.0 mm
04:59 AM 45.2°F7.3°C 35.3°F1.8°C 68% 16.9 mph E27.2 kmh E 22.0 mph35.4 kmh 29.87 in1011.5 mb 0.00 in0.0 mm 0.00 in0.0 mm 0.00 in0.0 mm
05:00 AM 45.2°F7.3°C 35.3°F1.8°C 68% 19.5 mph E31.4 kmh E 29.0 mph46.7 kmh 29.87 in1011.5 mb 0.00 in0.0 mm 0.00 in0.0 mm 0.00 in0.0 mm
05:01 AM 45.2°F7.3°C 35.3°F1.8°C 68% 18.7 mph E30.1 kmh E 29.0 mph46.7 kmh 29.87 in1011.5 mb 0.00 in0.0 mm 0.00 in0.0 mm 0.00 in0.0 mm
05:02 AM 45.2°F7.3°C 35.3°F1.8°C 68% 16.8 mph E27.0 kmh E 27.0 mph43.5 kmh 29.87 in1011.5 mb 0.00 in0.0 mm 0.00 in0.0 mm 0.00 in0.0 mm
05:03 AM 45.2°F7.3°C 35.3°F1.8°C 68% 17.7 mph E28.5 kmh E 26.0 mph41.8 kmh 29.87 in1011.5 mb 0.00 in0.0 mm 0.00 in0.0 mm 0.00 in0.0 mm
05:04 AM 45.2°F7.3°C 35.3°F1.8°C 68% 15.9 mph E25.6 kmh E 26.0 mph41.8 kmh 29.87 in1011.5 mb 0.00 in0.0 mm 0.00 in0.0 mm 0.00 in0.0 mm
05:05 AM 45.2°F7.3°C 35.6°F2.0°C 69% 19.5 mph E31.4 kmh E 28.0 mph45.1 kmh 29.87 in1011.5 mb 0.00 in0.0 mm 0.00 in0.0 mm 0.00 in0.0 mm
05:06 AM 45.2°F7.3°C 35.3°F1.8°C 68% 15.7 mph E25.3 kmh E 28.0 mph45.1 kmh 29.87 in1011.5 mb 0.00 in0.0 mm 0.00 in0.0 mm 0.00 in0.0 mm
05:07 AM 45.2°F7.3°C 35.3°F1.8°C 68% 18.6 mph E29.9 kmh E 26.0 mph41.8 kmh 29.87 in1011.5 mb 0.00 in0.0 mm 0.00 in0.0 mm 0.00 in0.0 mm
05:08 AM 45.2°F7.3°C 35.3°F1.8°C 68% 17.5 mph E28.2 kmh E 26.0 mph41.8 kmh 29.87 in1011.5 mb 0.00 in0.0 mm 0.00 in0.0 mm 0.00 in0.0 mm
05:09 AM 45.2°F7.3°C 35.3°F1.8°C 68% 20.2 mph E32.5 kmh E 24.0 mph38.6 kmh 29.87 in1011.5 mb 0.00 in0.0 mm 0.00 in0.0 mm 0.00 in0.0 mm
05:10 AM 45.2°F7.3°C 35.3°F1.8°C 68% 16.4 mph E26.4 kmh E 24.0 mph38.6 kmh 29.87 in1011.5 mb 0.00 in0.0 mm 0.00 in0.0 mm 0.00 in0.0 mm
05:11 AM 45.2°F7.3°C 35.3°F1.8°C 68% 19.0 mph E30.6 kmh E 26.0 mph41.8 kmh 29.87 in1011.5 mb 0.00 in0.0 mm 0.00 in0.0 mm 0.00 in0.0 mm
05:12 AM 45.2°F7.3°C 35.3°F1.8°C 68% 19.2 mph E30.9 kmh E 30.0 mph48.3 kmh 29.87 in1011.5 mb 0.00 in0.0 mm 0.00 in0.0 mm 0.00 in0.0 mm
05:13 AM 45.3°F7.4°C 35.4°F1.9°C 68% 21.0 mph E33.8 kmh E 30.0 mph48.3 kmh 29.87 in1011.5 mb 0.00 in0.0 mm 0.00 in0.0 mm 0.00 in0.0 mm
05:14 AM 45.3°F7.4°C 35.4°F1.9°C 68% 23.0 mph E37.0 kmh E 29.0 mph46.7 kmh 29.87 in1011.5 mb 0.00 in0.0 mm 0.00 in0.0 mm 0.00 in0.0 mm
05:15 AM 45.3°F7.4°C 35.4°F1.9°C 68% 17.9 mph E28.8 kmh E 29.0 mph46.7 kmh 29.87 in1011.5 mb 0.00 in0.0 mm 0.00 in0.0 mm 0.00 in0.0 mm
05:16 AM 45.3°F7.4°C 35.4°F1.9°C 68% 18.0 mph E29.0 kmh E 27.0 mph43.5 kmh 29.87 in1011.5 mb 0.00 in0.0 mm 0.00 in0.0 mm 0.00 in0.0 mm
05:17 AM 45.3°F7.4°C 35.4°F1.9°C 68% 19.3 mph E31.1 kmh E 27.0 mph43.5 kmh 29.87 in1011.5 mb 0.00 in0.0 mm 0.00 in0.0 mm 0.00 in0.0 mm
05:18 AM 45.3°F7.4°C 35.4°F1.9°C 68% 16.2 mph E26.1 kmh E 27.0 mph43.5 kmh 29.87 in1011.5 mb 0.00 in0.0 mm 0.00 in0.0 mm 0.00 in0.0 mm
05:19 AM 45.2°F7.3°C 35.3°F1.8°C 68% 14.5 mph E23.3 kmh E 27.0 mph43.5 kmh 29.87 in1011.5 mb 0.00 in0.0 mm 0.00 in0.0 mm 0.00 in0.0 mm
05:20 AM 45.2°F7.3°C 35.6°F2.0°C 69% 20.2 mph E32.5 kmh E 31.0 mph49.9 kmh 29.87 in1011.5 mb 0.00 in0.0 mm 0.00 in0.0 mm 0.00 in0.0 mm
05:21 AM 45.3°F7.4°C 35.4°F1.9°C 68% 17.4 mph E28.0 kmh E 31.0 mph49.9 kmh 29.87 in1011.5 mb 0.00 in0.0 mm 0.00 in0.0 mm 0.00 in0.0 mm
05:22 AM 45.3°F7.4°C 35.4°F1.9°C 68% 15.1 mph E24.3 kmh E 21.0 mph33.8 kmh 29.87 in1011.5 mb 0.00 in0.0 mm 0.00 in0.0 mm 0.00 in0.0 mm
05:23 AM 45.3°F7.4°C 35.7°F2.1°C 69% 16.2 mph E26.1 kmh E 21.0 mph33.8 kmh 29.87 in1011.5 mb 0.00 in0.0 mm 0.00 in0.0 mm 0.00 in0.0 mm
05:24 AM 45.3°F7.4°C 35.7°F2.1°C 69% 19.1 mph E30.7 kmh E 24.0 mph38.6 kmh 29.87 in1011.5 mb 0.00 in0.0 mm 0.00 in0.0 mm 0.00 in0.0 mm
05:25 AM 45.2°F7.3°C 35.6°F2.0°C 69% 19.6 mph E31.5 kmh E 30.0 mph48.3 kmh 29.87 in1011.5 mb 0.00 in0.0 mm 0.00 in0.0 mm 0.00 in0.0 mm
05:26 AM 45.4°F7.4°C 35.5°F1.9°C 68% 19.5 mph E31.4 kmh E 30.0 mph48.3 kmh 29.87 in1011.5 mb 0.00 in0.0 mm 0.00 in0.0 mm 0.00 in0.0 mm
05:27 AM 45.3°F7.4°C 35.7°F2.1°C 69% 16.5 mph E26.6 kmh E 28.0 mph45.1 kmh 29.87 in1011.5 mb 0.00 in0.0 mm 0.00 in0.0 mm 0.00 in0.0 mm
05:28 AM 45.3°F7.4°C 35.7°F2.1°C 69% 20.1 mph E32.3 kmh E 25.0 mph40.2 kmh 29.87 in1011.5 mb 0.00 in0.0 mm 0.00 in0.0 mm 0.00 in0.0 mm
05:29 AM 45.4°F7.4°C 35.8°F2.1°C 69% 18.7 mph E30.1 kmh E 24.0 mph38.6 kmh 29.87 in1011.5 mb 0.00 in0.0 mm 0.00 in0.0 mm 0.00 in0.0 mm
05:30 AM 45.4°F7.4°C 35.8°F2.1°C 69% 21.8 mph E35.1 kmh E 27.0 mph43.5 kmh 29.87 in1011.5 mb 0.00 in0.0 mm 0.00 in0.0 mm 0.00 in0.0 mm
05:31 AM 45.4°F7.4°C 35.8°F2.1°C 69% 19.9 mph E32.0 kmh E 27.0 mph43.5 kmh 29.87 in1011.5 mb 0.00 in0.0 mm 0.00 in0.0 mm 0.00 in0.0 mm
05:32 AM 45.4°F7.4°C 35.8°F2.1°C 69% 19.0 mph E30.6 kmh E 26.0 mph41.8 kmh 29.87 in1011.5 mb 0.00 in0.0 mm 0.00 in0.0 mm 0.00 in0.0 mm
05:33 AM 45.4°F7.4°C 35.8°F2.1°C 69% 18.8 mph E30.3 kmh E 25.0 mph40.2 kmh 29.87 in1011.5 mb 0.00 in0.0 mm 0.00 in0.0 mm 0.00 in0.0 mm
05:34 AM 45.4°F7.4°C 35.8°F2.1°C 69% 20.8 mph E33.5 kmh E 34.0 mph54.7 kmh 29.87 in1011.5 mb 0.00 in0.0 mm 0.00 in0.0 mm 0.00 in0.0 mm
05:35 AM 45.5°F7.5°C 35.9°F2.2°C 69% 21.0 mph E33.8 kmh E 34.0 mph54.7 kmh 29.87 in1011.5 mb 0.00 in0.0 mm 0.00 in0.0 mm 0.00 in0.0 mm
05:36 AM 45.5°F7.5°C 35.9°F2.2°C 69% 20.9 mph E33.6 kmh E 28.0 mph45.1 kmh 29.87 in1011.5 mb 0.00 in0.0 mm 0.00 in0.0 mm 0.00 in0.0 mm
05:37 AM 45.5°F7.5°C 35.9°F2.2°C 69% 18.2 mph E29.3 kmh E 28.0 mph45.1 kmh 29.87 in1011.5 mb 0.00 in0.0 mm 0.00 in0.0 mm 0.00 in0.0 mm
05:38 AM 45.5°F7.5°C 35.9°F2.2°C 69% 19.9 mph E32.0 kmh E 29.0 mph46.7 kmh 29.87 in1011.5 mb 0.00 in0.0 mm 0.00 in0.0 mm 0.00 in0.0 mm
05:39 AM 45.5°F7.5°C 35.9°F2.2°C 69% 17.0 mph E27.4 kmh E 29.0 mph46.7 kmh 29.87 in1011.5 mb 0.00 in0.0 mm 0.00 in0.0 mm 0.00 in0.0 mm
05:40 AM 45.5°F7.5°C 35.9°F2.2°C 69% 20.3 mph E32.7 kmh E 28.0 mph45.1 kmh 29.87 in1011.5 mb 0.00 in0.0 mm 0.00 in0.0 mm 0.00 in0.0 mm
05:41 AM 45.5°F7.5°C 35.9°F2.2°C 69% 16.6 mph E26.7 kmh E 28.0 mph45.1 kmh 29.87 in1011.5 mb 0.00 in0.0 mm 0.00 in0.0 mm 0.00 in0.0 mm
05:42 AM 45.5°F7.5°C 35.9°F2.2°C 69% 17.1 mph E27.5 kmh E 24.0 mph38.6 kmh 29.87 in1011.5 mb 0.00 in0.0 mm 0.00 in0.0 mm 0.00 in0.0 mm
05:43 AM 45.5°F7.5°C 35.9°F2.2°C 69% 22.1 mph E35.6 kmh E 30.0 mph48.3 kmh 29.87 in1011.5 mb 0.00 in0.0 mm 0.00 in0.0 mm 0.00 in0.0 mm
05:44 AM 45.5°F7.5°C 35.9°F2.2°C 69% 17.1 mph E27.5 kmh E 30.0 mph48.3 kmh 29.87 in1011.5 mb 0.00 in0.0 mm 0.00 in0.0 mm 0.00 in0.0 mm
05:45 AM 45.5°F7.5°C 35.9°F2.2°C 69% 17.4 mph E28.0 kmh E 27.0 mph43.5 kmh 29.87 in1011.5 mb 0.00 in0.0 mm 0.00 in0.0 mm 0.00 in0.0 mm
05:46 AM 45.5°F7.5°C 35.9°F2.2°C 69% 17.9 mph E28.8 kmh E 27.0 mph43.5 kmh 29.87 in1011.5 mb 0.00 in0.0 mm 0.00 in0.0 mm 0.00 in0.0 mm
05:47 AM 45.5°F7.5°C 35.9°F2.2°C 69% 19.9 mph E32.0 kmh E 27.0 mph43.5 kmh 29.87 in1011.5 mb 0.00 in0.0 mm 0.00 in0.0 mm 0.00 in0.0 mm
05:48 AM 45.5°F7.5°C 35.9°F2.2°C 69% 20.2 mph E32.5 kmh E 27.0 mph43.5 kmh 29.87 in1011.5 mb 0.00 in0.0 mm 0.00 in0.0 mm 0.00 in0.0 mm
05:49 AM 45.5°F7.5°C 35.9°F2.2°C 69% 20.0 mph E32.2 kmh E 32.0 mph51.5 kmh 29.87 in1011.5 mb 0.00 in0.0 mm 0.00 in0.0 mm 0.00 in0.0 mm
05:50 AM 45.5°F7.5°C 35.9°F2.2°C 69% 18.4 mph E29.6 kmh E 32.0 mph51.5 kmh 29.87 in1011.5 mb 0.00 in0.0 mm 0.00 in0.0 mm 0.00 in0.0 mm
05:51 AM 45.5°F7.5°C 35.9°F2.2°C 69% 17.2 mph E27.7 kmh E 29.0 mph46.7 kmh 29.87 in1011.5 mb 0.00 in0.0 mm 0.00 in0.0 mm 0.00 in0.0 mm
05:52 AM 45.5°F7.5°C 35.9°F2.2°C 69% 19.2 mph E30.9 kmh E 29.0 mph46.7 kmh 29.87 in1011.5 mb 0.00 in0.0 mm 0.00 in0.0 mm 0.00 in0.0 mm
05:53 AM 45.5°F7.5°C 35.9°F2.2°C 69% 17.9 mph E28.8 kmh E 27.0 mph43.5 kmh 29.87 in1011.5 mb 0.00 in0.0 mm 0.00 in0.0 mm 0.00 in0.0 mm
05:54 AM 45.5°F7.5°C 35.9°F2.2°C 69% 20.1 mph E32.3 kmh E 26.0 mph41.8 kmh 29.87 in1011.5 mb 0.00 in0.0 mm 0.00 in0.0 mm 0.00 in0.0 mm
05:55 AM 45.5°F7.5°C 35.9°F2.2°C 69% 17.4 mph E28.0 kmh E 26.0 mph41.8 kmh 29.87 in1011.5 mb 0.00 in0.0 mm 0.00 in0.0 mm 0.00 in0.0 mm
05:56 AM 45.4°F7.4°C 35.8°F2.1°C 69% 24.5 mph E39.4 kmh E 30.0 mph48.3 kmh 29.87 in1011.5 mb 0.00 in0.0 mm 0.00 in0.0 mm 0.00 in0.0 mm
05:57 AM 45.4°F7.4°C 35.8°F2.1°C 69% 20.1 mph E32.3 kmh E 30.0 mph48.3 kmh 29.87 in1011.5 mb 0.00 in0.0 mm 0.00 in0.0 mm 0.00 in0.0 mm
05:58 AM 45.4°F7.4°C 35.8°F2.1°C 69% 15.5 mph E24.9 kmh E 25.0 mph40.2 kmh 29.86 in1011.2 mb 0.00 in0.0 mm 0.00 in0.0 mm 0.00 in0.0 mm
05:59 AM 45.4°F7.4°C 35.8°F2.1°C 69% 22.3 mph E35.9 kmh E 33.0 mph53.1 kmh 29.87 in1011.5 mb 0.00 in0.0 mm 0.00 in0.0 mm 0.00 in0.0 mm
06:00 AM 45.4°F7.4°C 35.8°F2.1°C 69% 18.9 mph E30.4 kmh E 33.0 mph53.1 kmh 29.86 in1011.2 mb 0.00 in0.0 mm 0.00 in0.0 mm 0.00 in0.0 mm
06:01 AM 45.4°F7.4°C 35.8°F2.1°C 69% 20.9 mph E33.6 kmh E 31.0 mph49.9 kmh 29.87 in1011.5 mb 0.00 in0.0 mm 0.00 in0.0 mm 0.00 in0.0 mm
06:02 AM 45.4°F7.4°C 35.8°F2.1°C 69% 23.6 mph E38.0 kmh E 30.0 mph48.3 kmh 29.86 in1011.2 mb 0.00 in0.0 mm 0.00 in0.0 mm 0.00 in0.0 mm
06:03 AM 45.4°F7.4°C 35.8°F2.1°C 69% 21.4 mph E34.4 kmh E 30.0 mph48.3 kmh 29.86 in1011.2 mb 0.00 in0.0 mm 0.00 in0.0 mm 0.00 in0.0 mm
06:04 AM 45.4°F7.4°C 35.8°F2.1°C 69% 18.6 mph E29.9 kmh E 29.0 mph46.7 kmh 29.86 in1011.2 mb 0.00 in0.0 mm 0.00 in0.0 mm 0.00 in0.0 mm
06:05 AM 45.3°F7.4°C 35.7°F2.1°C 69% 18.6 mph E29.9 kmh E 26.0 mph41.8 kmh 29.86 in1011.2 mb 0.00 in0.0 mm 0.00 in0.0 mm 0.00 in0.0 mm
06:06 AM 45.3°F7.4°C 35.7°F2.1°C 69% 21.4 mph E34.4 kmh E 27.0 mph43.5 kmh 29.86 in1011.2 mb 0.00 in0.0 mm 0.00 in0.0 mm 0.00 in0.0 mm
06:07 AM 45.3°F7.4°C 35.7°F2.1°C 69% 19.2 mph E30.9 kmh E 30.0 mph48.3 kmh 29.86 in1011.2 mb 0.00 in0.0 mm 0.00 in0.0 mm 0.00 in0.0 mm
06:08 AM 45.3°F7.4°C 35.7°F2.1°C 69% 21.1 mph E34.0 kmh E 30.0 mph48.3 kmh 29.86 in1011.2 mb 0.00 in0.0 mm 0.00 in0.0 mm 0.00 in0.0 mm
06:09 AM 45.2°F7.3°C 35.6°F2.0°C 69% 15.6 mph E25.1 kmh E 28.0 mph45.1 kmh 29.86 in1011.2 mb 0.00 in0.0 mm 0.00 in0.0 mm 0.00 in0.0 mm
06:10 AM 45.2°F7.3°C 35.6°F2.0°C 69% 20.9 mph ENE33.6 kmh ENE 28.0 mph45.1 kmh 29.86 in1011.2 mb 0.00 in0.0 mm 0.00 in0.0 mm 0.00 in0.0 mm
06:11 AM 45.3°F7.4°C 35.7°F2.1°C 69% 19.9 mph E32.0 kmh E 28.0 mph45.1 kmh 29.86 in1011.2 mb 0.00 in0.0 mm 0.00 in0.0 mm 0.00 in0.0 mm
06:12 AM 45.3°F7.4°C 35.7°F2.1°C 69% 18.8 mph E30.3 kmh E 27.0 mph43.5 kmh 29.86 in1011.2 mb 0.00 in0.0 mm 0.00 in0.0 mm 0.00 in0.0 mm
06:13 AM 45.3°F7.4°C 35.7°F2.1°C 69% 21.1 mph E34.0 kmh E 27.0 mph43.5 kmh 29.86 in1011.2 mb 0.00 in0.0 mm 0.00 in0.0 mm 0.00 in0.0 mm
06:14 AM 45.3°F7.4°C 35.7°F2.1°C 69% 23.7 mph E38.1 kmh E 31.0 mph49.9 kmh 29.86 in1011.2 mb 0.00 in0.0 mm 0.00 in0.0 mm 0.00 in0.0 mm
06:15 AM 45.3°F7.4°C 35.7°F2.1°C 69% 22.9 mph E36.9 kmh E 31.0 mph49.9 kmh 29.86 in1011.2 mb 0.00 in0.0 mm 0.00 in0.0 mm 0.00 in0.0 mm
06:16 AM 45.3°F7.4°C 35.7°F2.1°C 69% 17.5 mph E28.2 kmh E 29.0 mph46.7 kmh 29.86 in1011.2 mb 0.00 in0.0 mm 0.00 in0.0 mm 0.00 in0.0 mm
06:17 AM 45.2°F7.3°C 35.6°F2.0°C 69% 20.5 mph E33.0 kmh E 28.0 mph45.1 kmh 29.86 in1011.2 mb 0.00 in0.0 mm 0.00 in0.0 mm 0.00 in0.0 mm
06:18 AM 45.3°F7.4°C 35.7°F2.1°C 69% 25.6 mph E41.2 kmh E 33.0 mph53.1 kmh 29.86 in1011.2 mb 0.00 in0.0 mm 0.00 in0.0 mm 0.00 in0.0 mm
06:19 AM 45.4°F7.4°C 35.8°F2.1°C 69% 21.3 mph E34.3 kmh E 33.0 mph53.1 kmh 29.86 in1011.2 mb 0.00 in0.0 mm 0.00 in0.0 mm 0.00 in0.0 mm
06:20 AM 45.4°F7.4°C 35.8°F2.1°C 69% 23.0 mph E37.0 kmh E 33.0 mph53.1 kmh 29.86 in1011.2 mb 0.00 in0.0 mm 0.00 in0.0 mm 0.00 in0.0 mm
06:21 AM 45.4°F7.4°C 35.8°F2.1°C 69% 20.0 mph E32.2 kmh E 33.0 mph53.1 kmh 29.86 in1011.2 mb 0.00 in0.0 mm 0.00 in0.0 mm 0.00 in0.0 mm
06:22 AM 45.4°F7.4°C 35.8°F2.1°C 69% 19.8 mph E31.9 kmh E 31.0 mph49.9 kmh 29.86 in1011.2 mb 0.00 in0.0 mm 0.00 in0.0 mm 0.00 in0.0 mm
06:23 AM 45.4°F7.4°C 35.8°F2.1°C 69% 17.8 mph E28.6 kmh E 24.0 mph38.6 kmh 29.86 in1011.2 mb 0.00 in0.0 mm 0.00 in0.0 mm 0.00 in0.0 mm
06:24 AM 45.4°F7.4°C 35.8°F2.1°C 69% 22.0 mph E35.4 kmh E 28.0 mph45.1 kmh 29.86 in1011.2 mb 0.00 in0.0 mm 0.00 in0.0 mm 0.00 in0.0 mm
06:25 AM 45.4°F7.4°C 35.8°F2.1°C 69% 21.2 mph E34.1 kmh E 28.0 mph45.1 kmh 29.86 in1011.2 mb 0.00 in0.0 mm 0.00 in0.0 mm 0.00 in0.0 mm
06:26 AM 45.4°F7.4°C 35.8°F2.1°C 69% 17.9 mph E28.8 kmh E 27.0 mph43.5 kmh 29.86 in1011.2 mb 0.00 in0.0 mm 0.00 in0.0 mm 0.00 in0.0 mm
06:27 AM 45.4°F7.4°C 35.8°F2.1°C 69% 24.0 mph E38.6 kmh E 32.0 mph51.5 kmh 29.87 in1011.5 mb 0.00 in0.0 mm 0.00 in0.0 mm 0.00 in0.0 mm
06:28 AM 45.5°F7.5°C 35.9°F2.2°C 69% 14.3 mph E23.0 kmh E 32.0 mph51.5 kmh 29.87 in1011.5 mb 0.00 in0.0 mm 0.00 in0.0 mm 0.00 in0.0 mm
06:29 AM 45.4°F7.4°C 35.8°F2.1°C 69% 15.0 mph E24.1 kmh E 23.0 mph37.0 kmh 29.87 in1011.5 mb 0.00 in0.0 mm 0.00 in0.0 mm 0.00 in0.0 mm
06:30 AM 45.5°F7.5°C 35.9°F2.2°C 69% 19.3 mph E31.1 kmh E 26.0 mph41.8 kmh 29.87 in1011.5 mb 0.00 in0.0 mm 0.00 in0.0 mm 0.00 in0.0 mm
06:31 AM 45.4°F7.4°C 35.8°F2.1°C 69% 19.0 mph E30.6 kmh E 26.0 mph41.8 kmh 29.87 in1011.5 mb 0.00 in0.0 mm 0.00 in0.0 mm 0.00 in0.0 mm
06:32 AM 45.5°F7.5°C 35.9°F2.2°C 69% 21.5 mph E34.6 kmh E 28.0 mph45.1 kmh 29.87 in1011.5 mb 0.00 in0.0 mm 0.00 in0.0 mm 0.00 in0.0 mm
06:33 AM 45.5°F7.5°C 35.9°F2.2°C 69% 18.9 mph E30.4 kmh E 28.0 mph45.1 kmh 29.86 in1011.2 mb 0.00 in0.0 mm 0.00 in0.0 mm 0.00 in0.0 mm
06:34 AM 45.5°F7.5°C 35.9°F2.2°C 69% 17.3 mph E27.8 kmh E 25.0 mph40.2 kmh 29.87 in1011.5 mb 0.00 in0.0 mm 0.00 in0.0 mm 0.00 in0.0 mm
06:35 AM 45.6°F7.6°C 36.0°F2.2°C 69% 18.8 mph E30.3 kmh E 25.0 mph40.2 kmh 29.87 in1011.5 mb 0.00 in0.0 mm 0.00 in0.0 mm 0.00 in0.0 mm
06:36 AM 45.7°F7.6°C 36.1°F2.3°C 69% 19.6 mph E31.5 kmh E 24.0 mph38.6 kmh 29.86 in1011.2 mb 0.00 in0.0 mm 0.00 in0.0 mm 0.00 in0.0 mm
06:37 AM 45.6°F7.6°C 36.0°F2.2°C 69% 22.6 mph E36.4 kmh E 31.0 mph49.9 kmh 29.87 in1011.5 mb 0.00 in0.0 mm 0.00 in0.0 mm 0.00 in0.0 mm
06:38 AM 45.7°F7.6°C 36.1°F2.3°C 69% 21.7 mph E34.9 kmh E 31.0 mph49.9 kmh 29.86 in1011.2 mb 0.00 in0.0 mm 0.00 in0.0 mm 0.00 in0.0 mm
06:39 AM 45.8°F7.7°C 36.2°F2.3°C 69% 18.3 mph ENE29.5 kmh ENE 27.0 mph43.5 kmh 29.86 in1011.2 mb 0.00 in0.0 mm 0.00 in0.0 mm 0.00 in0.0 mm
06:40 AM 45.8°F7.7°C 36.2°F2.3°C 69% 20.6 mph E33.2 kmh E 27.0 mph43.5 kmh 29.86 in1011.2 mb 0.00 in0.0 mm 0.00 in0.0 mm 0.00 in0.0 mm
06:41 AM 45.9°F7.7°C 36.3°F2.4°C 69% 23.7 mph E38.1 kmh E 28.0 mph45.1 kmh 29.86 in1011.2 mb 0.00 in0.0 mm 0.00 in0.0 mm 0.00 in0.0 mm
06:42 AM 45.9°F7.7°C 36.3°F2.4°C 69% 21.4 mph E34.4 kmh E 29.0 mph46.7 kmh 29.86 in1011.2 mb 0.00 in0.0 mm 0.00 in0.0 mm 0.00 in0.0 mm
06:43 AM 46.0°F7.8°C 36.4°F2.4°C 69% 18.5 mph E29.8 kmh E 29.0 mph46.7 kmh 29.86 in1011.2 mb 0.00 in0.0 mm 0.00 in0.0 mm 0.00 in0.0 mm
06:44 AM 46.0°F7.8°C 36.4°F2.4°C 69% 21.4 mph E34.4 kmh E 27.0 mph43.5 kmh 29.86 in1011.2 mb 0.00 in0.0 mm 0.00 in0.0 mm 0.00 in0.0 mm
06:45 AM 46.0°F7.8°C 36.4°F2.4°C 69% 17.1 mph E27.5 kmh E 26.0 mph41.8 kmh 29.87 in1011.5 mb 0.00 in0.0 mm 0.00 in0.0 mm 0.00 in0.0 mm
06:46 AM 46.0°F7.8°C 36.4°F2.4°C 69% 22.3 mph E35.9 kmh E 31.0 mph49.9 kmh 29.87 in1011.5 mb 0.00 in0.0 mm 0.00 in0.0 mm 0.00 in0.0 mm
06:47 AM 46.1°F7.8°C 36.5°F2.5°C 69% 20.9 mph E33.6 kmh E 31.0 mph49.9 kmh 29.86 in1011.2 mb 0.00 in0.0 mm 0.00 in0.0 mm 0.00 in0.0 mm
06:48 AM 46.1°F7.8°C 36.5°F2.5°C 69% 21.8 mph E35.1 kmh E 28.0 mph45.1 kmh 29.87 in1011.5 mb 0.00 in0.0 mm 0.00 in0.0 mm 0.00 in0.0 mm
06:49 AM 46.1°F7.8°C 36.5°F2.5°C 69% 23.6 mph E38.0 kmh E 30.0 mph48.3 kmh 29.87 in1011.5 mb 0.00 in0.0 mm 0.00 in0.0 mm 0.00 in0.0 mm
06:50 AM 46.1°F7.8°C 36.5°F2.5°C 69% 18.7 mph E30.1 kmh E 30.0 mph48.3 kmh 29.87 in1011.5 mb 0.00 in0.0 mm 0.00 in0.0 mm 0.00 in0.0 mm
06:51 AM 46.1°F7.8°C 36.5°F2.5°C 69% 20.9 mph E33.6 kmh E 25.0 mph40.2 kmh 29.87 in1011.5 mb 0.00 in0.0 mm 0.00 in0.0 mm 0.00 in0.0 mm
06:52 AM 46.2°F7.9°C 36.6°F2.6°C 69% 18.8 mph ENE30.3 kmh ENE 25.0 mph40.2 kmh 29.87 in1011.5 mb 0.00 in0.0 mm 0.00 in0.0 mm 0.00 in0.0 mm
06:53 AM 46.2°F7.9°C 36.6°F2.6°C 69% 21.0 mph E33.8 kmh E 29.0 mph46.7 kmh 29.86 in1011.2 mb 0.00 in0.0 mm 0.00 in0.0 mm 0.00 in0.0 mm
06:54 AM 46.2°F7.9°C 36.6°F2.6°C 69% 17.8 mph E28.6 kmh E 29.0 mph46.7 kmh 29.87 in1011.5 mb 0.00 in0.0 mm 0.00 in0.0 mm 0.00 in0.0 mm
06:55 AM 46.2°F7.9°C 36.6°F2.6°C 69% 14.2 mph E22.9 kmh E 23.0 mph37.0 kmh 29.86 in1011.2 mb 0.00 in0.0 mm 0.00 in0.0 mm 0.00 in0.0 mm
06:56 AM 46.2°F7.9°C 36.6°F2.6°C 69% 21.9 mph E35.2 kmh E 28.0 mph45.1 kmh 29.87 in1011.5 mb 0.00 in0.0 mm 0.00 in0.0 mm 0.00 in0.0 mm
06:57 AM 46.1°F7.8°C 36.5°F2.5°C 69% 16.4 mph E26.4 kmh E 28.0 mph45.1 kmh 29.87 in1011.5 mb 0.00 in0.0 mm 0.00 in0.0 mm 0.00 in0.0 mm
06:58 AM 46.1°F7.8°C 36.5°F2.5°C 69% 21.1 mph E34.0 kmh E 25.0 mph40.2 kmh 29.87 in1011.5 mb 0.00 in0.0 mm 0.00 in0.0 mm 0.00 in0.0 mm
06:59 AM 46.1°F7.8°C 36.5°F2.5°C 69% 18.6 mph E29.9 kmh E 26.0 mph41.8 kmh 29.87 in1011.5 mb 0.00 in0.0 mm 0.00 in0.0 mm 0.00 in0.0 mm
07:00 AM 46.1°F7.8°C 36.5°F2.5°C 69% 19.3 mph E31.1 kmh E 26.0 mph41.8 kmh 29.87 in1011.5 mb 0.00 in0.0 mm 0.00 in0.0 mm 0.00 in0.0 mm
07:01 AM 46.1°F7.8°C 36.5°F2.5°C 69% 23.2 mph E37.3 kmh E 30.0 mph48.3 kmh 29.87 in1011.5 mb 0.00 in0.0 mm 0.00 in0.0 mm 0.00 in0.0 mm
07:02 AM 46.1°F7.8°C 36.5°F2.5°C 69% 18.6 mph E29.9 kmh E 30.0 mph48.3 kmh 29.87 in1011.5 mb 0.00 in0.0 mm 0.00 in0.0 mm 0.00 in0.0 mm
07:03 AM 46.1°F7.8°C 36.5°F2.5°C 69% 18.8 mph E30.3 kmh E 28.0 mph45.1 kmh 29.87 in1011.5 mb 0.00 in0.0 mm 0.00 in0.0 mm 0.00 in0.0 mm
07:04 AM 46.1°F7.8°C 36.5°F2.5°C 69% 16.6 mph E26.7 kmh E 28.0 mph45.1 kmh 29.87 in1011.5 mb 0.00 in0.0 mm 0.00 in0.0 mm 0.00 in0.0 mm
07:05 AM 46.2°F7.9°C 36.6°F2.6°C 69% 11.7 mph E18.8 kmh E 22.0 mph35.4 kmh 29.88 in1011.9 mb 0.00 in0.0 mm 0.00 in0.0 mm 0.00 in0.0 mm
07:06 AM 46.3°F7.9°C 36.7°F2.6°C 69% 18.0 mph E29.0 kmh E 23.0 mph37.0 kmh 29.87 in1011.5 mb 0.00 in0.0 mm 0.00 in0.0 mm 0.00 in0.0 mm
07:07 AM 46.3°F7.9°C 36.7°F2.6°C 69% 18.8 mph E30.3 kmh E 24.0 mph38.6 kmh 29.87 in1011.5 mb 0.00 in0.0 mm 0.00 in0.0 mm 0.00 in0.0 mm
07:08 AM 46.3°F7.9°C 36.7°F2.6°C 69% 14.1 mph E22.7 kmh E 24.0 mph38.6 kmh 29.87 in1011.5 mb 0.00 in0.0 mm 0.00 in0.0 mm 0.00 in0.0 mm
07:09 AM 46.4°F8.0°C 36.8°F2.7°C 69% 16.1 mph E25.9 kmh E 20.0 mph32.2 kmh 29.87 in1011.5 mb 0.00 in0.0 mm 0.00 in0.0 mm 0.00 in0.0 mm
07:10 AM 46.4°F8.0°C 36.8°F2.7°C 69% 17.3 mph E27.8 kmh E 23.0 mph37.0 kmh 29.87 in1011.5 mb 0.00 in0.0 mm 0.00 in0.0 mm 0.00 in0.0 mm
07:11 AM 46.4°F8.0°C 36.8°F2.7°C 69% 15.3 mph E24.6 kmh E 23.0 mph37.0 kmh 29.87 in1011.5 mb 0.00 in0.0 mm 0.00 in0.0 mm 0.00 in0.0 mm
07:12 AM 46.4°F8.0°C 36.8°F2.7°C 69% 18.8 mph E30.3 kmh E 29.0 mph46.7 kmh 29.87 in1011.5 mb 0.00 in0.0 mm 0.00 in0.0 mm 0.00 in0.0 mm
07:13 AM 46.4°F8.0°C 36.8°F2.7°C 69% 14.7 mph E23.7 kmh E 29.0 mph46.7 kmh 29.87 in1011.5 mb 0.00 in0.0 mm 0.00 in0.0 mm 0.00 in0.0 mm
07:14 AM 46.5°F8.1°C 36.9°F2.7°C 69% 15.9 mph E25.6 kmh E 23.0 mph37.0 kmh 29.87 in1011.5 mb 0.00 in0.0 mm 0.00 in0.0 mm 0.00 in0.0 mm
07:15 AM 46.5°F8.1°C 36.9°F2.7°C 69% 15.7 mph E25.3 kmh E 23.0 mph37.0 kmh 29.87 in1011.5 mb 0.00 in0.0 mm 0.00 in0.0 mm 0.00 in0.0 mm
07:16 AM 46.5°F8.1°C 36.9°F2.7°C 69% 15.4 mph E24.8 kmh E 23.0 mph37.0 kmh 29.87 in1011.5 mb 0.00 in0.0 mm 0.00 in0.0 mm 0.00 in0.0 mm
07:17 AM 46.6°F8.1°C 37.0°F2.8°C 69% 16.6 mph E26.7 kmh E 21.0 mph33.8 kmh 29.87 in1011.5 mb 0.00 in0.0 mm 0.00 in0.0 mm 0.00 in0.0 mm
07:18 AM 46.6°F8.1°C 37.0°F2.8°C 69% 14.3 mph E23.0 kmh E 21.0 mph33.8 kmh 29.87 in1011.5 mb 0.00 in0.0 mm 0.00 in0.0 mm 0.00 in0.0 mm
07:19 AM 46.6°F8.1°C 37.0°F2.8°C 69% 14.6 mph E23.5 kmh E 20.0 mph32.2 kmh 29.87 in1011.5 mb 0.00 in0.0 mm 0.00 in0.0 mm 0.00 in0.0 mm
07:20 AM 46.6°F8.1°C 37.0°F2.8°C 69% 19.6 mph E31.5 kmh E 25.0 mph40.2 kmh 29.88 in1011.9 mb 0.00 in0.0 mm 0.00 in0.0 mm 0.00 in0.0 mm
07:21 AM 46.6°F8.1°C 37.0°F2.8°C 69% 19.4 mph E31.2 kmh E 25.0 mph40.2 kmh 29.88 in1011.9 mb 0.00 in0.0 mm 0.00 in0.0 mm 0.00 in0.0 mm
07:22 AM 46.6°F8.1°C 37.0°F2.8°C 69% 23.9 mph E38.5 kmh E 29.0 mph46.7 kmh 29.87 in1011.5 mb 0.00 in0.0 mm 0.00 in0.0 mm 0.00 in0.0 mm
07:23 AM 46.6°F8.1°C 37.0°F2.8°C 69% 17.9 mph E28.8 kmh E 29.0 mph46.7 kmh 29.88 in1011.9 mb 0.00 in0.0 mm 0.00 in0.0 mm 0.00 in0.0 mm
07:24 AM 46.6°F8.1°C 37.0°F2.8°C 69% 12.5 mph E20.1 kmh E 23.0 mph37.0 kmh 29.87 in1011.5 mb 0.00 in0.0 mm 0.00 in0.0 mm 0.00 in0.0 mm
07:25 AM 46.7°F8.2°C 37.1°F2.8°C 69% 14.4 mph E23.2 kmh E 19.0 mph30.6 kmh 29.88 in1011.9 mb 0.00 in0.0 mm 0.00 in0.0 mm 0.00 in0.0 mm
07:26 AM 46.6°F8.1°C 37.0°F2.8°C 69% 16.3 mph E26.2 kmh E 21.0 mph33.8 kmh 29.87 in1011.5 mb 0.00 in0.0 mm 0.00 in0.0 mm 0.00 in0.0 mm
07:27 AM 46.7°F8.2°C 37.1°F2.8°C 69% 18.8 mph E30.3 kmh E 24.0 mph38.6 kmh 29.88 in1011.9 mb 0.00 in0.0 mm 0.00 in0.0 mm 0.00 in0.0 mm
07:28 AM 46.6°F8.1°C 37.0°F2.8°C 69% 18.7 mph E30.1 kmh E 25.0 mph40.2 kmh 29.88 in1011.9 mb 0.00 in0.0 mm 0.00 in0.0 mm 0.00 in0.0 mm
07:29 AM 46.6°F8.1°C 37.0°F2.8°C 69% 15.7 mph E25.3 kmh E 25.0 mph40.2 kmh 29.88 in1011.9 mb 0.00 in0.0 mm 0.00 in0.0 mm 0.00 in0.0 mm
07:30 AM 46.6°F8.1°C 37.0°F2.8°C 69% 11.7 mph E18.8 kmh E 20.0 mph32.2 kmh 29.88 in1011.9 mb 0.00 in0.0 mm 0.00 in0.0 mm 0.00 in0.0 mm
07:31 AM 46.7°F8.2°C 37.1°F2.8°C 69% 13.5 mph E21.7 kmh E 20.0 mph32.2 kmh 29.88 in1011.9 mb 0.00 in0.0 mm 0.00 in0.0 mm 0.00 in0.0 mm
07:32 AM 46.6°F8.1°C 37.0°F2.8°C 69% 10.9 mph E17.5 kmh E 20.0 mph32.2 kmh 29.88 in1011.9 mb 0.00 in0.0 mm 0.00 in0.0 mm 0.00 in0.0 mm
07:33 AM 46.7°F8.2°C 37.1°F2.8°C 69% 12.9 mph E20.8 kmh E 20.0 mph32.2 kmh 29.88 in1011.9 mb 0.00 in0.0 mm 0.00 in0.0 mm 0.00 in0.0 mm
07:34 AM 46.6°F8.1°C 37.0°F2.8°C 69% 13.6 mph E21.9 kmh E 20.0 mph32.2 kmh 29.88 in1011.9 mb 0.00 in0.0 mm 0.00 in0.0 mm 0.00 in0.0 mm
07:35 AM 46.7°F8.2°C 37.1°F2.8°C 69% 15.5 mph E24.9 kmh E 26.0 mph41.8 kmh 29.88 in1011.9 mb 0.00 in0.0 mm 0.00 in0.0 mm 0.00 in0.0 mm
07:36 AM 46.7°F8.2°C 37.1°F2.8°C 69% 19.8 mph E31.9 kmh E 26.0 mph41.8 kmh 29.87 in1011.5 mb 0.00 in0.0 mm 0.00 in0.0 mm 0.00 in0.0 mm
07:37 AM 46.6°F8.1°C 37.0°F2.8°C 69% 18.3 mph E29.5 kmh E 26.0 mph41.8 kmh 29.87 in1011.5 mb 0.00 in0.0 mm 0.00 in0.0 mm 0.00 in0.0 mm
07:38 AM 46.5°F8.1°C 36.9°F2.7°C 69% 19.6 mph E31.5 kmh E 29.0 mph46.7 kmh 29.88 in1011.9 mb 0.00 in0.0 mm 0.00 in0.0 mm 0.00 in0.0 mm
07:39 AM 46.5°F8.1°C 36.9°F2.7°C 69% 14.3 mph E23.0 kmh E 29.0 mph46.7 kmh 29.87 in1011.5 mb 0.00 in0.0 mm 0.00 in0.0 mm 0.00 in0.0 mm
07:40 AM 46.5°F8.1°C 36.9°F2.7°C 69% 14.0 mph E22.5 kmh E 21.0 mph33.8 kmh 29.87 in1011.5 mb 0.00 in0.0 mm 0.00 in0.0 mm 0.00 in0.0 mm
07:41 AM 46.5°F8.1°C 36.9°F2.7°C 69% 21.8 mph E35.1 kmh E 28.0 mph45.1 kmh 29.87 in1011.5 mb 0.00 in0.0 mm 0.00 in0.0 mm 0.00 in0.0 mm
07:42 AM 46.5°F8.1°C 36.9°F2.7°C 69% 18.1 mph E29.1 kmh E 28.0 mph45.1 kmh 29.87 in1011.5 mb 0.00 in0.0 mm 0.00 in0.0 mm 0.00 in0.0 mm
07:43 AM 46.5°F8.1°C 36.9°F2.7°C 69% 15.0 mph E24.1 kmh E 22.0 mph35.4 kmh 29.87 in1011.5 mb 0.00 in0.0 mm 0.00 in0.0 mm 0.00 in0.0 mm
07:44 AM 46.5°F8.1°C 37.3°F2.9°C 70% 20.3 mph E32.7 kmh E 27.0 mph43.5 kmh 29.87 in1011.5 mb 0.00 in0.0 mm 0.00 in0.0 mm 0.00 in0.0 mm
07:45 AM 46.5°F8.1°C 37.3°F2.9°C 70% 16.6 mph E26.7 kmh E 27.0 mph43.5 kmh 29.87 in1011.5 mb 0.00 in0.0 mm 0.00 in0.0 mm 0.00 in0.0 mm
07:46 AM 46.6°F8.1°C 37.0°F2.8°C 69% 14.3 mph E23.0 kmh E 22.0 mph35.4 kmh 29.87 in1011.5 mb 0.00 in0.0 mm 0.00 in0.0 mm 0.00 in0.0 mm
07:47 AM 46.5°F8.1°C 36.9°F2.7°C 69% 19.5 mph E31.4 kmh E 28.0 mph45.1 kmh 29.87 in1011.5 mb 0.00 in0.0 mm 0.00 in0.0 mm 0.00 in0.0 mm
07:48 AM 46.6°F8.1°C 37.3°F2.9°C 70% 18.9 mph E30.4 kmh E 28.0 mph45.1 kmh 29.87 in1011.5 mb 0.00 in0.0 mm 0.00 in0.0 mm 0.00 in0.0 mm
07:49 AM 46.6°F8.1°C 37.0°F2.8°C 69% 18.4 mph E29.6 kmh E 24.0 mph38.6 kmh 29.87 in1011.5 mb 0.00 in0.0 mm 0.00 in0.0 mm 0.00 in0.0 mm
07:50 AM 46.6°F8.1°C 37.3°F2.9°C 70% 18.7 mph E30.1 kmh E 29.0 mph46.7 kmh 29.87 in1011.5 mb 0.00 in0.0 mm 0.00 in0.0 mm 0.00 in0.0 mm
07:51 AM 46.6°F8.1°C 37.0°F2.8°C 69% 18.9 mph E30.4 kmh E 29.0 mph46.7 kmh 29.87 in1011.5 mb 0.00 in0.0 mm 0.00 in0.0 mm 0.00 in0.0 mm
07:52 AM 46.6°F8.1°C 37.3°F2.9°C 70% 18.1 mph E29.1 kmh E 28.0 mph45.1 kmh 29.87 in1011.5 mb 0.00 in0.0 mm 0.00 in0.0 mm 0.00 in0.0 mm
07:53 AM 46.7°F8.2°C 37.1°F2.8°C 69% 21.7 mph E34.9 kmh E 29.0 mph46.7 kmh 29.87 in1011.5 mb 0.00 in0.0 mm 0.00 in0.0 mm 0.00 in0.0 mm
07:54 AM 46.7°F8.2°C 37.4°F3.0°C 70% 14.2 mph E22.9 kmh E 29.0 mph46.7 kmh 29.87 in1011.5 mb 0.00 in0.0 mm 0.00 in0.0 mm 0.00 in0.0 mm
07:55 AM 46.7°F8.2°C 37.4°F3.0°C 70% 12.6 mph E20.3 kmh E 19.0 mph30.6 kmh 29.87 in1011.5 mb 0.00 in0.0 mm 0.00 in0.0 mm 0.00 in0.0 mm
07:56 AM 46.8°F8.2°C 37.5°F3.1°C 70% 14.4 mph E23.2 kmh E 19.0 mph30.6 kmh 29.87 in1011.5 mb 0.00 in0.0 mm 0.00 in0.0 mm 0.00 in0.0 mm
07:57 AM 46.8°F8.2°C 37.2°F2.9°C 69% 18.9 mph E30.4 kmh E 25.0 mph40.2 kmh 29.88 in1011.9 mb 0.00 in0.0 mm 0.00 in0.0 mm 0.00 in0.0 mm
07:58 AM 46.8°F8.2°C 37.5°F3.1°C 70% 15.9 mph E25.6 kmh E 25.0 mph40.2 kmh 29.88 in1011.9 mb 0.00 in0.0 mm 0.00 in0.0 mm 0.00 in0.0 mm
07:59 AM 46.9°F8.3°C 37.3°F2.9°C 69% 17.1 mph E27.5 kmh E 25.0 mph40.2 kmh 29.88 in1011.9 mb 0.00 in0.0 mm 0.00 in0.0 mm 0.00 in0.0 mm
08:00 AM 46.9°F8.3°C 37.6°F3.1°C 70% 13.3 mph E21.4 kmh E 24.0 mph38.6 kmh 29.88 in1011.9 mb 0.00 in0.0 mm 0.00 in0.0 mm 0.00 in0.0 mm
08:01 AM 47.0°F8.3°C 37.7°F3.2°C 70% 15.4 mph E24.8 kmh E 22.0 mph35.4 kmh 29.88 in1011.9 mb 0.00 in0.0 mm 0.00 in0.0 mm 0.00 in0.0 mm
08:02 AM 47.0°F8.3°C 37.4°F3.0°C 69% 17.1 mph E27.5 kmh E 22.0 mph35.4 kmh 29.88 in1011.9 mb 0.00 in0.0 mm 0.00 in0.0 mm 0.00 in0.0 mm
08:03 AM 47.0°F8.3°C 37.4°F3.0°C 69% 14.9 mph E24.0 kmh E 21.0 mph33.8 kmh 29.88 in1011.9 mb 0.00 in0.0 mm 0.00 in0.0 mm 0.00 in0.0 mm
08:04 AM 47.1°F8.4°C 37.5°F3.1°C 69% 12.5 mph E20.1 kmh E 17.0 mph27.4 kmh 29.88 in1011.9 mb 0.00 in0.0 mm 0.00 in0.0 mm 0.00 in0.0 mm
08:05 AM 47.2°F8.4°C 37.9°F3.3°C 70% 12.8 mph E20.6 kmh E 20.0 mph32.2 kmh 29.88 in1011.9 mb 0.00 in0.0 mm 0.00 in0.0 mm 0.00 in0.0 mm
08:06 AM 47.3°F8.5°C 37.7°F3.2°C 69% 13.9 mph E22.4 kmh E 22.0 mph35.4 kmh 29.88 in1011.9 mb 0.00 in0.0 mm 0.00 in0.0 mm 0.00 in0.0 mm
08:07 AM 47.4°F8.6°C 37.7°F3.2°C 69% 13.8 mph E22.2 kmh E 22.0 mph35.4 kmh 29.88 in1011.9 mb 0.00 in0.0 mm 0.00 in0.0 mm 0.00 in0.0 mm
08:08 AM 47.5°F8.6°C 37.8°F3.2°C 69% 20.4 mph E32.8 kmh E 25.0 mph40.2 kmh 29.88 in1011.9 mb 0.00 in0.0 mm 0.00 in0.0 mm 0.00 in0.0 mm
08:09 AM 47.5°F8.6°C 37.8°F3.2°C 69% 13.8 mph E22.2 kmh E 25.0 mph40.2 kmh 29.88 in1011.9 mb 0.00 in0.0 mm 0.00 in0.0 mm 0.00 in0.0 mm
08:10 AM 47.5°F8.6°C 37.8°F3.2°C 69% 13.8 mph E22.2 kmh E 18.0 mph29.0 kmh 29.88 in1011.9 mb 0.00 in0.0 mm 0.00 in0.0 mm 0.00 in0.0 mm
08:11 AM 47.6°F8.7°C 37.9°F3.3°C 69% 13.3 mph E21.4 kmh E 19.0 mph30.6 kmh 29.89 in1012.2 mb 0.00 in0.0 mm 0.00 in0.0 mm 0.00 in0.0 mm
08:12 AM 47.7°F8.7°C 38.0°F3.3°C 69% 11.7 mph E18.8 kmh E 19.0 mph30.6 kmh 29.89 in1012.2 mb 0.00 in0.0 mm 0.00 in0.0 mm 0.00 in0.0 mm
08:13 AM 47.8°F8.8°C 38.1°F3.4°C 69% 16.4 mph E26.4 kmh E 25.0 mph40.2 kmh 29.89 in1012.2 mb 0.00 in0.0 mm 0.00 in0.0 mm 0.00 in0.0 mm
08:14 AM 47.9°F8.8°C 38.2°F3.4°C 69% 18.9 mph E30.4 kmh E 26.0 mph41.8 kmh 29.88 in1011.9 mb 0.00 in0.0 mm 0.00 in0.0 mm 0.00 in0.0 mm
08:15 AM 47.9°F8.8°C 37.9°F3.3°C 68% 18.6 mph E29.9 kmh E 26.0 mph41.8 kmh 29.88 in1011.9 mb 0.00 in0.0 mm 0.00 in0.0 mm 0.00 in0.0 mm
08:16 AM 48.0°F8.9°C 38.3°F3.5°C 69% 13.4 mph E21.6 kmh E 23.0 mph37.0 kmh 29.89 in1012.2 mb 0.00 in0.0 mm 0.00 in0.0 mm 0.00 in0.0 mm
08:17 AM 48.1°F8.9°C 38.4°F3.6°C 69% 14.1 mph ESE22.7 kmh ESE 19.0 mph30.6 kmh 29.89 in1012.2 mb 0.00 in0.0 mm 0.00 in0.0 mm 0.00 in0.0 mm
08:18 AM 48.3°F9.1°C 38.6°F3.7°C 69% 13.0 mph E20.9 kmh E 19.0 mph30.6 kmh 29.89 in1012.2 mb 0.00 in0.0 mm 0.00 in0.0 mm 0.00 in0.0 mm
08:19 AM 48.4°F9.1°C 38.3°F3.5°C 68% 15.6 mph E25.1 kmh E 21.0 mph33.8 kmh 29.89 in1012.2 mb 0.00 in0.0 mm 0.00 in0.0 mm 0.00 in0.0 mm
08:20 AM 48.4°F9.1°C 38.3°F3.5°C 68% 14.5 mph E23.3 kmh E 21.0 mph33.8 kmh 29.89 in1012.2 mb 0.00 in0.0 mm 0.00 in0.0 mm 0.00 in0.0 mm
08:21 AM 48.5°F9.2°C 38.4°F3.6°C 68% 13.9 mph E22.4 kmh E 21.0 mph33.8 kmh 29.89 in1012.2 mb 0.00 in0.0 mm 0.00 in0.0 mm 0.00 in0.0 mm
08:22 AM 48.6°F9.2°C 38.5°F3.6°C 68% 10.9 mph E17.5 kmh E 21.0 mph33.8 kmh 29.89 in1012.2 mb 0.00 in0.0 mm 0.00 in0.0 mm 0.00 in0.0 mm
08:23 AM 48.7°F9.3°C 38.6°F3.7°C 68% 15.4 mph E24.8 kmh E 22.0 mph35.4 kmh 29.89 in1012.2 mb 0.00 in0.0 mm 0.00 in0.0 mm 0.00 in0.0 mm
08:24 AM 48.8°F9.3°C 38.7°F3.7°C 68% 14.1 mph E22.7 kmh E 22.0 mph35.4 kmh 29.89 in1012.2 mb 0.00 in0.0 mm 0.00 in0.0 mm 0.00 in0.0 mm
08:25 AM 48.7°F9.3°C 38.6°F3.7°C 68% 18.7 mph E30.1 kmh E 27.0 mph43.5 kmh 29.89 in1012.2 mb 0.00 in0.0 mm 0.00 in0.0 mm 0.00 in0.0 mm
08:26 AM 48.7°F9.3°C 38.6°F3.7°C 68% 18.1 mph E29.1 kmh E 27.0 mph43.5 kmh 29.89 in1012.2 mb 0.00 in0.0 mm 0.00 in0.0 mm 0.00 in0.0 mm
08:27 AM 48.6°F9.2°C 38.1°F3.4°C 67% 19.6 mph E31.5 kmh E 25.0 mph40.2 kmh 29.89 in1012.2 mb 0.00 in0.0 mm 0.00 in0.0 mm 0.00 in0.0 mm
08:28 AM 48.6°F9.2°C 38.5°F3.6°C 68% 16.3 mph ESE26.2 kmh ESE 25.0 mph40.2 kmh 29.89 in1012.2 mb 0.00 in0.0 mm 0.00 in0.0 mm 0.00 in0.0 mm
08:29 AM 48.6°F9.2°C 38.5°F3.6°C 68% 20.3 mph E32.7 kmh E 30.0 mph48.3 kmh 29.89 in1012.2 mb 0.00 in0.0 mm 0.00 in0.0 mm 0.00 in0.0 mm
08:30 AM 48.5°F9.2°C 38.4°F3.6°C 68% 25.8 mph E41.5 kmh E 33.0 mph53.1 kmh 29.88 in1011.9 mb 0.00 in0.0 mm 0.00 in0.0 mm 0.00 in0.0 mm
08:31 AM 48.5°F9.2°C 38.4°F3.6°C 68% 17.2 mph E27.7 kmh E 32.0 mph51.5 kmh 29.89 in1012.2 mb 0.00 in0.0 mm 0.00 in0.0 mm 0.00 in0.0 mm
08:32 AM 48.6°F9.2°C 38.5°F3.6°C 68% 14.7 mph E23.7 kmh E 25.0 mph40.2 kmh 29.89 in1012.2 mb 0.00 in0.0 mm 0.00 in0.0 mm 0.00 in0.0 mm
08:33 AM 48.6°F9.2°C 38.5°F3.6°C 68% 17.0 mph E27.4 kmh E 25.0 mph40.2 kmh 29.89 in1012.2 mb 0.00 in0.0 mm 0.00 in0.0 mm 0.00 in0.0 mm
08:34 AM 48.7°F9.3°C 38.6°F3.7°C 68% 13.4 mph E21.6 kmh E 21.0 mph33.8 kmh 29.89 in1012.2 mb 0.00 in0.0 mm 0.00 in0.0 mm 0.00 in0.0 mm
08:35 AM 48.8°F9.3°C 38.7°F3.7°C 68% 11.5 mph E18.5 kmh E 19.0 mph30.6 kmh 29.89 in1012.2 mb 0.00 in0.0 mm 0.00 in0.0 mm 0.00 in0.0 mm
08:36 AM 48.9°F9.4°C 38.8°F3.8°C 68% 18.3 mph E29.5 kmh E 25.0 mph40.2 kmh 29.89 in1012.2 mb 0.00 in0.0 mm 0.00 in0.0 mm 0.00 in0.0 mm
08:37 AM 48.9°F9.4°C 38.8°F3.8°C 68% 14.7 mph E23.7 kmh E 25.0 mph40.2 kmh 29.89 in1012.2 mb 0.00 in0.0 mm 0.00 in0.0 mm 0.00 in0.0 mm
08:38 AM 49.0°F9.4°C 38.5°F3.6°C 67% 18.0 mph E29.0 kmh E 25.0 mph40.2 kmh 29.89 in1012.2 mb 0.00 in0.0 mm 0.00 in0.0 mm 0.00 in0.0 mm
08:39 AM 49.1°F9.5°C 38.6°F3.7°C 67% 19.9 mph E32.0 kmh E 28.0 mph45.1 kmh 29.88 in1011.9 mb 0.00 in0.0 mm 0.00 in0.0 mm 0.00 in0.0 mm
08:40 AM 49.1°F9.5°C 38.6°F3.7°C 67% 19.7 mph E31.7 kmh E 28.0 mph45.1 kmh 29.89 in1012.2 mb 0.00 in0.0 mm 0.00 in0.0 mm 0.00 in0.0 mm
08:41 AM 49.1°F9.5°C 38.6°F3.7°C 67% 14.1 mph E22.7 kmh E 27.0 mph43.5 kmh 29.89 in1012.2 mb 0.00 in0.0 mm 0.00 in0.0 mm 0.00 in0.0 mm
08:42 AM 49.3°F9.6°C 39.2°F4.0°C 68% 19.9 mph E32.0 kmh E 28.0 mph45.1 kmh 29.89 in1012.2 mb 0.00 in0.0 mm 0.00 in0.0 mm 0.00 in0.0 mm
08:43 AM 49.4°F9.7°C 38.9°F3.8°C 67% 18.2 mph E29.3 kmh E 28.0 mph45.1 kmh 29.89 in1012.2 mb 0.00 in0.0 mm 0.00 in0.0 mm 0.00 in0.0 mm
08:44 AM 49.5°F9.7°C 39.0°F3.9°C 67% 16.5 mph E26.6 kmh E 32.0 mph51.5 kmh 29.89 in1012.2 mb 0.00 in0.0 mm 0.00 in0.0 mm 0.00 in0.0 mm
08:45 AM 49.5°F9.7°C 39.0°F3.9°C 67% 19.0 mph E30.6 kmh E 32.0 mph51.5 kmh 29.89 in1012.2 mb 0.00 in0.0 mm 0.00 in0.0 mm 0.00 in0.0 mm
08:46 AM 49.4°F9.7°C 38.9°F3.8°C 67% 20.2 mph E32.5 kmh E 25.0 mph40.2 kmh 29.89 in1012.2 mb 0.00 in0.0 mm 0.00 in0.0 mm 0.00 in0.0 mm
08:47 AM 49.4°F9.7°C 38.9°F3.8°C 67% 18.7 mph E30.1 kmh E 26.0 mph41.8 kmh 29.89 in1012.2 mb 0.00 in0.0 mm 0.00 in0.0 mm 0.00 in0.0 mm
08:48 AM 49.5°F9.7°C 39.0°F3.9°C 67% 19.5 mph E31.4 kmh E 27.0 mph43.5 kmh 29.89 in1012.2 mb 0.00 in0.0 mm 0.00 in0.0 mm 0.00 in0.0 mm
08:49 AM 49.4°F9.7°C 38.9°F3.8°C 67% 25.2 mph E40.6 kmh E 30.0 mph48.3 kmh 29.89 in1012.2 mb 0.00 in0.0 mm 0.00 in0.0 mm 0.00 in0.0 mm
08:50 AM 49.3°F9.6°C 38.8°F3.8°C 67% 25.8 mph E41.5 kmh E 32.0 mph51.5 kmh 29.89 in1012.2 mb 0.00 in0.0 mm 0.00 in0.0 mm 0.00 in0.0 mm
08:51 AM 49.3°F9.6°C 38.8°F3.8°C 67% 23.8 mph ESE38.3 kmh ESE 32.0 mph51.5 kmh 29.89 in1012.2 mb 0.00 in0.0 mm 0.00 in0.0 mm 0.00 in0.0 mm
08:52 AM 49.4°F9.7°C 38.9°F3.8°C 67% 23.7 mph E38.1 kmh E 31.0 mph49.9 kmh 29.89 in1012.2 mb 0.00 in0.0 mm 0.00 in0.0 mm 0.00 in0.0 mm
08:53 AM 49.4°F9.7°C 38.9°F3.8°C 67% 21.5 mph E34.6 kmh E 31.0 mph49.9 kmh 29.89 in1012.2 mb 0.00 in0.0 mm 0.00 in0.0 mm 0.00 in0.0 mm
08:54 AM 49.4°F9.7°C 38.9°F3.8°C 67% 21.9 mph E35.2 kmh E 29.0 mph46.7 kmh 29.89 in1012.2 mb 0.00 in0.0 mm 0.00 in0.0 mm 0.00 in0.0 mm
08:55 AM 49.4°F9.7°C 38.9°F3.8°C 67% 19.6 mph E31.5 kmh E 29.0 mph46.7 kmh 29.89 in1012.2 mb 0.00 in0.0 mm 0.00 in0.0 mm 0.00 in0.0 mm
08:56 AM 49.4°F9.7°C 38.9°F3.8°C 67% 16.1 mph E25.9 kmh E 25.0 mph40.2 kmh 29.89 in1012.2 mb 0.00 in0.0 mm 0.00 in0.0 mm 0.00 in0.0 mm
08:57 AM 49.4°F9.7°C 38.9°F3.8°C 67% 19.1 mph E30.7 kmh E 25.0 mph40.2 kmh 29.89 in1012.2 mb 0.00 in0.0 mm 0.00 in0.0 mm 0.00 in0.0 mm
08:58 AM 49.4°F9.7°C 38.9°F3.8°C 67% 12.6 mph E20.3 kmh E 24.0 mph38.6 kmh 29.89 in1012.2 mb 0.00 in0.0 mm 0.00 in0.0 mm 0.00 in0.0 mm
08:59 AM 49.4°F9.7°C 38.9°F3.8°C 67% 17.5 mph E28.2 kmh E 23.0 mph37.0 kmh 29.89 in1012.2 mb 0.00 in0.0 mm 0.00 in0.0 mm 0.00 in0.0 mm
09:00 AM 49.4°F9.7°C 38.9°F3.8°C 67% 17.8 mph E28.6 kmh E 23.0 mph37.0 kmh 29.89 in1012.2 mb 0.00 in0.0 mm 0.00 in0.0 mm 0.00 in0.0 mm
09:01 AM 49.4°F9.7°C 38.9°F3.8°C 67% 19.5 mph E31.4 kmh E 24.0 mph38.6 kmh 29.89 in1012.2 mb 0.00 in0.0 mm 0.00 in0.0 mm 0.00 in0.0 mm
09:02 AM 49.4°F9.7°C 38.9°F3.8°C 67% 15.8 mph E25.4 kmh E 24.0 mph38.6 kmh 29.89 in1012.2 mb 0.00 in0.0 mm 0.00 in0.0 mm 0.00 in0.0 mm
09:03 AM 49.4°F9.7°C 38.9°F3.8°C 67% 16.9 mph E27.2 kmh E 24.0 mph38.6 kmh 29.89 in1012.2 mb 0.00 in0.0 mm 0.00 in0.0 mm 0.00 in0.0 mm
09:04 AM 49.3°F9.6°C 38.8°F3.8°C 67% 20.1 mph E32.3 kmh E 27.0 mph43.5 kmh 29.89 in1012.2 mb 0.00 in0.0 mm 0.00 in0.0 mm 0.00 in0.0 mm
09:05 AM 49.3°F9.6°C 38.8°F3.8°C 67% 20.3 mph E32.7 kmh E 27.0 mph43.5 kmh 29.89 in1012.2 mb 0.00 in0.0 mm 0.00 in0.0 mm 0.00 in0.0 mm
09:06 AM 49.3°F9.6°C 38.8°F3.8°C 67% 18.0 mph E29.0 kmh E 30.0 mph48.3 kmh 29.89 in1012.2 mb 0.00 in0.0 mm 0.00 in0.0 mm 0.00 in0.0 mm
09:07 AM 49.2°F9.6°C 38.7°F3.7°C 67% 16.3 mph E26.2 kmh E 30.0 mph48.3 kmh 29.89 in1012.2 mb 0.00 in0.0 mm 0.00 in0.0 mm 0.00 in0.0 mm
09:08 AM 49.2°F9.6°C 38.7°F3.7°C 67% 16.1 mph E25.9 kmh E 24.0 mph38.6 kmh 29.89 in1012.2 mb 0.00 in0.0 mm 0.00 in0.0 mm 0.00 in0.0 mm
09:09 AM 49.3°F9.6°C 38.8°F3.8°C 67% 19.1 mph E30.7 kmh E 26.0 mph41.8 kmh 29.89 in1012.2 mb 0.00 in0.0 mm 0.00 in0.0 mm 0.00 in0.0 mm
09:10 AM 49.1°F9.5°C 38.6°F3.7°C 67% 14.2 mph E22.9 kmh E 26.0 mph41.8 kmh 29.89 in1012.2 mb 0.00 in0.0 mm 0.00 in0.0 mm 0.00 in0.0 mm
09:11 AM 49.2°F9.6°C 39.1°F3.9°C 68% 20.5 mph E33.0 kmh E 28.0 mph45.1 kmh 29.89 in1012.2 mb 0.00 in0.0 mm 0.00 in0.0 mm 0.00 in0.0 mm
09:12 AM 49.1°F9.5°C 38.6°F3.7°C 67% 20.9 mph E33.6 kmh E 30.0 mph48.3 kmh 29.89 in1012.2 mb 0.00 in0.0 mm 0.00 in0.0 mm 0.00 in0.0 mm
09:13 AM 49.2°F9.6°C 39.1°F3.9°C 68% 15.3 mph E24.6 kmh E 30.0 mph48.3 kmh 29.89 in1012.2 mb 0.00 in0.0 mm 0.00 in0.0 mm 0.00 in0.0 mm
09:14 AM 49.1°F9.5°C 39.0°F3.9°C 68% 19.4 mph E31.2 kmh E 27.0 mph43.5 kmh 29.89 in1012.2 mb 0.00 in0.0 mm 0.00 in0.0 mm 0.00 in0.0 mm
09:15 AM 49.1°F9.5°C 39.0°F3.9°C 68% 13.9 mph E22.4 kmh E 27.0 mph43.5 kmh 29.89 in1012.2 mb 0.00 in0.0 mm 0.00 in0.0 mm 0.00 in0.0 mm
09:16 AM 49.2°F9.6°C 39.1°F3.9°C 68% 14.5 mph E23.3 kmh E 21.0 mph33.8 kmh 29.89 in1012.2 mb 0.00 in0.0 mm 0.00 in0.0 mm 0.00 in0.0 mm
09:17 AM 49.2°F9.6°C 39.1°F3.9°C 68% 14.4 mph E23.2 kmh E 20.0 mph32.2 kmh 29.89 in1012.2 mb 0.00 in0.0 mm 0.00 in0.0 mm 0.00 in0.0 mm
09:18 AM 49.2°F9.6°C 39.1°F3.9°C 68% 17.0 mph E27.4 kmh E 21.0 mph33.8 kmh 29.89 in1012.2 mb 0.00 in0.0 mm 0.00 in0.0 mm 0.00 in0.0 mm
09:19 AM 49.2°F9.6°C 39.1°F3.9°C 68% 16.7 mph E26.9 kmh E 22.0 mph35.4 kmh 29.89 in1012.2 mb 0.00 in0.0 mm 0.00 in0.0 mm 0.00 in0.0 mm
09:20 AM 49.2°F9.6°C 39.1°F3.9°C 68% 16.1 mph E25.9 kmh E 22.0 mph35.4 kmh 29.89 in1012.2 mb 0.00 in0.0 mm 0.00 in0.0 mm 0.00 in0.0 mm
09:21 AM 49.2°F9.6°C 39.1°F3.9°C 68% 18.5 mph E29.8 kmh E 26.0 mph41.8 kmh 29.89 in1012.2 mb 0.00 in0.0 mm 0.00 in0.0 mm 0.00 in0.0 mm
09:22 AM 49.2°F9.6°C 39.1°F3.9°C 68% 16.9 mph E27.2 kmh E 26.0 mph41.8 kmh 29.89 in1012.2 mb 0.00 in0.0 mm 0.00 in0.0 mm 0.00 in0.0 mm
09:23 AM 49.2°F9.6°C 39.1°F3.9°C 68% 18.7 mph E30.1 kmh E 24.0 mph38.6 kmh 29.89 in1012.2 mb 0.00 in0.0 mm 0.00 in0.0 mm 0.00 in0.0 mm
09:24 AM 49.2°F9.6°C 39.1°F3.9°C 68% 14.3 mph E23.0 kmh E 24.0 mph38.6 kmh 29.89 in1012.2 mb 0.00 in0.0 mm 0.00 in0.0 mm 0.00 in0.0 mm
09:25 AM 49.2°F9.6°C 39.1°F3.9°C 68% 14.9 mph E24.0 kmh E 19.0 mph30.6 kmh 29.89 in1012.2 mb 0.00 in0.0 mm 0.00 in0.0 mm 0.00 in0.0 mm
09:26 AM 49.2°F9.6°C 39.1°F3.9°C 68% 14.9 mph E24.0 kmh E 19.0 mph30.6 kmh 29.89 in1012.2 mb 0.00 in0.0 mm 0.00 in0.0 mm 0.00 in0.0 mm
09:27 AM 49.2°F9.6°C 39.1°F3.9°C 68% 12.9 mph E20.8 kmh E 18.0 mph29.0 kmh 29.89 in1012.2 mb 0.00 in0.0 mm 0.00 in0.0 mm 0.00 in0.0 mm
09:28 AM 49.2°F9.6°C 39.1°F3.9°C 68% 19.7 mph E31.7 kmh E 25.0 mph40.2 kmh 29.89 in1012.2 mb 0.00 in0.0 mm 0.00 in0.0 mm 0.00 in0.0 mm
09:29 AM 49.2°F9.6°C 39.1°F3.9°C 68% 16.3 mph E26.2 kmh E 25.0 mph40.2 kmh 29.89 in1012.2 mb 0.00 in0.0 mm 0.00 in0.0 mm 0.00 in0.0 mm
09:30 AM 49.2°F9.6°C 39.1°F3.9°C 68% 14.4 mph E23.2 kmh E 22.0 mph35.4 kmh 29.89 in1012.2 mb 0.00 in0.0 mm 0.00 in0.0 mm 0.00 in0.0 mm
09:31 AM 49.2°F9.6°C 39.1°F3.9°C 68% 14.3 mph E23.0 kmh E 25.0 mph40.2 kmh 29.89 in1012.2 mb 0.00 in0.0 mm 0.00 in0.0 mm 0.00 in0.0 mm
09:32 AM 49.2°F9.6°C 39.1°F3.9°C 68% 18.6 mph E29.9 kmh E 27.0 mph43.5 kmh 29.89 in1012.2 mb 0.00 in0.0 mm 0.00 in0.0 mm 0.00 in0.0 mm
09:33 AM 49.1°F9.5°C 39.0°F3.9°C 68% 19.5 mph E31.4 kmh E 27.0 mph43.5 kmh 29.89 in1012.2 mb 0.00 in0.0 mm 0.00 in0.0 mm 0.00 in0.0 mm
09:34 AM 49.2°F9.6°C 39.1°F3.9°C 68% 18.3 mph E29.5 kmh E 27.0 mph43.5 kmh 29.89 in1012.2 mb 0.00 in0.0 mm 0.00 in0.0 mm 0.00 in0.0 mm
09:35 AM 49.1°F9.5°C 39.0°F3.9°C 68% 18.5 mph E29.8 kmh E 27.0 mph43.5 kmh 29.90 in1012.5 mb 0.00 in0.0 mm 0.00 in0.0 mm 0.00 in0.0 mm
09:36 AM 49.1°F9.5°C 39.0°F3.9°C 68% 16.3 mph E26.2 kmh E 25.0 mph40.2 kmh 29.90 in1012.5 mb 0.00 in0.0 mm 0.00 in0.0 mm 0.00 in0.0 mm
09:37 AM 49.1°F9.5°C 39.0°F3.9°C 68% 13.2 mph ESE21.2 kmh ESE 25.0 mph40.2 kmh 29.90 in1012.5 mb 0.00 in0.0 mm 0.00 in0.0 mm 0.00 in0.0 mm
09:38 AM 49.1°F9.5°C 39.0°F3.9°C 68% 18.4 mph ESE29.6 kmh ESE 24.0 mph38.6 kmh 29.90 in1012.5 mb 0.00 in0.0 mm 0.00 in0.0 mm 0.00 in0.0 mm
09:39 AM 49.1°F9.5°C 39.0°F3.9°C 68% 16.3 mph ESE26.2 kmh ESE 24.0 mph38.6 kmh 29.90 in1012.5 mb 0.00 in0.0 mm 0.00 in0.0 mm 0.00 in0.0 mm
09:40 AM 49.2°F9.6°C 39.1°F3.9°C 68% 16.3 mph E26.2 kmh E 23.0 mph37.0 kmh 29.90 in1012.5 mb 0.00 in0.0 mm 0.00 in0.0 mm 0.00 in0.0 mm
09:41 AM 49.1°F9.5°C 39.0°F3.9°C 68% 14.0 mph E22.5 kmh E 23.0 mph37.0 kmh 29.90 in1012.5 mb 0.00 in0.0 mm 0.00 in0.0 mm 0.00 in0.0 mm
09:42 AM 49.2°F9.6°C 39.1°F3.9°C 68% 13.1 mph E21.1 kmh E 22.0 mph35.4 kmh 29.90 in1012.5 mb 0.00 in0.0 mm 0.00 in0.0 mm 0.00 in0.0 mm
09:43 AM 49.1°F9.5°C 39.0°F3.9°C 68% 18.6 mph E29.9 kmh E 25.0 mph40.2 kmh 29.90 in1012.5 mb 0.00 in0.0 mm 0.00 in0.0 mm 0.00 in0.0 mm
09:44 AM 49.1°F9.5°C 39.0°F3.9°C 68% 19.2 mph E30.9 kmh E 27.0 mph43.5 kmh 29.90 in1012.5 mb 0.00 in0.0 mm 0.00 in0.0 mm 0.00 in0.0 mm
09:45 AM 49.1°F9.5°C 39.0°F3.9°C 68% 17.4 mph ESE28.0 kmh ESE 27.0 mph43.5 kmh 29.90 in1012.5 mb 0.00 in0.0 mm 0.00 in0.0 mm 0.00 in0.0 mm
09:46 AM 49.0°F9.4°C 38.9°F3.8°C 68% 17.6 mph E28.3 kmh E 27.0 mph43.5 kmh 29.90 in1012.5 mb 0.00 in0.0 mm 0.00 in0.0 mm 0.00 in0.0 mm
09:47 AM 49.0°F9.4°C 39.3°F4.1°C 69% 15.4 mph E24.8 kmh E 27.0 mph43.5 kmh 29.90 in1012.5 mb 0.00 in0.0 mm 0.00 in0.0 mm 0.00 in0.0 mm
09:48 AM 49.0°F9.4°C 38.9°F3.8°C 68% 21.3 mph E34.3 kmh E 30.0 mph48.3 kmh 29.90 in1012.5 mb 0.00 in0.0 mm 0.00 in0.0 mm 0.00 in0.0 mm
09:49 AM 48.9°F9.4°C 38.8°F3.8°C 68% 22.0 mph E35.4 kmh E 32.0 mph51.5 kmh 29.90 in1012.5 mb 0.00 in0.0 mm 0.00 in0.0 mm 0.00 in0.0 mm
09:50 AM 48.9°F9.4°C 38.8°F3.8°C 68% 18.8 mph E30.3 kmh E 32.0 mph51.5 kmh 29.89 in1012.2 mb 0.00 in0.0 mm 0.00 in0.0 mm 0.00 in0.0 mm
09:51 AM 48.9°F9.4°C 38.8°F3.8°C 68% 19.6 mph E31.5 kmh E 25.0 mph40.2 kmh 29.89 in1012.2 mb 0.00 in0.0 mm 0.00 in0.0 mm 0.00 in0.0 mm
09:52 AM 48.9°F9.4°C 38.8°F3.8°C 68% 18.0 mph E29.0 kmh E 24.0 mph38.6 kmh 29.90 in1012.5 mb 0.00 in0.0 mm 0.00 in0.0 mm 0.00 in0.0 mm
09:53 AM 48.8°F9.3°C 38.7°F3.7°C 68% 18.9 mph E30.4 kmh E 28.0 mph45.1 kmh 29.90 in1012.5 mb 0.00 in0.0 mm 0.00 in0.0 mm 0.00 in0.0 mm
09:54 AM 48.8°F9.3°C 38.7°F3.7°C 68% 16.8 mph ESE27.0 kmh ESE 29.0 mph46.7 kmh 29.90 in1012.5 mb 0.00 in0.0 mm 0.00 in0.0 mm 0.00 in0.0 mm
09:55 AM 48.8°F9.3°C 39.1°F3.9°C 69% 18.4 mph E29.6 kmh E 29.0 mph46.7 kmh 29.90 in1012.5 mb 0.00 in0.0 mm 0.00 in0.0 mm 0.00 in0.0 mm
09:56 AM 48.7°F9.3°C 38.6°F3.7°C 68% 21.4 mph E34.4 kmh E 30.0 mph48.3 kmh 29.89 in1012.2 mb 0.00 in0.0 mm 0.00 in0.0 mm 0.00 in0.0 mm
09:57 AM 48.8°F9.3°C 38.7°F3.7°C 68% 20.5 mph E33.0 kmh E 30.0 mph48.3 kmh 29.89 in1012.2 mb 0.00 in0.0 mm 0.00 in0.0 mm 0.00 in0.0 mm
09:58 AM 48.8°F9.3°C 39.1°F3.9°C 69% 15.9 mph E25.6 kmh E 26.0 mph41.8 kmh 29.89 in1012.2 mb 0.00 in0.0 mm 0.00 in0.0 mm 0.00 in0.0 mm
09:59 AM 48.8°F9.3°C 38.7°F3.7°C 68% 18.7 mph E30.1 kmh E 24.0 mph38.6 kmh 29.89 in1012.2 mb 0.00 in0.0 mm 0.00 in0.0 mm 0.00 in0.0 mm
10:00 AM 48.8°F9.3°C 39.1°F3.9°C 69% 18.2 mph E29.3 kmh E 25.0 mph40.2 kmh 29.89 in1012.2 mb 0.00 in0.0 mm 0.00 in0.0 mm 0.00 in0.0 mm
10:01 AM 48.9°F9.4°C 38.8°F3.8°C 68% 21.8 mph E35.1 kmh E 29.0 mph46.7 kmh 29.89 in1012.2 mb 0.00 in0.0 mm 0.00 in0.0 mm 0.00 in0.0 mm
10:02 AM 48.9°F9.4°C 38.8°F3.8°C 68% 21.3 mph E34.3 kmh E 32.0 mph51.5 kmh 29.89 in1012.2 mb 0.00 in0.0 mm 0.00 in0.0 mm 0.00 in0.0 mm
10:03 AM 48.9°F9.4°C 38.8°F3.8°C 68% 21.1 mph E34.0 kmh E 32.0 mph51.5 kmh 29.89 in1012.2 mb 0.00 in0.0 mm 0.00 in0.0 mm 0.00 in0.0 mm
10:04 AM 48.9°F9.4°C 38.8°F3.8°C 68% 24.5 mph E39.4 kmh E 33.0 mph53.1 kmh 29.89 in1012.2 mb 0.00 in0.0 mm 0.00 in0.0 mm 0.00 in0.0 mm
10:05 AM 48.9°F9.4°C 38.8°F3.8°C 68% 21.8 mph E35.1 kmh E 33.0 mph53.1 kmh 29.89 in1012.2 mb 0.00 in0.0 mm 0.00 in0.0 mm 0.00 in0.0 mm
10:06 AM 48.8°F9.3°C 39.1°F3.9°C 69% 19.8 mph E31.9 kmh E 29.0 mph46.7 kmh 29.89 in1012.2 mb 0.00 in0.0 mm 0.00 in0.0 mm 0.00 in0.0 mm
10:07 AM 48.8°F9.3°C 38.7°F3.7°C 68% 15.6 mph E25.1 kmh E 29.0 mph46.7 kmh 29.89 in1012.2 mb 0.00 in0.0 mm 0.00 in0.0 mm 0.00 in0.0 mm
10:08 AM 48.8°F9.3°C 39.1°F3.9°C 69% 20.0 mph E32.2 kmh E 26.0 mph41.8 kmh 29.89 in1012.2 mb 0.00 in0.0 mm 0.00 in0.0 mm 0.00 in0.0 mm
10:09 AM 48.8°F9.3°C 38.7°F3.7°C 68% 20.4 mph E32.8 kmh E 26.0 mph41.8 kmh 29.89 in1012.2 mb 0.00 in0.0 mm 0.00 in0.0 mm 0.00 in0.0 mm
10:10 AM 48.7°F9.3°C 38.6°F3.7°C 68% 20.6 mph E33.2 kmh E 27.0 mph43.5 kmh 29.89 in1012.2 mb 0.00 in0.0 mm 0.00 in0.0 mm 0.00 in0.0 mm
10:11 AM 48.7°F9.3°C 38.6°F3.7°C 68% 15.5 mph E24.9 kmh E 27.0 mph43.5 kmh 29.89 in1012.2 mb 0.00 in0.0 mm 0.00 in0.0 mm 0.00 in0.0 mm
10:12 AM 48.7°F9.3°C 39.0°F3.9°C 69% 17.8 mph E28.6 kmh E 21.0 mph33.8 kmh 29.89 in1012.2 mb 0.00 in0.0 mm 0.00 in0.0 mm 0.00 in0.0 mm
10:13 AM 48.7°F9.3°C 39.0°F3.9°C 69% 13.5 mph E21.7 kmh E 21.0 mph33.8 kmh 29.89 in1012.2 mb 0.00 in0.0 mm 0.00 in0.0 mm 0.00 in0.0 mm
10:14 AM 48.7°F9.3°C 39.0°F3.9°C 69% 13.8 mph E22.2 kmh E 19.0 mph30.6 kmh 29.89 in1012.2 mb 0.00 in0.0 mm 0.00 in0.0 mm 0.00 in0.0 mm
10:15 AM 48.7°F9.3°C 39.0°F3.9°C 69% 14.9 mph E24.0 kmh E 19.0 mph30.6 kmh 29.89 in1012.2 mb 0.00 in0.0 mm 0.00 in0.0 mm 0.00 in0.0 mm
10:16 AM 48.7°F9.3°C 39.0°F3.9°C 69% 17.6 mph E28.3 kmh E 22.0 mph35.4 kmh 29.89 in1012.2 mb 0.00 in0.0 mm 0.00 in0.0 mm 0.00 in0.0 mm
10:17 AM 48.8°F9.3°C 39.1°F3.9°C 69% 16.0 mph E25.7 kmh E 22.0 mph35.4 kmh 29.89 in1012.2 mb 0.00 in0.0 mm 0.00 in0.0 mm 0.00 in0.0 mm
10:18 AM 48.7°F9.3°C 39.0°F3.9°C 69% 21.6 mph E34.8 kmh E 28.0 mph45.1 kmh 29.89 in1012.2 mb 0.00 in0.0 mm 0.00 in0.0 mm 0.00 in0.0 mm
10:19 AM 48.6°F9.2°C 38.9°F3.8°C 69% 21.7 mph E34.9 kmh E 28.0 mph45.1 kmh 29.89 in1012.2 mb 0.00 in0.0 mm 0.00 in0.0 mm 0.00 in0.0 mm
10:20 AM 48.5°F9.2°C 39.2°F4.0°C 70% 22.0 mph E35.4 kmh E 26.0 mph41.8 kmh 29.89 in1012.2 mb 0.00 in0.0 mm 0.00 in0.0 mm 0.00 in0.0 mm
10:21 AM 48.3°F9.1°C 39.0°F3.9°C 70% 20.6 mph E33.2 kmh E 28.0 mph45.1 kmh 29.89 in1012.2 mb 0.00 in0.0 mm 0.00 in0.0 mm 0.00 in0.0 mm
10:22 AM 48.3°F9.1°C 39.3°F4.1°C 71% 17.0 mph E27.4 kmh E 28.0 mph45.1 kmh 29.89 in1012.2 mb 0.00 in0.0 mm 0.00 in0.0 mm 0.00 in0.0 mm
10:23 AM 48.3°F9.1°C 39.3°F4.1°C 71% 16.8 mph E27.0 kmh E 23.0 mph37.0 kmh 29.89 in1012.2 mb 0.00 in0.0 mm 0.00 in0.0 mm 0.00 in0.0 mm
10:24 AM 48.3°F9.1°C 39.3°F4.1°C 71% 18.0 mph E29.0 kmh E 24.0 mph38.6 kmh 29.89 in1012.2 mb 0.00 in0.0 mm 0.00 in0.0 mm 0.00 in0.0 mm
10:25 AM 48.3°F9.1°C 39.3°F4.1°C 71% 18.1 mph E29.1 kmh E 26.0 mph41.8 kmh 29.89 in1012.2 mb 0.00 in0.0 mm 0.00 in0.0 mm 0.00 in0.0 mm
10:26 AM 48.4°F9.1°C 39.4°F4.1°C 71% 16.0 mph E25.7 kmh E 26.0 mph41.8 kmh 29.89 in1012.2 mb 0.00 in0.0 mm 0.00 in0.0 mm 0.00 in0.0 mm
10:27 AM 48.5°F9.2°C 39.5°F4.2°C 71% 12.0 mph E19.3 kmh E 21.0 mph33.8 kmh 29.89 in1012.2 mb 0.00 in0.0 mm 0.00 in0.0 mm 0.00 in0.0 mm
10:28 AM 48.6°F9.2°C 40.0°F4.4°C 72% 17.2 mph E27.7 kmh E 25.0 mph40.2 kmh 29.89 in1012.2 mb 0.00 in0.0 mm 0.00 in0.0 mm 0.00 in0.0 mm
10:29 AM 48.7°F9.3°C 39.7°F4.3°C 71% 19.1 mph E30.7 kmh E 29.0 mph46.7 kmh 29.89 in1012.2 mb 0.00 in0.0 mm 0.00 in0.0 mm 0.00 in0.0 mm
10:30 AM 48.8°F9.3°C 39.5°F4.2°C 70% 19.5 mph E31.4 kmh E 29.0 mph46.7 kmh 29.89 in1012.2 mb 0.00 in0.0 mm 0.00 in0.0 mm 0.00 in0.0 mm
10:31 AM 48.9°F9.4°C 39.9°F4.4°C 71% 13.6 mph E21.9 kmh E 27.0 mph43.5 kmh 29.89 in1012.2 mb 0.00 in0.0 mm 0.00 in0.0 mm 0.00 in0.0 mm
10:32 AM 49.1°F9.5°C 40.1°F4.5°C 71% 20.9 mph E33.6 kmh E 28.0 mph45.1 kmh 29.89 in1012.2 mb 0.00 in0.0 mm 0.00 in0.0 mm 0.00 in0.0 mm
10:33 AM 49.1°F9.5°C 39.7°F4.3°C 70% 20.4 mph E32.8 kmh E 28.0 mph45.1 kmh 29.89 in1012.2 mb 0.00 in0.0 mm 0.00 in0.0 mm 0.00 in0.0 mm
10:34 AM 49.1°F9.5°C 39.7°F4.3°C 70% 18.9 mph E30.4 kmh E 27.0 mph43.5 kmh 29.89 in1012.2 mb 0.00 in0.0 mm 0.00 in0.0 mm 0.00 in0.0 mm
10:35 AM 49.1°F9.5°C 39.7°F4.3°C 70% 19.9 mph E32.0 kmh E 26.0 mph41.8 kmh 29.88 in1011.9 mb 0.00 in0.0 mm 0.00 in0.0 mm 0.00 in0.0 mm
10:36 AM 49.1°F9.5°C 39.7°F4.3°C 70% 18.4 mph E29.6 kmh E 26.0 mph41.8 kmh 29.88 in1011.9 mb 0.00 in0.0 mm 0.00 in0.0 mm 0.00 in0.0 mm
10:37 AM 49.1°F9.5°C 39.7°F4.3°C 70% 20.8 mph E33.5 kmh E 29.0 mph46.7 kmh 29.88 in1011.9 mb 0.00 in0.0 mm 0.00 in0.0 mm 0.00 in0.0 mm
10:38 AM 49.0°F9.4°C 39.6°F4.2°C 70% 19.4 mph E31.2 kmh E 29.0 mph46.7 kmh 29.88 in1011.9 mb 0.00 in0.0 mm 0.00 in0.0 mm 0.00 in0.0 mm
10:39 AM 49.1°F9.5°C 40.1°F4.5°C 71% 16.1 mph E25.9 kmh E 24.0 mph38.6 kmh 29.88 in1011.9 mb 0.00 in0.0 mm 0.00 in0.0 mm 0.00 in0.0 mm
10:40 AM 49.2°F9.6°C 40.2°F4.6°C 71% 17.7 mph E28.5 kmh E 24.0 mph38.6 kmh 29.88 in1011.9 mb 0.00 in0.0 mm 0.00 in0.0 mm 0.00 in0.0 mm
10:41 AM 49.2°F9.6°C 39.8°F4.3°C 70% 23.0 mph E37.0 kmh E 29.0 mph46.7 kmh 29.88 in1011.9 mb 0.00 in0.0 mm 0.00 in0.0 mm 0.00 in0.0 mm
10:42 AM 49.3°F9.6°C 40.3°F4.6°C 71% 15.1 mph E24.3 kmh E 29.0 mph46.7 kmh 29.88 in1011.9 mb 0.00 in0.0 mm 0.00 in0.0 mm 0.00 in0.0 mm
10:43 AM 49.3°F9.6°C 39.9°F4.4°C 70% 14.8 mph E23.8 kmh E 26.0 mph41.8 kmh 29.88 in1011.9 mb 0.00 in0.0 mm 0.00 in0.0 mm 0.00 in0.0 mm
10:44 AM 49.4°F9.7°C 40.4°F4.7°C 71% 16.2 mph E26.1 kmh E 23.0 mph37.0 kmh 29.88 in1011.9 mb 0.00 in0.0 mm 0.00 in0.0 mm 0.00 in0.0 mm
10:45 AM 49.4°F9.7°C 40.4°F4.7°C 71% 13.9 mph E22.4 kmh E 21.0 mph33.8 kmh 29.88 in1011.9 mb 0.00 in0.0 mm 0.00 in0.0 mm 0.00 in0.0 mm
10:46 AM 49.5°F9.7°C 40.1°F4.5°C 70% 20.7 mph E33.3 kmh E 27.0 mph43.5 kmh 29.89 in1012.2 mb 0.00 in0.0 mm 0.00 in0.0 mm 0.00 in0.0 mm
10:47 AM 49.6°F9.8°C 40.2°F4.6°C 70% 16.9 mph E27.2 kmh E 27.0 mph43.5 kmh 29.88 in1011.9 mb 0.00 in0.0 mm 0.00 in0.0 mm 0.00 in0.0 mm
10:48 AM 49.6°F9.8°C 40.2°F4.6°C 70% 15.0 mph E24.1 kmh E 24.0 mph38.6 kmh 29.88 in1011.9 mb 0.00 in0.0 mm 0.00 in0.0 mm 0.00 in0.0 mm
10:49 AM 49.7°F9.8°C 40.3°F4.6°C 70% 12.5 mph E20.1 kmh E 19.0 mph30.6 kmh 29.88 in1011.9 mb 0.00 in0.0 mm 0.00 in0.0 mm 0.00 in0.0 mm
10:50 AM 49.7°F9.8°C 40.3°F4.6°C 70% 15.4 mph E24.8 kmh E 24.0 mph38.6 kmh 29.88 in1011.9 mb 0.00 in0.0 mm 0.00 in0.0 mm 0.00 in0.0 mm
10:51 AM 49.7°F9.8°C 40.3°F4.6°C 70% 21.6 mph E34.8 kmh E 28.0 mph45.1 kmh 29.88 in1011.9 mb 0.00 in0.0 mm 0.00 in0.0 mm 0.00 in0.0 mm
10:52 AM 49.7°F9.8°C 40.3°F4.6°C 70% 20.5 mph E33.0 kmh E 28.0 mph45.1 kmh 29.88 in1011.9 mb 0.00 in0.0 mm 0.00 in0.0 mm 0.00 in0.0 mm
10:53 AM 49.6°F9.8°C 40.2°F4.6°C 70% 22.6 mph E36.4 kmh E 30.0 mph48.3 kmh 29.88 in1011.9 mb 0.00 in0.0 mm 0.00 in0.0 mm 0.00 in0.0 mm
10:54 AM 49.6°F9.8°C 40.2°F4.6°C 70% 22.3 mph E35.9 kmh E 30.0 mph48.3 kmh 29.88 in1011.9 mb 0.00 in0.0 mm 0.00 in0.0 mm 0.00 in0.0 mm
10:55 AM 49.6°F9.8°C 40.2°F4.6°C 70% 19.7 mph E31.7 kmh E 27.0 mph43.5 kmh 29.88 in1011.9 mb 0.00 in0.0 mm 0.00 in0.0 mm 0.00 in0.0 mm
10:56 AM 49.7°F9.8°C 40.3°F4.6°C 70% 15.2 mph E24.5 kmh E 27.0 mph43.5 kmh 29.88 in1011.9 mb 0.00 in0.0 mm 0.00 in0.0 mm 0.00 in0.0 mm
10:57 AM 49.8°F9.9°C 40.4°F4.7°C 70% 15.9 mph E25.6 kmh E 22.0 mph35.4 kmh 29.89 in1012.2 mb 0.00 in0.0 mm 0.00 in0.0 mm 0.00 in0.0 mm
10:58 AM 49.9°F9.9°C 40.5°F4.7°C 70% 17.6 mph E28.3 kmh E 27.0 mph43.5 kmh 29.89 in1012.2 mb 0.00 in0.0 mm 0.00 in0.0 mm 0.00 in0.0 mm
10:59 AM 49.9°F9.9°C 40.5°F4.7°C 70% 18.6 mph E29.9 kmh E 27.0 mph43.5 kmh 29.89 in1012.2 mb 0.00 in0.0 mm 0.00 in0.0 mm 0.00 in0.0 mm
11:00 AM 50.1°F10.1°C 40.7°F4.8°C 70% 20.3 mph E32.7 kmh E 27.0 mph43.5 kmh 29.88 in1011.9 mb 0.00 in0.0 mm 0.00 in0.0 mm 0.00 in0.0 mm
11:01 AM 50.1°F10.1°C 40.7°F4.8°C 70% 19.3 mph E31.1 kmh E 29.0 mph46.7 kmh 29.88 in1011.9 mb 0.00 in0.0 mm 0.00 in0.0 mm 0.00 in0.0 mm
11:02 AM 50.1°F10.1°C 40.7°F4.8°C 70% 16.7 mph E26.9 kmh E 29.0 mph46.7 kmh 29.88 in1011.9 mb 0.00 in0.0 mm 0.00 in0.0 mm 0.00 in0.0 mm
11:03 AM 50.3°F10.2°C 40.9°F4.9°C 70% 15.0 mph E24.1 kmh E 20.0 mph32.2 kmh 29.88 in1011.9 mb 0.00 in0.0 mm 0.00 in0.0 mm 0.00 in0.0 mm
11:04 AM 50.5°F10.3°C 41.1°F5.1°C 70% 15.0 mph ENE24.1 kmh ENE 20.0 mph32.2 kmh 29.88 in1011.9 mb 0.00 in0.0 mm 0.00 in0.0 mm 0.00 in0.0 mm
11:05 AM 50.6°F10.3°C 41.2°F5.1°C 70% 15.8 mph E25.4 kmh E 19.0 mph30.6 kmh 29.88 in1011.9 mb 0.00 in0.0 mm 0.00 in0.0 mm 0.00 in0.0 mm
11:06 AM 50.6°F10.3°C 40.8°F4.9°C 69% 18.2 mph E29.3 kmh E 22.0 mph35.4 kmh 29.88 in1011.9 mb 0.00 in0.0 mm 0.00 in0.0 mm 0.00 in0.0 mm
11:07 AM 50.7°F10.4°C 40.9°F4.9°C 69% 15.9 mph E25.6 kmh E 22.0 mph35.4 kmh 29.88 in1011.9 mb 0.00 in0.0 mm 0.00 in0.0 mm 0.00 in0.0 mm
11:08 AM 50.8°F10.4°C 41.4°F5.2°C 70% 13.2 mph E21.2 kmh E 24.0 mph38.6 kmh 29.88 in1011.9 mb 0.00 in0.0 mm 0.00 in0.0 mm 0.00 in0.0 mm
11:09 AM 50.8°F10.4°C 41.0°F5.0°C 69% 20.3 mph E32.7 kmh E 26.0 mph41.8 kmh 29.88 in1011.9 mb 0.00 in0.0 mm 0.00 in0.0 mm 0.00 in0.0 mm
11:10 AM 50.7°F10.4°C 40.9°F4.9°C 69% 15.0 mph E24.1 kmh E 26.0 mph41.8 kmh 29.88 in1011.9 mb 0.00 in0.0 mm 0.00 in0.0 mm 0.00 in0.0 mm
11:11 AM 50.8°F10.4°C 41.0°F5.0°C 69% 16.3 mph E26.2 kmh E 21.0 mph33.8 kmh 29.88 in1011.9 mb 0.00 in0.0 mm 0.00 in0.0 mm 0.00 in0.0 mm
11:12 AM 50.7°F10.4°C 40.9°F4.9°C 69% 15.5 mph E24.9 kmh E 20.0 mph32.2 kmh 29.88 in1011.9 mb 0.00 in0.0 mm 0.00 in0.0 mm 0.00 in0.0 mm
11:13 AM 50.8°F10.4°C 41.0°F5.0°C 69% 16.9 mph E27.2 kmh E 25.0 mph40.2 kmh 29.88 in1011.9 mb 0.00 in0.0 mm 0.00 in0.0 mm 0.00 in0.0 mm
11:14 AM 50.7°F10.4°C 40.9°F4.9°C 69% 20.4 mph E32.8 kmh E 28.0 mph45.1 kmh 29.88 in1011.9 mb 0.00 in0.0 mm 0.00 in0.0 mm 0.00 in0.0 mm
11:15 AM 50.6°F10.3°C 40.8°F4.9°C 69% 22.3 mph E35.9 kmh E 29.0 mph46.7 kmh 29.88 in1011.9 mb 0.00 in0.0 mm 0.00 in0.0 mm 0.00 in0.0 mm
11:16 AM 50.5°F10.3°C 40.7°F4.8°C 69% 18.0 mph E29.0 kmh E 29.0 mph46.7 kmh 29.88 in1011.9 mb 0.00 in0.0 mm 0.00 in0.0 mm 0.00 in0.0 mm
11:17 AM 50.5°F10.3°C 41.1°F5.1°C 70% 13.8 mph E22.2 kmh E 23.0 mph37.0 kmh 29.88 in1011.9 mb 0.00 in0.0 mm 0.00 in0.0 mm 0.00 in0.0 mm
11:18 AM 50.6°F10.3°C 41.2°F5.1°C 70% 16.3 mph E26.2 kmh E 29.0 mph46.7 kmh 29.88 in1011.9 mb 0.00 in0.0 mm 0.00 in0.0 mm 0.00 in0.0 mm
11:19 AM 50.5°F10.3°C 40.7°F4.8°C 69% 18.6 mph E29.9 kmh E 29.0 mph46.7 kmh 29.88 in1011.9 mb 0.00 in0.0 mm 0.00 in0.0 mm 0.00 in0.0 mm
11:20 AM 50.6°F10.3°C 40.8°F4.9°C 69% 20.5 mph E33.0 kmh E 26.0 mph41.8 kmh 29.88 in1011.9 mb 0.00 in0.0 mm 0.00 in0.0 mm 0.00 in0.0 mm
11:21 AM 50.6°F10.3°C 40.8°F4.9°C 69% 19.0 mph E30.6 kmh E 25.0 mph40.2 kmh 29.88 in1011.9 mb 0.00 in0.0 mm 0.00 in0.0 mm 0.00 in0.0 mm
11:22 AM 50.6°F10.3°C 40.8°F4.9°C 69% 22.1 mph E35.6 kmh E 27.0 mph43.5 kmh 29.88 in1011.9 mb 0.00 in0.0 mm 0.00 in0.0 mm 0.00 in0.0 mm
11:23 AM 50.6°F10.3°C 41.2°F5.1°C 70% 18.4 mph E29.6 kmh E 27.0 mph43.5 kmh 29.88 in1011.9 mb 0.00 in0.0 mm 0.00 in0.0 mm 0.00 in0.0 mm
11:24 AM 50.6°F10.3°C 41.2°F5.1°C 70% 22.3 mph E35.9 kmh E 28.0 mph45.1 kmh 29.88 in1011.9 mb 0.00 in0.0 mm 0.00 in0.0 mm 0.00 in0.0 mm
11:25 AM 50.7°F10.4°C 40.9°F4.9°C 69% 21.1 mph E34.0 kmh E 30.0 mph48.3 kmh 29.88 in1011.9 mb 0.00 in0.0 mm 0.00 in0.0 mm 0.00 in0.0 mm
11:26 AM 50.8°F10.4°C 41.4°F5.2°C 70% 22.0 mph E35.4 kmh E 30.0 mph48.3 kmh 29.88 in1011.9 mb 0.00 in0.0 mm 0.00 in0.0 mm 0.00 in0.0 mm
11:27 AM 50.9°F10.5°C 41.1°F5.1°C 69% 15.9 mph E25.6 kmh E 27.0 mph43.5 kmh 29.88 in1011.9 mb 0.00 in0.0 mm 0.00 in0.0 mm 0.00 in0.0 mm
11:28 AM 51.1°F10.6°C 41.7°F5.4°C 70% 14.7 mph E23.7 kmh E 24.0 mph38.6 kmh 29.88 in1011.9 mb 0.00 in0.0 mm 0.00 in0.0 mm 0.00 in0.0 mm
11:29 AM 51.3°F10.7°C 41.9°F5.5°C 70% 13.1 mph E21.1 kmh E 19.0 mph30.6 kmh 29.88 in1011.9 mb 0.00 in0.0 mm 0.00 in0.0 mm 0.00 in0.0 mm
11:30 AM 51.5°F10.8°C 42.0°F5.6°C 70% 18.2 mph E29.3 kmh E 26.0 mph41.8 kmh 29.88 in1011.9 mb 0.00 in0.0 mm 0.00 in0.0 mm 0.00 in0.0 mm
11:31 AM 51.5°F10.8°C 41.3°F5.2°C 68% 20.6 mph E33.2 kmh E 27.0 mph43.5 kmh 29.88 in1011.9 mb 0.00 in0.0 mm 0.00 in0.0 mm 0.00 in0.0 mm
11:32 AM 51.5°F10.8°C 41.7°F5.4°C 69% 18.4 mph E29.6 kmh E 27.0 mph43.5 kmh 29.88 in1011.9 mb 0.00 in0.0 mm 0.00 in0.0 mm 0.00 in0.0 mm
11:33 AM 51.6°F10.9°C 41.4°F5.2°C 68% 17.1 mph E27.5 kmh E 23.0 mph37.0 kmh 29.88 in1011.9 mb 0.00 in0.0 mm 0.00 in0.0 mm 0.00 in0.0 mm
11:34 AM 51.6°F10.9°C 41.8°F5.4°C 69% 15.8 mph E25.4 kmh E 22.0 mph35.4 kmh 29.88 in1011.9 mb 0.00 in0.0 mm 0.00 in0.0 mm 0.00 in0.0 mm
11:35 AM 51.8°F11.0°C 42.0°F5.6°C 69% 17.4 mph E28.0 kmh E 21.0 mph33.8 kmh 29.88 in1011.9 mb 0.00 in0.0 mm 0.00 in0.0 mm 0.00 in0.0 mm
11:36 AM 51.9°F11.1°C 42.1°F5.6°C 69% 13.7 mph E22.0 kmh E 20.0 mph32.2 kmh 29.88 in1011.9 mb 0.00 in0.0 mm 0.00 in0.0 mm 0.00 in0.0 mm
11:37 AM 52.1°F11.2°C 42.2°F5.7°C 69% 18.0 mph E29.0 kmh E 24.0 mph38.6 kmh 29.88 in1011.9 mb 0.00 in0.0 mm 0.00 in0.0 mm 0.00 in0.0 mm
11:38 AM 52.1°F11.2°C 41.9°F5.5°C 68% 19.0 mph E30.6 kmh E 25.0 mph40.2 kmh 29.88 in1011.9 mb 0.00 in0.0 mm 0.00 in0.0 mm 0.00 in0.0 mm
11:39 AM 52.1°F11.2°C 41.9°F5.5°C 68% 20.0 mph E32.2 kmh E 26.0 mph41.8 kmh 29.88 in1011.9 mb 0.00 in0.0 mm 0.00 in0.0 mm 0.00 in0.0 mm
11:40 AM 52.1°F11.2°C 41.9°F5.5°C 68% 21.0 mph E33.8 kmh E 27.0 mph43.5 kmh 29.88 in1011.9 mb 0.00 in0.0 mm 0.00 in0.0 mm 0.00 in0.0 mm
11:41 AM 52.1°F11.2°C 41.9°F5.5°C 68% 23.2 mph E37.3 kmh E 30.0 mph48.3 kmh 29.88 in1011.9 mb 0.00 in0.0 mm 0.00 in0.0 mm 0.00 in0.0 mm
11:42 AM 52.0°F11.1°C 41.8°F5.4°C 68% 21.0 mph E33.8 kmh E 30.0 mph48.3 kmh 29.88 in1011.9 mb 0.00 in0.0 mm 0.00 in0.0 mm 0.00 in0.0 mm
11:43 AM 52.1°F11.2°C 41.9°F5.5°C 68% 18.8 mph E30.3 kmh E 28.0 mph45.1 kmh 29.88 in1011.9 mb 0.00 in0.0 mm 0.00 in0.0 mm 0.00 in0.0 mm
11:44 AM 52.0°F11.1°C 41.8°F5.4°C 68% 18.6 mph E29.9 kmh E 26.0 mph41.8 kmh 29.88 in1011.9 mb 0.00 in0.0 mm 0.00 in0.0 mm 0.00 in0.0 mm
11:45 AM 52.0°F11.1°C 42.1°F5.6°C 69% 19.0 mph ENE30.6 kmh ENE 24.0 mph38.6 kmh 29.88 in1011.9 mb 0.00 in0.0 mm 0.00 in0.0 mm 0.00 in0.0 mm
11:46 AM 52.1°F11.2°C 41.9°F5.5°C 68% 20.0 mph E32.2 kmh E 24.0 mph38.6 kmh 29.88 in1011.9 mb 0.00 in0.0 mm 0.00 in0.0 mm 0.00 in0.0 mm
11:47 AM 52.0°F11.1°C 41.8°F5.4°C 68% 19.2 mph E30.9 kmh E 24.0 mph38.6 kmh 29.88 in1011.9 mb 0.00 in0.0 mm 0.00 in0.0 mm 0.00 in0.0 mm
11:48 AM 52.1°F11.2°C 42.2°F5.7°C 69% 20.6 mph E33.2 kmh E 27.0 mph43.5 kmh 29.88 in1011.9 mb 0.00 in0.0 mm 0.00 in0.0 mm 0.00 in0.0 mm
11:49 AM 52.1°F11.2°C 42.2°F5.7°C 69% 21.0 mph E33.8 kmh E 27.0 mph43.5 kmh 29.88 in1011.9 mb 0.00 in0.0 mm 0.00 in0.0 mm 0.00 in0.0 mm
11:50 AM 52.2°F11.2°C 42.3°F5.7°C 69% 17.5 mph E28.2 kmh E 25.0 mph40.2 kmh 29.88 in1011.9 mb 0.00 in0.0 mm 0.00 in0.0 mm 0.00 in0.0 mm
11:51 AM 52.2°F11.2°C 42.3°F5.7°C 69% 12.5 mph E20.1 kmh E 21.0 mph33.8 kmh 29.88 in1011.9 mb 0.00 in0.0 mm 0.00 in0.0 mm 0.00 in0.0 mm
11:52 AM 52.2°F11.2°C 42.3°F5.7°C 69% 14.4 mph E23.2 kmh E 18.0 mph29.0 kmh 29.88 in1011.9 mb 0.00 in0.0 mm 0.00 in0.0 mm 0.00 in0.0 mm
11:53 AM 52.3°F11.3°C 42.4°F5.8°C 69% 13.6 mph E21.9 kmh E 20.0 mph32.2 kmh 29.88 in1011.9 mb 0.00 in0.0 mm 0.00 in0.0 mm 0.00 in0.0 mm
11:54 AM 52.3°F11.3°C 42.1°F5.6°C 68% 16.6 mph E26.7 kmh E 20.0 mph32.2 kmh 29.88 in1011.9 mb 0.00 in0.0 mm 0.00 in0.0 mm 0.00 in0.0 mm
11:55 AM 52.4°F11.3°C 42.2°F5.7°C 68% 21.4 mph E34.4 kmh E 28.0 mph45.1 kmh 29.88 in1011.9 mb 0.00 in0.0 mm 0.00 in0.0 mm 0.00 in0.0 mm
11:56 AM 52.4°F11.3°C 42.2°F5.7°C 68% 19.3 mph E31.1 kmh E 29.0 mph46.7 kmh 29.88 in1011.9 mb 0.00 in0.0 mm 0.00 in0.0 mm 0.00 in0.0 mm
11:57 AM 52.5°F11.4°C 42.2°F5.7°C 68% 20.7 mph E33.3 kmh E 29.0 mph46.7 kmh 29.88 in1011.9 mb 0.00 in0.0 mm 0.00 in0.0 mm 0.00 in0.0 mm
11:58 AM 52.5°F11.4°C 42.2°F5.7°C 68% 20.1 mph E32.3 kmh E 29.0 mph46.7 kmh 29.88 in1011.9 mb 0.00 in0.0 mm 0.00 in0.0 mm 0.00 in0.0 mm
11:59 AM 52.6°F11.4°C 42.3°F5.7°C 68% 13.3 mph E21.4 kmh E 27.0 mph43.5 kmh 29.88 in1011.9 mb 0.00 in0.0 mm 0.00 in0.0 mm 0.00 in0.0 mm
12:00 PM 52.7°F11.5°C 42.4°F5.8°C 68% 17.5 mph E28.2 kmh E 27.0 mph43.5 kmh 29.88 in1011.9 mb 0.00 in0.0 mm 0.00 in0.0 mm 0.00 in0.0 mm
12:01 PM 52.8°F11.6°C 42.5°F5.8°C 68% 16.5 mph E26.6 kmh E 27.0 mph43.5 kmh 29.88 in1011.9 mb 0.00 in0.0 mm 0.00 in0.0 mm 0.00 in0.0 mm
12:02 PM 52.8°F11.6°C 42.5°F5.8°C 68% 19.9 mph E32.0 kmh E 29.0 mph46.7 kmh 29.88 in1011.9 mb 0.00 in0.0 mm 0.00 in0.0 mm 0.00 in0.0 mm
12:03 PM 52.8°F11.6°C 42.5°F5.8°C 68% 18.4 mph E29.6 kmh E 29.0 mph46.7 kmh 29.88 in1011.9 mb 0.00 in0.0 mm 0.00 in0.0 mm 0.00 in0.0 mm
12:04 PM 52.8°F11.6°C 42.5°F5.8°C 68% 17.7 mph E28.5 kmh E 25.0 mph40.2 kmh 29.88 in1011.9 mb 0.00 in0.0 mm 0.00 in0.0 mm 0.00 in0.0 mm
12:05 PM 52.7°F11.5°C 42.4°F5.8°C 68% 23.1 mph E37.2 kmh E 30.0 mph48.3 kmh 29.88 in1011.9 mb 0.00 in0.0 mm 0.00 in0.0 mm 0.00 in0.0 mm
12:06 PM 52.6°F11.4°C 42.3°F5.7°C 68% 19.3 mph E31.1 kmh E 30.0 mph48.3 kmh 29.88 in1011.9 mb 0.00 in0.0 mm 0.00 in0.0 mm 0.00 in0.0 mm
12:07 PM 52.6°F11.4°C 42.3°F5.7°C 68% 23.7 mph E38.1 kmh E 30.0 mph48.3 kmh 29.88 in1011.9 mb 0.00 in0.0 mm 0.00 in0.0 mm 0.00 in0.0 mm
12:08 PM 52.6°F11.4°C 42.3°F5.7°C 68% 19.0 mph E30.6 kmh E 29.0 mph46.7 kmh 29.87 in1011.5 mb 0.00 in0.0 mm 0.00 in0.0 mm 0.00 in0.0 mm
12:09 PM 52.6°F11.4°C 42.7°F5.9°C 69% 16.0 mph E25.7 kmh E 24.0 mph38.6 kmh 29.88 in1011.9 mb 0.00 in0.0 mm 0.00 in0.0 mm 0.00 in0.0 mm
12:10 PM 52.8°F11.6°C 42.9°F6.1°C 69% 18.7 mph E30.1 kmh E 27.0 mph43.5 kmh 29.88 in1011.9 mb 0.00 in0.0 mm 0.00 in0.0 mm 0.00 in0.0 mm
12:11 PM 52.9°F11.6°C 42.6°F5.9°C 68% 23.5 mph E37.8 kmh E 28.0 mph45.1 kmh 29.88 in1011.9 mb 0.00 in0.0 mm 0.00 in0.0 mm 0.00 in0.0 mm
12:12 PM 53.0°F11.7°C 42.7°F5.9°C 68% 16.4 mph E26.4 kmh E 28.0 mph45.1 kmh 29.88 in1011.9 mb 0.00 in0.0 mm 0.00 in0.0 mm 0.00 in0.0 mm
12:13 PM 53.1°F11.7°C 42.8°F6.0°C 68% 19.5 mph E31.4 kmh E 26.0 mph41.8 kmh 29.88 in1011.9 mb 0.00 in0.0 mm 0.00 in0.0 mm 0.00 in0.0 mm
12:14 PM 53.1°F11.7°C 42.8°F6.0°C 68% 16.1 mph E25.9 kmh E 25.0 mph40.2 kmh 29.87 in1011.5 mb 0.00 in0.0 mm 0.00 in0.0 mm 0.00 in0.0 mm
12:15 PM 53.3°F11.8°C 43.0°F6.1°C 68% 13.9 mph E22.4 kmh E 21.0 mph33.8 kmh 29.88 in1011.9 mb 0.00 in0.0 mm 0.00 in0.0 mm 0.00 in0.0 mm
12:16 PM 53.5°F11.9°C 43.2°F6.2°C 68% 13.5 mph E21.7 kmh E 18.0 mph29.0 kmh 29.88 in1011.9 mb 0.00 in0.0 mm 0.00 in0.0 mm 0.00 in0.0 mm
12:17 PM 53.7°F12.1°C 43.4°F6.3°C 68% 16.0 mph E25.7 kmh E 25.0 mph40.2 kmh 29.88 in1011.9 mb 0.00 in0.0 mm 0.00 in0.0 mm 0.00 in0.0 mm
12:18 PM 53.7°F12.1°C 43.0°F6.1°C 67% 16.0 mph E25.7 kmh E 20.0 mph32.2 kmh 29.88 in1011.9 mb 0.00 in0.0 mm 0.00 in0.0 mm 0.00 in0.0 mm
12:19 PM 53.7°F12.1°C 43.0°F6.1°C 67% 21.0 mph E33.8 kmh E 27.0 mph43.5 kmh 29.88 in1011.9 mb 0.00 in0.0 mm 0.00 in0.0 mm 0.00 in0.0 mm
12:20 PM 53.6°F12.0°C 42.9°F6.1°C 67% 18.0 mph E29.0 kmh E 24.0 mph38.6 kmh 29.88 in1011.9 mb 0.00 in0.0 mm 0.00 in0.0 mm 0.00 in0.0 mm
12:21 PM 53.5°F11.9°C 42.8°F6.0°C 67% 18.7 mph E30.1 kmh E 25.0 mph40.2 kmh 29.87 in1011.5 mb 0.00 in0.0 mm 0.00 in0.0 mm 0.00 in0.0 mm
12:22 PM 53.5°F11.9°C 43.2°F6.2°C 68% 16.6 mph E26.7 kmh E 25.0 mph40.2 kmh 29.88 in1011.9 mb 0.00 in0.0 mm 0.00 in0.0 mm 0.00 in0.0 mm
12:23 PM 53.6°F12.0°C 43.3°F6.3°C 68% 14.0 mph E22.5 kmh E 23.0 mph37.0 kmh 29.88 in1011.9 mb 0.00 in0.0 mm 0.00 in0.0 mm 0.00 in0.0 mm
12:24 PM 53.7°F12.1°C 43.4°F6.3°C 68% 16.0 mph E25.7 kmh E 21.0 mph33.8 kmh 29.88 in1011.9 mb 0.00 in0.0 mm 0.00 in0.0 mm 0.00 in0.0 mm
12:25 PM 53.7°F12.1°C 43.0°F6.1°C 67% 16.2 mph ESE26.1 kmh ESE 22.0 mph35.4 kmh 29.88 in1011.9 mb 0.00 in0.0 mm 0.00 in0.0 mm 0.00 in0.0 mm
12:26 PM 53.6°F12.0°C 42.9°F6.1°C 67% 20.7 mph E33.3 kmh E 24.0 mph38.6 kmh 29.88 in1011.9 mb 0.00 in0.0 mm 0.00 in0.0 mm 0.00 in0.0 mm
12:27 PM 53.6°F12.0°C 42.9°F6.1°C 67% 19.2 mph E30.9 kmh E 24.0 mph38.6 kmh 29.88 in1011.9 mb 0.00 in0.0 mm 0.00 in0.0 mm 0.00 in0.0 mm
12:28 PM 53.6°F12.0°C 42.9°F6.1°C 67% 15.6 mph E25.1 kmh E 23.0 mph37.0 kmh 29.88 in1011.9 mb 0.00 in0.0 mm 0.00 in0.0 mm 0.00 in0.0 mm
12:29 PM 53.6°F12.0°C 42.9°F6.1°C 67% 14.5 mph E23.3 kmh E 20.0 mph32.2 kmh 29.88 in1011.9 mb 0.00 in0.0 mm 0.00 in0.0 mm 0.00 in0.0 mm
12:30 PM 53.7°F12.1°C 43.4°F6.3°C 68% 13.4 mph E21.6 kmh E 19.0 mph30.6 kmh 29.88 in1011.9 mb 0.00 in0.0 mm 0.00 in0.0 mm 0.00 in0.0 mm
12:31 PM 53.9°F12.2°C 43.2°F6.2°C 67% 17.3 mph E27.8 kmh E 27.0 mph43.5 kmh 29.87 in1011.5 mb 0.00 in0.0 mm 0.00 in0.0 mm 0.00 in0.0 mm
12:32 PM 53.9°F12.2°C 43.2°F6.2°C 67% 18.0 mph E29.0 kmh E 25.0 mph40.2 kmh 29.88 in1011.9 mb 0.00 in0.0 mm 0.00 in0.0 mm 0.00 in0.0 mm
12:33 PM 53.9°F12.2°C 43.2°F6.2°C 67% 19.0 mph ESE30.6 kmh ESE 23.0 mph37.0 kmh 29.87 in1011.5 mb 0.00 in0.0 mm 0.00 in0.0 mm 0.00 in0.0 mm
12:34 PM 54.0°F12.2°C 43.3°F6.3°C 67% 13.0 mph E20.9 kmh E 14.0 mph22.5 kmh 29.88 in1011.9 mb 0.00 in0.0 mm 0.00 in0.0 mm 0.00 in0.0 mm
12:35 PM 54.1°F12.3°C 43.4°F6.3°C 67% 14.1 mph E22.7 kmh E 24.0 mph38.6 kmh 29.88 in1011.9 mb 0.00 in0.0 mm 0.00 in0.0 mm 0.00 in0.0 mm
12:36 PM 54.1°F12.3°C 43.4°F6.3°C 67% 16.9 mph E27.2 kmh E 24.0 mph38.6 kmh 29.88 in1011.9 mb 0.00 in0.0 mm 0.00 in0.0 mm 0.00 in0.0 mm
12:37 PM 54.1°F12.3°C 43.4°F6.3°C 67% 17.4 mph E28.0 kmh E 24.0 mph38.6 kmh 29.88 in1011.9 mb 0.00 in0.0 mm 0.00 in0.0 mm 0.00 in0.0 mm
12:38 PM 54.1°F12.3°C 43.4°F6.3°C 67% 19.6 mph E31.5 kmh E 27.0 mph43.5 kmh 29.88 in1011.9 mb 0.00 in0.0 mm 0.00 in0.0 mm 0.00 in0.0 mm
12:39 PM 53.9°F12.2°C 43.2°F6.2°C 67% 20.2 mph E32.5 kmh E 27.0 mph43.5 kmh 29.88 in1011.9 mb 0.00 in0.0 mm 0.00 in0.0 mm 0.00 in0.0 mm
12:40 PM 53.7°F12.1°C 43.0°F6.1°C 67% 20.1 mph E32.3 kmh E 25.0 mph40.2 kmh 29.88 in1011.9 mb 0.00 in0.0 mm 0.00 in0.0 mm 0.00 in0.0 mm
12:41 PM 53.7°F12.1°C 43.4°F6.3°C 68% 15.0 mph E24.1 kmh E 26.0 mph41.8 kmh 29.88 in1011.9 mb 0.00 in0.0 mm 0.00 in0.0 mm 0.00 in0.0 mm
12:42 PM 53.7°F12.1°C 43.4°F6.3°C 68% 19.5 mph E31.4 kmh E 25.0 mph40.2 kmh 29.88 in1011.9 mb 0.00 in0.0 mm 0.00 in0.0 mm 0.00 in0.0 mm
12:43 PM 53.7°F12.1°C 43.0°F6.1°C 67% 21.5 mph E34.6 kmh E 25.0 mph40.2 kmh 29.88 in1011.9 mb 0.00 in0.0 mm 0.00 in0.0 mm 0.00 in0.0 mm
12:44 PM 53.6°F12.0°C 43.3°F6.3°C 68% 18.1 mph E29.1 kmh E 25.0 mph40.2 kmh 29.88 in1011.9 mb 0.00 in0.0 mm 0.00 in0.0 mm 0.00 in0.0 mm
12:45 PM 53.6°F12.0°C 43.3°F6.3°C 68% 16.1 mph E25.9 kmh E 23.0 mph37.0 kmh 29.88 in1011.9 mb 0.00 in0.0 mm 0.00 in0.0 mm 0.00 in0.0 mm
12:46 PM 53.6°F12.0°C 42.9°F6.1°C 67% 20.7 mph E33.3 kmh E 26.0 mph41.8 kmh 29.88 in1011.9 mb 0.00 in0.0 mm 0.00 in0.0 mm 0.00 in0.0 mm
12:47 PM 53.5°F11.9°C 42.8°F6.0°C 67% 20.0 mph E32.2 kmh E 24.0 mph38.6 kmh 29.88 in1011.9 mb 0.00 in0.0 mm 0.00 in0.0 mm 0.00 in0.0 mm
12:48 PM 53.6°F12.0°C 43.3°F6.3°C 68% 16.0 mph E25.7 kmh E 21.0 mph33.8 kmh 29.88 in1011.9 mb 0.00 in0.0 mm 0.00 in0.0 mm 0.00 in0.0 mm
12:49 PM 53.6°F12.0°C 43.3°F6.3°C 68% 14.2 mph E22.9 kmh E 15.0 mph24.1 kmh 29.88 in1011.9 mb 0.00 in0.0 mm 0.00 in0.0 mm 0.00 in0.0 mm
12:50 PM 53.8°F12.1°C 43.5°F6.4°C 68% 18.9 mph E30.4 kmh E 28.0 mph45.1 kmh 29.88 in1011.9 mb 0.00 in0.0 mm 0.00 in0.0 mm 0.00 in0.0 mm
12:51 PM 54.0°F12.2°C 43.7°F6.5°C 68% 15.7 mph E25.3 kmh E 28.0 mph45.1 kmh 29.88 in1011.9 mb 0.00 in0.0 mm 0.00 in0.0 mm 0.00 in0.0 mm
12:52 PM 54.1°F12.3°C 43.4°F6.3°C 67% 14.9 mph E24.0 kmh E 20.0 mph32.2 kmh 29.88 in1011.9 mb 0.00 in0.0 mm 0.00 in0.0 mm 0.00 in0.0 mm
12:53 PM 54.2°F12.3°C 43.9°F6.6°C 68% 18.1 mph E29.1 kmh E 23.0 mph37.0 kmh 29.88 in1011.9 mb 0.00 in0.0 mm 0.00 in0.0 mm 0.00 in0.0 mm
12:54 PM 54.4°F12.4°C 43.7°F6.5°C 67% 18.4 mph E29.6 kmh E 28.0 mph45.1 kmh 29.88 in1011.9 mb 0.00 in0.0 mm 0.00 in0.0 mm 0.00 in0.0 mm
12:55 PM 54.4°F12.4°C 43.7°F6.5°C 67% 22.5 mph E36.2 kmh E 30.0 mph48.3 kmh 29.88 in1011.9 mb 0.00 in0.0 mm 0.00 in0.0 mm 0.00 in0.0 mm
12:56 PM 54.5°F12.5°C 43.8°F6.6°C 67% 19.4 mph ESE31.2 kmh ESE 30.0 mph48.3 kmh 29.88 in1011.9 mb 0.00 in0.0 mm 0.00 in0.0 mm 0.00 in0.0 mm
12:57 PM 54.7°F12.6°C 44.0°F6.7°C 67% 16.0 mph E25.7 kmh E 23.0 mph37.0 kmh 29.88 in1011.9 mb 0.00 in0.0 mm 0.00 in0.0 mm 0.00 in0.0 mm
12:58 PM 54.8°F12.7°C 44.1°F6.7°C 67% 11.0 mph E17.7 kmh E 14.0 mph22.5 kmh 29.88 in1011.9 mb 0.00 in0.0 mm 0.00 in0.0 mm 0.00 in0.0 mm
12:59 PM 55.0°F12.8°C 44.2°F6.8°C 67% 11.4 mph E18.3 kmh E 15.0 mph24.1 kmh 29.88 in1011.9 mb 0.00 in0.0 mm 0.00 in0.0 mm 0.00 in0.0 mm
01:00 PM 55.2°F12.9°C 44.4°F6.9°C 67% 17.1 mph E27.5 kmh E 22.0 mph35.4 kmh 29.88 in1011.9 mb 0.00 in0.0 mm 0.00 in0.0 mm 0.00 in0.0 mm
01:01 PM 55.3°F12.9°C 43.7°F6.5°C 65% 18.3 mph E29.5 kmh E 24.0 mph38.6 kmh 29.88 in1011.9 mb 0.00 in0.0 mm 0.00 in0.0 mm 0.00 in0.0 mm
01:02 PM 55.3°F12.9°C 44.1°F6.7°C 66% 14.9 mph E24.0 kmh E 24.0 mph38.6 kmh 29.88 in1011.9 mb 0.00 in0.0 mm 0.00 in0.0 mm 0.00 in0.0 mm
01:03 PM 55.4°F13.0°C 44.2°F6.8°C 66% 18.7 mph E30.1 kmh E 26.0 mph41.8 kmh 29.88 in1011.9 mb 0.00 in0.0 mm 0.00 in0.0 mm 0.00 in0.0 mm
01:04 PM 55.4°F13.0°C 44.2°F6.8°C 66% 18.5 mph E29.8 kmh E 27.0 mph43.5 kmh 29.88 in1011.9 mb 0.00 in0.0 mm 0.00 in0.0 mm 0.00 in0.0 mm
01:05 PM 55.3°F12.9°C 43.7°F6.5°C 65% 20.6 mph E33.2 kmh E 29.0 mph46.7 kmh 29.88 in1011.9 mb 0.00 in0.0 mm 0.00 in0.0 mm 0.00 in0.0 mm
01:06 PM 55.3°F12.9°C 43.7°F6.5°C 65% 20.8 mph E33.5 kmh E 28.0 mph45.1 kmh 29.88 in1011.9 mb 0.00 in0.0 mm 0.00 in0.0 mm 0.00 in0.0 mm
01:07 PM 55.3°F12.9°C 43.7°F6.5°C 65% 21.0 mph E33.8 kmh E 27.0 mph43.5 kmh 29.88 in1011.9 mb 0.00 in0.0 mm 0.00 in0.0 mm 0.00 in0.0 mm
01:08 PM 55.3°F12.9°C 44.1°F6.7°C 66% 17.6 mph E28.3 kmh E 27.0 mph43.5 kmh 29.88 in1011.9 mb 0.00 in0.0 mm 0.00 in0.0 mm 0.00 in0.0 mm
01:09 PM 55.3°F12.9°C 43.7°F6.5°C 65% 22.9 mph E36.9 kmh E 30.0 mph48.3 kmh 29.88 in1011.9 mb 0.00 in0.0 mm 0.00 in0.0 mm 0.00 in0.0 mm
01:10 PM 55.3°F12.9°C 43.7°F6.5°C 65% 21.1 mph ESE34.0 kmh ESE 30.0 mph48.3 kmh 29.88 in1011.9 mb 0.00 in0.0 mm 0.00 in0.0 mm 0.00 in0.0 mm
01:11 PM 55.3°F12.9°C 44.1°F6.7°C 66% 16.0 mph E25.7 kmh E 28.0 mph45.1 kmh 29.88 in1011.9 mb 0.00 in0.0 mm 0.00 in0.0 mm 0.00 in0.0 mm
01:12 PM 55.3°F12.9°C 43.7°F6.5°C 65% 19.1 mph E30.7 kmh E 24.0 mph38.6 kmh 29.88 in1011.9 mb 0.00 in0.0 mm 0.00 in0.0 mm 0.00 in0.0 mm
01:13 PM 55.4°F13.0°C 44.2°F6.8°C 66% 17.7 mph E28.5 kmh E 25.0 mph40.2 kmh 29.88 in1011.9 mb 0.00 in0.0 mm 0.00 in0.0 mm 0.00 in0.0 mm
01:14 PM 55.4°F13.0°C 44.2°F6.8°C 66% 17.3 mph E27.8 kmh E 27.0 mph43.5 kmh 29.88 in1011.9 mb 0.00 in0.0 mm 0.00 in0.0 mm 0.00 in0.0 mm
01:15 PM 55.5°F13.1°C 44.3°F6.8°C 66% 19.7 mph E31.7 kmh E 28.0 mph45.1 kmh 29.88 in1011.9 mb 0.00 in0.0 mm 0.00 in0.0 mm 0.00 in0.0 mm
01:16 PM 55.5°F13.1°C 43.9°F6.6°C 65% 20.8 mph ESE33.5 kmh ESE 28.0 mph45.1 kmh 29.88 in1011.9 mb 0.00 in0.0 mm 0.00 in0.0 mm 0.00 in0.0 mm
01:17 PM 55.5°F13.1°C 44.3°F6.8°C 66% 16.2 mph E26.1 kmh E 24.0 mph38.6 kmh 29.88 in1011.9 mb 0.00 in0.0 mm 0.00 in0.0 mm 0.00 in0.0 mm
01:18 PM 55.5°F13.1°C 44.3°F6.8°C 66% 16.1 mph E25.9 kmh E 21.0 mph33.8 kmh 29.88 in1011.9 mb 0.00 in0.0 mm 0.00 in0.0 mm 0.00 in0.0 mm
01:19 PM 55.6°F13.1°C 44.4°F6.9°C 66% 16.3 mph E26.2 kmh E 21.0 mph33.8 kmh 29.88 in1011.9 mb 0.00 in0.0 mm 0.00 in0.0 mm 0.00 in0.0 mm
01:20 PM 55.7°F13.2°C 44.5°F6.9°C 66% 16.9 mph E27.2 kmh E 23.0 mph37.0 kmh 29.88 in1011.9 mb 0.00 in0.0 mm 0.00 in0.0 mm 0.00 in0.0 mm
01:21 PM 55.7°F13.2°C 44.5°F6.9°C 66% 16.1 mph E25.9 kmh E 21.0 mph33.8 kmh 29.88 in1011.9 mb 0.00 in0.0 mm 0.00 in0.0 mm 0.00 in0.0 mm
01:22 PM 55.9°F13.3°C 44.7°F7.1°C 66% 16.2 mph E26.1 kmh E 21.0 mph33.8 kmh 29.88 in1011.9 mb 0.00 in0.0 mm 0.00 in0.0 mm 0.00 in0.0 mm
01:23 PM 55.9°F13.3°C 44.7°F7.1°C 66% 20.0 mph E32.2 kmh E 26.0 mph41.8 kmh 29.88 in1011.9 mb 0.00 in0.0 mm 0.00 in0.0 mm 0.00 in0.0 mm
01:24 PM 55.9°F13.3°C 44.3°F6.8°C 65% 18.0 mph E29.0 kmh E 26.0 mph41.8 kmh 29.88 in1011.9 mb 0.00 in0.0 mm 0.00 in0.0 mm 0.00 in0.0 mm
01:25 PM 56.0°F13.3°C 44.8°F7.1°C 66% 12.0 mph E19.3 kmh E 14.0 mph22.5 kmh 29.88 in1011.9 mb 0.00 in0.0 mm 0.00 in0.0 mm 0.00 in0.0 mm
01:26 PM 56.1°F13.4°C 44.9°F7.2°C 66% 16.3 mph E26.2 kmh E 20.0 mph32.2 kmh 29.88 in1011.9 mb 0.00 in0.0 mm 0.00 in0.0 mm 0.00 in0.0 mm
01:27 PM 56.2°F13.4°C 44.6°F7.0°C 65% 18.0 mph E29.0 kmh E 22.0 mph35.4 kmh 29.88 in1011.9 mb 0.00 in0.0 mm 0.00 in0.0 mm 0.00 in0.0 mm
01:28 PM 56.3°F13.5°C 44.7°F7.1°C 65% 13.0 mph E20.9 kmh E 19.0 mph30.6 kmh 29.88 in1011.9 mb 0.00 in0.0 mm 0.00 in0.0 mm 0.00 in0.0 mm
01:29 PM 56.4°F13.6°C 44.8°F7.1°C 65% 14.7 mph E23.7 kmh E 17.0 mph27.4 kmh 29.88 in1011.9 mb 0.00 in0.0 mm 0.00 in0.0 mm 0.00 in0.0 mm
01:30 PM 56.4°F13.6°C 44.8°F7.1°C 65% 16.9 mph E27.2 kmh E 22.0 mph35.4 kmh 29.87 in1011.5 mb 0.00 in0.0 mm 0.00 in0.0 mm 0.00 in0.0 mm
01:31 PM 56.5°F13.6°C 44.9°F7.2°C 65% 19.7 mph E31.7 kmh E 27.0 mph43.5 kmh 29.87 in1011.5 mb 0.00 in0.0 mm 0.00 in0.0 mm 0.00 in0.0 mm
01:32 PM 56.4°F13.6°C 44.8°F7.1°C 65% 19.0 mph E30.6 kmh E 26.0 mph41.8 kmh 29.87 in1011.5 mb 0.00 in0.0 mm 0.00 in0.0 mm 0.00 in0.0 mm
01:33 PM 56.4°F13.6°C 44.4°F6.9°C 64% 14.0 mph E22.5 kmh E 20.0 mph32.2 kmh 29.87 in1011.5 mb 0.00 in0.0 mm 0.00 in0.0 mm 0.00 in0.0 mm
01:34 PM 56.4°F13.6°C 44.8°F7.1°C 65% 17.0 mph E27.4 kmh E 24.0 mph38.6 kmh 29.87 in1011.5 mb 0.00 in0.0 mm 0.00 in0.0 mm 0.00 in0.0 mm
01:35 PM 56.3°F13.5°C 44.7°F7.1°C 65% 19.1 mph E30.7 kmh E 26.0 mph41.8 kmh 29.87 in1011.5 mb 0.00 in0.0 mm 0.00 in0.0 mm 0.00 in0.0 mm
01:36 PM 56.3°F13.5°C 44.7°F7.1°C 65% 19.2 mph E30.9 kmh E 26.0 mph41.8 kmh 29.87 in1011.5 mb 0.00 in0.0 mm 0.00 in0.0 mm 0.00 in0.0 mm
01:37 PM 56.2°F13.4°C 44.6°F7.0°C 65% 22.7 mph E36.5 kmh E 27.0 mph43.5 kmh 29.87 in1011.5 mb 0.00 in0.0 mm 0.00 in0.0 mm 0.00 in0.0 mm
01:38 PM 56.2°F13.4°C 44.6°F7.0°C 65% 19.5 mph E31.4 kmh E 27.0 mph43.5 kmh 29.87 in1011.5 mb 0.00 in0.0 mm 0.00 in0.0 mm 0.00 in0.0 mm
01:39 PM 56.2°F13.4°C 44.6°F7.0°C 65% 18.4 mph E29.6 kmh E 26.0 mph41.8 kmh 29.87 in1011.5 mb 0.00 in0.0 mm 0.00 in0.0 mm 0.00 in0.0 mm
01:40 PM 56.2°F13.4°C 44.6°F7.0°C 65% 19.0 mph E30.6 kmh E 29.0 mph46.7 kmh 29.87 in1011.5 mb 0.00 in0.0 mm 0.00 in0.0 mm 0.00 in0.0 mm
01:41 PM 56.3°F13.5°C 44.7°F7.1°C 65% 18.8 mph E30.3 kmh E 29.0 mph46.7 kmh 29.87 in1011.5 mb 0.00 in0.0 mm 0.00 in0.0 mm 0.00 in0.0 mm
01:42 PM 56.3°F13.5°C 44.7°F7.1°C 65% 16.9 mph E27.2 kmh E 24.0 mph38.6 kmh 29.88 in1011.9 mb 0.00 in0.0 mm 0.00 in0.0 mm 0.00 in0.0 mm
01:43 PM 56.3°F13.5°C 44.7°F7.1°C 65% 15.6 mph E25.1 kmh E 23.0 mph37.0 kmh 29.88 in1011.9 mb 0.00 in0.0 mm 0.00 in0.0 mm 0.00 in0.0 mm
01:44 PM 56.4°F13.6°C 44.8°F7.1°C 65% 12.9 mph E20.8 kmh E 19.0 mph30.6 kmh 29.88 in1011.9 mb 0.00 in0.0 mm 0.00 in0.0 mm 0.00 in0.0 mm
01:45 PM 56.3°F13.5°C 44.7°F7.1°C 65% 15.8 mph E25.4 kmh E 19.0 mph30.6 kmh 29.88 in1011.9 mb 0.00 in0.0 mm 0.00 in0.0 mm 0.00 in0.0 mm
01:46 PM 56.4°F13.6°C 44.8°F7.1°C 65% 16.7 mph E26.9 kmh E 23.0 mph37.0 kmh 29.88 in1011.9 mb 0.00 in0.0 mm 0.00 in0.0 mm 0.00 in0.0 mm
01:47 PM 56.4°F13.6°C 44.4°F6.9°C 64% 20.0 mph E32.2 kmh E 25.0 mph40.2 kmh 29.88 in1011.9 mb 0.00 in0.0 mm 0.00 in0.0 mm 0.00 in0.0 mm
01:48 PM 56.4°F13.6°C 44.8°F7.1°C 65% 14.5 mph E23.3 kmh E 25.0 mph40.2 kmh 29.88 in1011.9 mb 0.00 in0.0 mm 0.00 in0.0 mm 0.00 in0.0 mm
01:49 PM 56.5°F13.6°C 44.9°F7.2°C 65% 13.0 mph E20.9 kmh E 17.0 mph27.4 kmh 29.88 in1011.9 mb 0.00 in0.0 mm 0.00 in0.0 mm 0.00 in0.0 mm
01:50 PM 56.5°F13.6°C 44.9°F7.2°C 65% 15.0 mph E24.1 kmh E 21.0 mph33.8 kmh 29.88 in1011.9 mb 0.00 in0.0 mm 0.00 in0.0 mm 0.00 in0.0 mm
01:51 PM 56.6°F13.7°C 45.0°F7.2°C 65% 16.6 mph ESE26.7 kmh ESE 21.0 mph33.8 kmh 29.88 in1011.9 mb 0.00 in0.0 mm 0.00 in0.0 mm 0.00 in0.0 mm
01:52 PM 56.6°F13.7°C 45.0°F7.2°C 65% 16.7 mph E26.9 kmh E 22.0 mph35.4 kmh 29.88 in1011.9 mb 0.00 in0.0 mm 0.00 in0.0 mm 0.00 in0.0 mm
01:53 PM 56.6°F13.7°C 44.6°F7.0°C 64% 16.4 mph E26.4 kmh E 22.0 mph35.4 kmh 29.88 in1011.9 mb 0.00 in0.0 mm 0.00 in0.0 mm 0.00 in0.0 mm
01:54 PM 56.6°F13.7°C 44.6°F7.0°C 64% 18.9 mph E30.4 kmh E 24.0 mph38.6 kmh 29.88 in1011.9 mb 0.00 in0.0 mm 0.00 in0.0 mm 0.00 in0.0 mm
01:55 PM 56.6°F13.7°C 45.0°F7.2°C 65% 14.3 mph E23.0 kmh E 24.0 mph38.6 kmh 29.88 in1011.9 mb 0.00 in0.0 mm 0.00 in0.0 mm 0.00 in0.0 mm
01:56 PM 56.7°F13.7°C 45.1°F7.3°C 65% 14.0 mph E22.5 kmh E 18.0 mph29.0 kmh 29.88 in1011.9 mb 0.00 in0.0 mm 0.00 in0.0 mm 0.00 in0.0 mm
01:57 PM 56.7°F13.7°C 45.1°F7.3°C 65% 15.8 mph E25.4 kmh E 20.0 mph32.2 kmh 29.88 in1011.9 mb 0.00 in0.0 mm 0.00 in0.0 mm 0.00 in0.0 mm
01:58 PM 56.8°F13.8°C 44.8°F7.1°C 64% 16.0 mph E25.7 kmh E 20.0 mph32.2 kmh 29.88 in1011.9 mb 0.00 in0.0 mm 0.00 in0.0 mm 0.00 in0.0 mm
01:59 PM 56.9°F13.8°C 44.8°F7.1°C 64% 14.5 mph E23.3 kmh E 20.0 mph32.2 kmh 29.88 in1011.9 mb 0.00 in0.0 mm 0.00 in0.0 mm 0.00 in0.0 mm
02:00 PM 56.9°F13.8°C 44.8°F7.1°C 64% 13.8 mph E22.2 kmh E 20.0 mph32.2 kmh 29.87 in1011.5 mb 0.00 in0.0 mm 0.00 in0.0 mm 0.00 in0.0 mm
02:01 PM 56.9°F13.8°C 44.8°F7.1°C 64% 19.8 mph E31.9 kmh E 28.0 mph45.1 kmh 29.88 in1011.9 mb 0.00 in0.0 mm 0.00 in0.0 mm 0.00 in0.0 mm
02:02 PM 57.1°F13.9°C 45.0°F7.2°C 64% 16.6 mph ESE26.7 kmh ESE 28.0 mph45.1 kmh 29.87 in1011.5 mb 0.00 in0.0 mm 0.00 in0.0 mm 0.00 in0.0 mm
02:03 PM 57.1°F13.9°C 45.0°F7.2°C 64% 20.0 mph ESE32.2 kmh ESE 25.0 mph40.2 kmh 29.88 in1011.9 mb 0.00 in0.0 mm 0.00 in0.0 mm 0.00 in0.0 mm
02:04 PM 57.1°F13.9°C 45.0°F7.2°C 64% 19.0 mph E30.6 kmh E 28.0 mph45.1 kmh 29.88 in1011.9 mb 0.00 in0.0 mm 0.00 in0.0 mm 0.00 in0.0 mm
02:05 PM 57.1°F13.9°C 45.0°F7.2°C 64% 18.0 mph ESE29.0 kmh ESE 24.0 mph38.6 kmh 29.87 in1011.5 mb 0.00 in0.0 mm 0.00 in0.0 mm 0.00 in0.0 mm
02:06 PM 57.2°F14.0°C 45.1°F7.3°C 64% 20.2 mph E32.5 kmh E 25.0 mph40.2 kmh 29.87 in1011.5 mb 0.00 in0.0 mm 0.00 in0.0 mm 0.00 in0.0 mm
02:07 PM 57.2°F14.0°C 44.7°F7.1°C 63% 22.5 mph E36.2 kmh E 28.0 mph45.1 kmh 29.88 in1011.9 mb 0.00 in0.0 mm 0.00 in0.0 mm 0.00 in0.0 mm
02:08 PM 57.2°F14.0°C 44.7°F7.1°C 63% 20.2 mph E32.5 kmh E 30.0 mph48.3 kmh 29.88 in1011.9 mb 0.00 in0.0 mm 0.00 in0.0 mm 0.00 in0.0 mm
02:09 PM 57.2°F14.0°C 44.7°F7.1°C 63% 21.0 mph E33.8 kmh E 30.0 mph48.3 kmh 29.87 in1011.5 mb 0.00 in0.0 mm 0.00 in0.0 mm 0.00 in0.0 mm
02:10 PM 57.2°F14.0°C 45.1°F7.3°C 64% 18.0 mph E29.0 kmh E 24.0 mph38.6 kmh 29.87 in1011.5 mb 0.00 in0.0 mm 0.00 in0.0 mm 0.00 in0.0 mm
02:11 PM 57.3°F14.1°C 45.2°F7.3°C 64% 16.0 mph E25.7 kmh E 20.0 mph32.2 kmh 29.88 in1011.9 mb 0.00 in0.0 mm 0.00 in0.0 mm 0.00 in0.0 mm
02:12 PM 57.3°F14.1°C 45.2°F7.3°C 64% 11.2 mph ESE18.0 kmh ESE 17.0 mph27.4 kmh 29.88 in1011.9 mb 0.00 in0.0 mm 0.00 in0.0 mm 0.00 in0.0 mm
02:13 PM 57.3°F14.1°C 44.8°F7.1°C 63% 18.1 mph E29.1 kmh E 24.0 mph38.6 kmh 29.88 in1011.9 mb 0.00 in0.0 mm 0.00 in0.0 mm 0.00 in0.0 mm
02:14 PM 57.3°F14.1°C 45.2°F7.3°C 64% 19.7 mph E31.7 kmh E 29.0 mph46.7 kmh 29.88 in1011.9 mb 0.00 in0.0 mm 0.00 in0.0 mm 0.00 in0.0 mm
02:15 PM 57.3°F14.1°C 44.8°F7.1°C 63% 16.3 mph E26.2 kmh E 29.0 mph46.7 kmh 29.88 in1011.9 mb 0.00 in0.0 mm 0.00 in0.0 mm 0.00 in0.0 mm
02:16 PM 57.3°F14.1°C 44.8°F7.1°C 63% 14.1 mph E22.7 kmh E 23.0 mph37.0 kmh 29.88 in1011.9 mb 0.00 in0.0 mm 0.00 in0.0 mm 0.00 in0.0 mm
02:17 PM 57.3°F14.1°C 44.8°F7.1°C 63% 15.0 mph E24.1 kmh E 21.0 mph33.8 kmh 29.88 in1011.9 mb 0.00 in0.0 mm 0.00 in0.0 mm 0.00 in0.0 mm
02:18 PM 57.4°F14.1°C 45.3°F7.4°C 64% 13.9 mph ESE22.4 kmh ESE 21.0 mph33.8 kmh 29.88 in1011.9 mb 0.00 in0.0 mm 0.00 in0.0 mm 0.00 in0.0 mm
02:19 PM 57.4°F14.1°C 45.3°F7.4°C 64% 13.1 mph E21.1 kmh E 19.0 mph30.6 kmh 29.87 in1011.5 mb 0.00 in0.0 mm 0.00 in0.0 mm 0.00 in0.0 mm
02:20 PM 57.4°F14.1°C 45.3°F7.4°C 64% 13.5 mph E21.7 kmh E 20.0 mph32.2 kmh 29.88 in1011.9 mb 0.00 in0.0 mm 0.00 in0.0 mm 0.00 in0.0 mm
02:21 PM 57.4°F14.1°C 45.3°F7.4°C 64% 10.2 mph E16.4 kmh E 20.0 mph32.2 kmh 29.88 in1011.9 mb 0.00 in0.0 mm 0.00 in0.0 mm 0.00 in0.0 mm
02:22 PM 57.5°F14.2°C 45.4°F7.4°C 64% 12.9 mph E20.8 kmh E 19.0 mph30.6 kmh 29.88 in1011.9 mb 0.00 in0.0 mm 0.00 in0.0 mm 0.00 in0.0 mm
02:23 PM 57.5°F14.2°C 45.0°F7.2°C 63% 19.3 mph E31.1 kmh E 27.0 mph43.5 kmh 29.87 in1011.5 mb 0.00 in0.0 mm 0.00 in0.0 mm 0.00 in0.0 mm
02:24 PM 57.5°F14.2°C 45.0°F7.2°C 63% 18.0 mph E29.0 kmh E 27.0 mph43.5 kmh 29.87 in1011.5 mb 0.00 in0.0 mm 0.00 in0.0 mm 0.00 in0.0 mm
02:25 PM 57.5°F14.2°C 45.0°F7.2°C 63% 15.0 mph E24.1 kmh E 18.0 mph29.0 kmh 29.87 in1011.5 mb 0.00 in0.0 mm 0.00 in0.0 mm 0.00 in0.0 mm
02:26 PM 57.5°F14.2°C 45.0°F7.2°C 63% 17.0 mph E27.4 kmh E 22.0 mph35.4 kmh 29.87 in1011.5 mb 0.00 in0.0 mm 0.00 in0.0 mm 0.00 in0.0 mm
02:27 PM 57.5°F14.2°C 45.0°F7.2°C 63% 18.0 mph E29.0 kmh E 25.0 mph40.2 kmh 29.87 in1011.5 mb 0.00 in0.0 mm 0.00 in0.0 mm 0.00 in0.0 mm
02:28 PM 57.5°F14.2°C 45.0°F7.2°C 63% 15.4 mph E24.8 kmh E 25.0 mph40.2 kmh 29.87 in1011.5 mb 0.00 in0.0 mm 0.00 in0.0 mm 0.00 in0.0 mm
02:29 PM 57.4°F14.1°C 45.3°F7.4°C 64% 14.2 mph E22.9 kmh E 18.0 mph29.0 kmh 29.87 in1011.5 mb 0.00 in0.0 mm 0.00 in0.0 mm 0.00 in0.0 mm
02:30 PM 57.5°F14.2°C 45.0°F7.2°C 63% 12.3 mph E19.8 kmh E 18.0 mph29.0 kmh 29.88 in1011.9 mb 0.00 in0.0 mm 0.00 in0.0 mm 0.00 in0.0 mm
02:31 PM 57.5°F14.2°C 45.4°F7.4°C 64% 13.1 mph E21.1 kmh E 19.0 mph30.6 kmh 29.87 in1011.5 mb 0.00 in0.0 mm 0.00 in0.0 mm 0.00 in0.0 mm
02:32 PM 57.6°F14.2°C 45.5°F7.5°C 64% 11.2 mph E18.0 kmh E 19.0 mph30.6 kmh 29.88 in1011.9 mb 0.00 in0.0 mm 0.00 in0.0 mm 0.00 in0.0 mm
02:33 PM 57.6°F14.2°C 45.1°F7.3°C 63% 13.6 mph E21.9 kmh E 21.0 mph33.8 kmh 29.88 in1011.9 mb 0.00 in0.0 mm 0.00 in0.0 mm 0.00 in0.0 mm
02:34 PM 57.7°F14.3°C 45.2°F7.3°C 63% 17.7 mph ESE28.5 kmh ESE 23.0 mph37.0 kmh 29.87 in1011.5 mb 0.00 in0.0 mm 0.00 in0.0 mm 0.00 in0.0 mm
02:35 PM 57.7°F14.3°C 45.2°F7.3°C 63% 12.8 mph E20.6 kmh E 23.0 mph37.0 kmh 29.87 in1011.5 mb 0.00 in0.0 mm 0.00 in0.0 mm 0.00 in0.0 mm
02:36 PM 57.8°F14.3°C 45.3°F7.4°C 63% 8.0 mph ESE12.9 kmh ESE 17.0 mph27.4 kmh 29.87 in1011.5 mb 0.00 in0.0 mm 0.00 in0.0 mm 0.00 in0.0 mm
02:37 PM 57.8°F14.3°C 45.3°F7.4°C 63% 13.8 mph E22.2 kmh E 19.0 mph30.6 kmh 29.88 in1011.9 mb 0.00 in0.0 mm 0.00 in0.0 mm 0.00 in0.0 mm
02:38 PM 57.8°F14.3°C 45.3°F7.4°C 63% 15.0 mph E24.1 kmh E 19.0 mph30.6 kmh 29.87 in1011.5 mb 0.00 in0.0 mm 0.00 in0.0 mm 0.00 in0.0 mm
02:39 PM 57.9°F14.4°C 45.4°F7.4°C 63% 14.0 mph E22.5 kmh E 17.0 mph27.4 kmh 29.88 in1011.9 mb 0.00 in0.0 mm 0.00 in0.0 mm 0.00 in0.0 mm
02:40 PM 57.9°F14.4°C 45.4°F7.4°C 63% 16.5 mph E26.6 kmh E 21.0 mph33.8 kmh 29.88 in1011.9 mb 0.00 in0.0 mm 0.00 in0.0 mm 0.00 in0.0 mm
02:41 PM 58.0°F14.4°C 45.5°F7.5°C 63% 16.2 mph E26.1 kmh E 22.0 mph35.4 kmh 29.87 in1011.5 mb 0.00 in0.0 mm 0.00 in0.0 mm 0.00 in0.0 mm
02:42 PM 58.0°F14.4°C 45.5°F7.5°C 63% 13.3 mph E21.4 kmh E 22.0 mph35.4 kmh 29.88 in1011.9 mb 0.00 in0.0 mm 0.00 in0.0 mm 0.00 in0.0 mm
02:43 PM 58.0°F14.4°C 45.5°F7.5°C 63% 13.0 mph E20.9 kmh E 19.0 mph30.6 kmh 29.88 in1011.9 mb 0.00 in0.0 mm 0.00 in0.0 mm 0.00 in0.0 mm
02:44 PM 58.0°F14.4°C 45.5°F7.5°C 63% 14.7 mph E23.7 kmh E 21.0 mph33.8 kmh 29.88 in1011.9 mb 0.00 in0.0 mm 0.00 in0.0 mm 0.00 in0.0 mm
02:45 PM 58.1°F14.5°C 45.6°F7.6°C 63% 14.0 mph E22.5 kmh E 20.0 mph32.2 kmh 29.88 in1011.9 mb 0.00 in0.0 mm 0.00 in0.0 mm 0.00 in0.0 mm
02:46 PM 58.1°F14.5°C 45.1°F7.3°C 62% 15.0 mph E24.1 kmh E 20.0 mph32.2 kmh 29.88 in1011.9 mb 0.00 in0.0 mm 0.00 in0.0 mm 0.00 in0.0 mm
02:47 PM 58.1°F14.5°C 45.1°F7.3°C 62% 17.3 mph E27.8 kmh E 22.0 mph35.4 kmh 29.88 in1011.9 mb 0.00 in0.0 mm 0.00 in0.0 mm 0.00 in0.0 mm
02:48 PM 58.1°F14.5°C 45.1°F7.3°C 62% 13.8 mph E22.2 kmh E 22.0 mph35.4 kmh 29.88 in1011.9 mb 0.00 in0.0 mm 0.00 in0.0 mm 0.00 in0.0 mm
02:49 PM 58.1°F14.5°C 45.6°F7.6°C 63% 11.8 mph E19.0 kmh E 18.0 mph29.0 kmh 29.88 in1011.9 mb 0.00 in0.0 mm 0.00 in0.0 mm 0.00 in0.0 mm
02:50 PM 58.2°F14.6°C 45.2°F7.3°C 62% 16.3 mph E26.2 kmh E 20.0 mph32.2 kmh 29.88 in1011.9 mb 0.00 in0.0 mm 0.00 in0.0 mm 0.00 in0.0 mm
02:51 PM 58.2°F14.6°C 45.2°F7.3°C 62% 15.4 mph ESE24.8 kmh ESE 20.0 mph32.2 kmh 29.88 in1011.9 mb 0.00 in0.0 mm 0.00 in0.0 mm 0.00 in0.0 mm
02:52 PM 58.2°F14.6°C 45.2°F7.3°C 62% 11.6 mph E18.7 kmh E 20.0 mph32.2 kmh 29.88 in1011.9 mb 0.00 in0.0 mm 0.00 in0.0 mm 0.00 in0.0 mm
02:53 PM 58.3°F14.6°C 45.3°F7.4°C 62% 13.4 mph ESE21.6 kmh ESE 21.0 mph33.8 kmh 29.88 in1011.9 mb 0.00 in0.0 mm 0.00 in0.0 mm 0.00 in0.0 mm
02:54 PM 58.3°F14.6°C 45.3°F7.4°C 62% 11.8 mph E19.0 kmh E 21.0 mph33.8 kmh 29.88 in1011.9 mb 0.00 in0.0 mm 0.00 in0.0 mm 0.00 in0.0 mm
02:55 PM 58.4°F14.7°C 45.9°F7.7°C 63% 12.9 mph E20.8 kmh E 19.0 mph30.6 kmh 29.88 in1011.9 mb 0.00 in0.0 mm 0.00 in0.0 mm 0.00 in0.0 mm
02:56 PM 58.4°F14.7°C 45.4°F7.4°C 62% 15.4 mph E24.8 kmh E 19.0 mph30.6 kmh 29.88 in1011.9 mb 0.00 in0.0 mm 0.00 in0.0 mm 0.00 in0.0 mm
02:57 PM 58.5°F14.7°C 45.5°F7.5°C 62% 13.0 mph E20.9 kmh E 15.0 mph24.1 kmh 29.88 in1011.9 mb 0.00 in0.0 mm 0.00 in0.0 mm 0.00 in0.0 mm
02:58 PM 58.6°F14.8°C 46.0°F7.8°C 63% 11.0 mph E17.7 kmh E 19.0 mph30.6 kmh 29.88 in1011.9 mb 0.00 in0.0 mm 0.00 in0.0 mm 0.00 in0.0 mm
02:59 PM 58.6°F14.8°C 45.6°F7.6°C 62% 18.5 mph E29.8 kmh E 23.0 mph37.0 kmh 29.88 in1011.9 mb 0.00 in0.0 mm 0.00 in0.0 mm 0.00 in0.0 mm
03:00 PM 58.7°F14.8°C 45.7°F7.6°C 62% 14.6 mph E23.5 kmh E 23.0 mph37.0 kmh 29.87 in1011.5 mb 0.00 in0.0 mm 0.00 in0.0 mm 0.00 in0.0 mm
03:01 PM 58.8°F14.9°C 45.8°F7.7°C 62% 11.6 mph E18.7 kmh E 20.0 mph32.2 kmh 29.87 in1011.5 mb 0.00 in0.0 mm 0.00 in0.0 mm 0.00 in0.0 mm
03:02 PM 58.9°F14.9°C 46.3°F7.9°C 63% 11.4 mph E18.3 kmh E 16.0 mph25.7 kmh 29.88 in1011.9 mb 0.00 in0.0 mm 0.00 in0.0 mm 0.00 in0.0 mm
03:03 PM 59.0°F15.0°C 46.4°F8.0°C 63% 11.4 mph E18.3 kmh E 16.0 mph25.7 kmh 29.88 in1011.9 mb 0.00 in0.0 mm 0.00 in0.0 mm 0.00 in0.0 mm
03:04 PM 59.0°F15.0°C 46.0°F7.8°C 62% 17.7 mph E28.5 kmh E 24.0 mph38.6 kmh 29.87 in1011.5 mb 0.00 in0.0 mm 0.00 in0.0 mm 0.00 in0.0 mm
03:05 PM 59.0°F15.0°C 46.0°F7.8°C 62% 14.9 mph E24.0 kmh E 24.0 mph38.6 kmh 29.87 in1011.5 mb 0.00 in0.0 mm 0.00 in0.0 mm 0.00 in0.0 mm
03:06 PM 58.9°F14.9°C 46.3°F7.9°C 63% 14.3 mph E23.0 kmh E 22.0 mph35.4 kmh 29.87 in1011.5 mb 0.00 in0.0 mm 0.00 in0.0 mm 0.00 in0.0 mm
03:07 PM 58.9°F14.9°C 45.9°F7.7°C 62% 21.0 mph E33.8 kmh E 24.0 mph38.6 kmh 29.87 in1011.5 mb 0.00 in0.0 mm 0.00 in0.0 mm 0.00 in0.0 mm
03:08 PM 58.9°F14.9°C 45.9°F7.7°C 62% 14.0 mph E22.5 kmh E 19.0 mph30.6 kmh 29.87 in1011.5 mb 0.00 in0.0 mm 0.00 in0.0 mm 0.00 in0.0 mm
03:09 PM 58.9°F14.9°C 46.3°F7.9°C 63% 13.3 mph E21.4 kmh E 19.0 mph30.6 kmh 29.87 in1011.5 mb 0.00 in0.0 mm 0.00 in0.0 mm 0.00 in0.0 mm
03:10 PM 58.9°F14.9°C 46.3°F7.9°C 63% 15.0 mph E24.1 kmh E 18.0 mph29.0 kmh 29.87 in1011.5 mb 0.00 in0.0 mm 0.00 in0.0 mm 0.00 in0.0 mm
03:11 PM 58.9°F14.9°C 46.3°F7.9°C 63% 13.0 mph E20.9 kmh E 15.0 mph24.1 kmh 29.87 in1011.5 mb 0.00 in0.0 mm 0.00 in0.0 mm 0.00 in0.0 mm
03:12 PM 58.9°F14.9°C 46.3°F7.9°C 63% 12.8 mph E20.6 kmh E 16.0 mph25.7 kmh 29.87 in1011.5 mb 0.00 in0.0 mm 0.00 in0.0 mm 0.00 in0.0 mm
03:13 PM 59.0°F15.0°C 46.0°F7.8°C 62% 12.9 mph E20.8 kmh E 16.0 mph25.7 kmh 29.87 in1011.5 mb 0.00 in0.0 mm 0.00 in0.0 mm 0.00 in0.0 mm
03:14 PM 59.0°F15.0°C 46.4°F8.0°C 63% 10.8 mph ESE17.4 kmh ESE 16.0 mph25.7 kmh 29.87 in1011.5 mb 0.00 in0.0 mm 0.00 in0.0 mm 0.00 in0.0 mm
03:15 PM 58.9°F14.9°C 45.9°F7.7°C 62% 11.0 mph E17.7 kmh E 15.0 mph24.1 kmh 29.87 in1011.5 mb 0.00 in0.0 mm 0.00 in0.0 mm 0.00 in0.0 mm
03:16 PM 59.0°F15.0°C 46.0°F7.8°C 62% 11.0 mph E17.7 kmh E 16.0 mph25.7 kmh 29.87 in1011.5 mb 0.00 in0.0 mm 0.00 in0.0 mm 0.00 in0.0 mm
03:17 PM 58.9°F14.9°C 45.9°F7.7°C 62% 13.9 mph E22.4 kmh E 16.0 mph25.7 kmh 29.87 in1011.5 mb 0.00 in0.0 mm 0.00 in0.0 mm 0.00 in0.0 mm
03:18 PM 58.9°F14.9°C 45.9°F7.7°C 62% 12.1 mph E19.5 kmh E 16.0 mph25.7 kmh 29.87 in1011.5 mb 0.00 in0.0 mm 0.00 in0.0 mm 0.00 in0.0 mm
03:19 PM 58.9°F14.9°C 45.9°F7.7°C 62% 10.5 mph E16.9 kmh E 16.0 mph25.7 kmh 29.87 in1011.5 mb 0.00 in0.0 mm 0.00 in0.0 mm 0.00 in0.0 mm
03:20 PM 58.9°F14.9°C 46.3°F7.9°C 63% 11.0 mph E17.7 kmh E 14.0 mph22.5 kmh 29.87 in1011.5 mb 0.00 in0.0 mm 0.00 in0.0 mm 0.00 in0.0 mm
03:21 PM 58.9°F14.9°C 46.3°F7.9°C 63% 13.0 mph E20.9 kmh E 15.0 mph24.1 kmh 29.87 in1011.5 mb 0.00 in0.0 mm 0.00 in0.0 mm 0.00 in0.0 mm
03:22 PM 58.9°F14.9°C 45.9°F7.7°C 62% 10.7 mph E17.2 kmh E 12.0 mph19.3 kmh 29.87 in1011.5 mb 0.00 in0.0 mm 0.00 in0.0 mm 0.00 in0.0 mm
03:23 PM 58.9°F14.9°C 45.9°F7.7°C 62% 12.5 mph E20.1 kmh E 17.0 mph27.4 kmh 29.87 in1011.5 mb 0.00 in0.0 mm 0.00 in0.0 mm 0.00 in0.0 mm
03:24 PM 58.9°F14.9°C 45.9°F7.7°C 62% 11.5 mph E18.5 kmh E 17.0 mph27.4 kmh 29.87 in1011.5 mb 0.00 in0.0 mm 0.00 in0.0 mm 0.00 in0.0 mm
03:25 PM 58.9°F14.9°C 45.9°F7.7°C 62% 14.5 mph E23.3 kmh E 19.0 mph30.6 kmh 29.87 in1011.5 mb 0.00 in0.0 mm 0.00 in0.0 mm 0.00 in0.0 mm
03:26 PM 58.9°F14.9°C 45.5°F7.5°C 61% 15.6 mph E25.1 kmh E 19.0 mph30.6 kmh 29.87 in1011.5 mb 0.00 in0.0 mm 0.00 in0.0 mm 0.00 in0.0 mm
03:27 PM 58.9°F14.9°C 45.9°F7.7°C 62% 12.1 mph E19.5 kmh E 19.0 mph30.6 kmh 29.87 in1011.5 mb 0.00 in0.0 mm 0.00 in0.0 mm 0.00 in0.0 mm
03:28 PM 58.9°F14.9°C 45.9°F7.7°C 62% 13.0 mph E20.9 kmh E 20.0 mph32.2 kmh 29.87 in1011.5 mb 0.00 in0.0 mm 0.00 in0.0 mm 0.00 in0.0 mm
03:29 PM 58.9°F14.9°C 45.9°F7.7°C 62% 15.0 mph E24.1 kmh E 22.0 mph35.4 kmh 29.87 in1011.5 mb 0.00 in0.0 mm 0.00 in0.0 mm 0.00 in0.0 mm
03:30 PM 58.9°F14.9°C 45.9°F7.7°C 62% 17.5 mph E28.2 kmh E 22.0 mph35.4 kmh 29.87 in1011.5 mb 0.00 in0.0 mm 0.00 in0.0 mm 0.00 in0.0 mm
03:31 PM 59.0°F15.0°C 45.6°F7.6°C 61% 15.2 mph E24.5 kmh E 22.0 mph35.4 kmh 29.87 in1011.5 mb 0.00 in0.0 mm 0.00 in0.0 mm 0.00 in0.0 mm
03:32 PM 59.0°F15.0°C 46.0°F7.8°C 62% 13.3 mph E21.4 kmh E 18.0 mph29.0 kmh 29.87 in1011.5 mb 0.00 in0.0 mm 0.00 in0.0 mm 0.00 in0.0 mm
03:33 PM 59.1°F15.1°C 46.1°F7.8°C 62% 14.6 mph E23.5 kmh E 19.0 mph30.6 kmh 29.87 in1011.5 mb 0.00 in0.0 mm 0.00 in0.0 mm 0.00 in0.0 mm
03:34 PM 59.1°F15.1°C 45.7°F7.6°C 61% 16.9 mph E27.2 kmh E 20.0 mph32.2 kmh 29.87 in1011.5 mb 0.00 in0.0 mm 0.00 in0.0 mm 0.00 in0.0 mm
03:35 PM 59.2°F15.1°C 45.8°F7.7°C 61% 15.0 mph E24.1 kmh E 19.0 mph30.6 kmh 29.87 in1011.5 mb 0.00 in0.0 mm 0.00 in0.0 mm 0.00 in0.0 mm
03:36 PM 59.2°F15.1°C 45.8°F7.7°C 61% 13.0 mph E20.9 kmh E 18.0 mph29.0 kmh 29.87 in1011.5 mb 0.00 in0.0 mm 0.00 in0.0 mm 0.00 in0.0 mm
03:37 PM 59.2°F15.1°C 45.8°F7.7°C 61% 15.2 mph E24.5 kmh E 16.0 mph25.7 kmh 29.87 in1011.5 mb 0.00 in0.0 mm 0.00 in0.0 mm 0.00 in0.0 mm
03:38 PM 59.3°F15.2°C 45.9°F7.7°C 61% 15.6 mph E25.1 kmh E 21.0 mph33.8 kmh 29.87 in1011.5 mb 0.00 in0.0 mm 0.00 in0.0 mm 0.00 in0.0 mm
03:39 PM 59.4°F15.2°C 45.9°F7.7°C 61% 13.3 mph E21.4 kmh E 21.0 mph33.8 kmh 29.87 in1011.5 mb 0.00 in0.0 mm 0.00 in0.0 mm 0.00 in0.0 mm
03:40 PM 59.5°F15.3°C 46.0°F7.8°C 61% 16.0 mph E25.7 kmh E 22.0 mph35.4 kmh 29.87 in1011.5 mb 0.00 in0.0 mm 0.00 in0.0 mm 0.00 in0.0 mm
03:41 PM 59.5°F15.3°C 46.0°F7.8°C 61% 16.0 mph E25.7 kmh E 23.0 mph37.0 kmh 29.87 in1011.5 mb 0.00 in0.0 mm 0.00 in0.0 mm 0.00 in0.0 mm
03:42 PM 59.5°F15.3°C 45.6°F7.6°C 60% 12.2 mph ESE19.6 kmh ESE 13.0 mph20.9 kmh 29.87 in1011.5 mb 0.00 in0.0 mm 0.00 in0.0 mm 0.00 in0.0 mm
03:43 PM 59.6°F15.3°C 46.1°F7.8°C 61% 11.8 mph E19.0 kmh E 16.0 mph25.7 kmh 29.87 in1011.5 mb 0.00 in0.0 mm 0.00 in0.0 mm 0.00 in0.0 mm
03:44 PM 59.7°F15.4°C 46.2°F7.9°C 61% 14.0 mph E22.5 kmh E 21.0 mph33.8 kmh 29.86 in1011.2 mb 0.00 in0.0 mm 0.00 in0.0 mm 0.00 in0.0 mm
03:45 PM 59.7°F15.4°C 45.8°F7.7°C 60% 17.0 mph E27.4 kmh E 22.0 mph35.4 kmh 29.86 in1011.2 mb 0.00 in0.0 mm 0.00 in0.0 mm 0.00 in0.0 mm
03:46 PM 59.7°F15.4°C 46.2°F7.9°C 61% 13.0 mph E20.9 kmh E 14.0 mph22.5 kmh 29.86 in1011.2 mb 0.00 in0.0 mm 0.00 in0.0 mm 0.00 in0.0 mm
03:47 PM 59.7°F15.4°C 45.8°F7.7°C 60% 14.3 mph E23.0 kmh E 19.0 mph30.6 kmh 29.87 in1011.5 mb 0.00 in0.0 mm 0.00 in0.0 mm 0.00 in0.0 mm
03:48 PM 59.7°F15.4°C 46.2°F7.9°C 61% 11.9 mph E19.2 kmh E 19.0 mph30.6 kmh 29.87 in1011.5 mb 0.00 in0.0 mm 0.00 in0.0 mm 0.00 in0.0 mm
03:49 PM 59.6°F15.3°C 46.1°F7.8°C 61% 14.0 mph E22.5 kmh E 18.0 mph29.0 kmh 29.87 in1011.5 mb 0.00 in0.0 mm 0.00 in0.0 mm 0.00 in0.0 mm
03:50 PM 59.6°F15.3°C 46.1°F7.8°C 61% 14.0 mph E22.5 kmh E 16.0 mph25.7 kmh 29.87 in1011.5 mb 0.00 in0.0 mm 0.00 in0.0 mm 0.00 in0.0 mm
03:51 PM 59.6°F15.3°C 46.1°F7.8°C 61% 15.0 mph E24.1 kmh E 17.0 mph27.4 kmh 29.87 in1011.5 mb 0.00 in0.0 mm 0.00 in0.0 mm 0.00 in0.0 mm
03:52 PM 59.6°F15.3°C 45.7°F7.6°C 60% 16.3 mph E26.2 kmh E 21.0 mph33.8 kmh 29.87 in1011.5 mb 0.00 in0.0 mm 0.00 in0.0 mm 0.00 in0.0 mm
03:53 PM 59.5°F15.3°C 46.0°F7.8°C 61% 15.4 mph E24.8 kmh E 21.0 mph33.8 kmh 29.87 in1011.5 mb 0.00 in0.0 mm 0.00 in0.0 mm 0.00 in0.0 mm
03:54 PM 59.6°F15.3°C 46.1°F7.8°C 61% 16.0 mph E25.7 kmh E 19.0 mph30.6 kmh 29.87 in1011.5 mb 0.00 in0.0 mm 0.00 in0.0 mm 0.00 in0.0 mm
03:55 PM 59.5°F15.3°C 46.0°F7.8°C 61% 14.3 mph E23.0 kmh E 20.0 mph32.2 kmh 29.87 in1011.5 mb 0.00 in0.0 mm 0.00 in0.0 mm 0.00 in0.0 mm
03:56 PM 59.5°F15.3°C 46.0°F7.8°C 61% 15.4 mph E24.8 kmh E 20.0 mph32.2 kmh 29.87 in1011.5 mb 0.00 in0.0 mm 0.00 in0.0 mm 0.00 in0.0 mm
03:57 PM 59.5°F15.3°C 46.0°F7.8°C 61% 15.1 mph E24.3 kmh E 20.0 mph32.2 kmh 29.87 in1011.5 mb 0.00 in0.0 mm 0.00 in0.0 mm 0.00 in0.0 mm
03:58 PM 59.5°F15.3°C 46.0°F7.8°C 61% 13.5 mph E21.7 kmh E 18.0 mph29.0 kmh 29.87 in1011.5 mb 0.00 in0.0 mm 0.00 in0.0 mm 0.00 in0.0 mm
03:59 PM 59.5°F15.3°C 46.0°F7.8°C 61% 12.5 mph E20.1 kmh E 18.0 mph29.0 kmh 29.87 in1011.5 mb 0.00 in0.0 mm 0.00 in0.0 mm 0.00 in0.0 mm
04:00 PM 59.4°F15.2°C 45.9°F7.7°C 61% 14.0 mph E22.5 kmh E 19.0 mph30.6 kmh 29.86 in1011.2 mb 0.00 in0.0 mm 0.00 in0.0 mm 0.00 in0.0 mm
04:01 PM 59.4°F15.2°C 45.9°F7.7°C 61% 12.0 mph E19.3 kmh E 14.0 mph22.5 kmh 29.86 in1011.2 mb 0.00 in0.0 mm 0.00 in0.0 mm 0.00 in0.0 mm
04:02 PM 59.4°F15.2°C 46.4°F8.0°C 62% 9.2 mph E14.8 kmh E 10.0 mph16.1 kmh 29.87 in1011.5 mb 0.00 in0.0 mm 0.00 in0.0 mm 0.00 in0.0 mm
04:03 PM 59.5°F15.3°C 46.0°F7.8°C 61% 14.0 mph ESE22.5 kmh ESE 17.0 mph27.4 kmh 29.87 in1011.5 mb 0.00 in0.0 mm 0.00 in0.0 mm 0.00 in0.0 mm
04:04 PM 59.4°F15.2°C 45.9°F7.7°C 61% 13.0 mph E20.9 kmh E 19.0 mph30.6 kmh 29.86 in1011.2 mb 0.00 in0.0 mm 0.00 in0.0 mm 0.00 in0.0 mm
04:05 PM 59.4°F15.2°C 45.9°F7.7°C 61% 13.9 mph E22.4 kmh E 17.0 mph27.4 kmh 29.86 in1011.2 mb 0.00 in0.0 mm 0.00 in0.0 mm 0.00 in0.0 mm
04:06 PM 59.4°F15.2°C 45.9°F7.7°C 61% 12.6 mph E20.3 kmh E 17.0 mph27.4 kmh 29.86 in1011.2 mb 0.00 in0.0 mm 0.00 in0.0 mm 0.00 in0.0 mm
04:07 PM 59.4°F15.2°C 45.9°F7.7°C 61% 13.0 mph E20.9 kmh E 16.0 mph25.7 kmh 29.86 in1011.2 mb 0.00 in0.0 mm 0.00 in0.0 mm 0.00 in0.0 mm
04:08 PM 59.4°F15.2°C 45.9°F7.7°C 61% 13.0 mph E20.9 kmh E 15.0 mph24.1 kmh 29.86 in1011.2 mb 0.00 in0.0 mm 0.00 in0.0 mm 0.00 in0.0 mm
04:09 PM 59.3°F15.2°C 46.3°F7.9°C 62% 11.0 mph E17.7 kmh E 12.0 mph19.3 kmh 29.86 in1011.2 mb 0.00 in0.0 mm 0.00 in0.0 mm 0.00 in0.0 mm
04:10 PM 59.3°F15.2°C 46.3°F7.9°C 62% 12.5 mph E20.1 kmh E 17.0 mph27.4 kmh 29.86 in1011.2 mb 0.00 in0.0 mm 0.00 in0.0 mm 0.00 in0.0 mm
04:11 PM 59.3°F15.2°C 45.9°F7.7°C 61% 13.8 mph E22.2 kmh E 17.0 mph27.4 kmh 29.86 in1011.2 mb 0.00 in0.0 mm 0.00 in0.0 mm 0.00 in0.0 mm
04:12 PM 59.4°F15.2°C 46.4°F8.0°C 62% 11.4 mph E18.3 kmh E 18.0 mph29.0 kmh 29.86 in1011.2 mb 0.00 in0.0 mm 0.00 in0.0 mm 0.00 in0.0 mm
04:13 PM 59.4°F15.2°C 46.4°F8.0°C 62% 11.3 mph E18.2 kmh E 18.0 mph29.0 kmh 29.86 in1011.2 mb 0.00 in0.0 mm 0.00 in0.0 mm 0.00 in0.0 mm
04:14 PM 59.4°F15.2°C 46.4°F8.0°C 62% 14.0 mph E22.5 kmh E 17.0 mph27.4 kmh 29.86 in1011.2 mb 0.00 in0.0 mm 0.00 in0.0 mm 0.00 in0.0 mm
04:15 PM 59.4°F15.2°C 45.9°F7.7°C 61% 13.6 mph E21.9 kmh E 18.0 mph29.0 kmh 29.86 in1011.2 mb 0.00 in0.0 mm 0.00 in0.0 mm 0.00 in0.0 mm
04:16 PM 59.5°F15.3°C 46.0°F7.8°C 61% 14.7 mph E23.7 kmh E 18.0 mph29.0 kmh 29.86 in1011.2 mb 0.00 in0.0 mm 0.00 in0.0 mm 0.00 in0.0 mm
04:17 PM 59.5°F15.3°C 46.0°F7.8°C 61% 15.0 mph E24.1 kmh E 18.0 mph29.0 kmh 29.86 in1011.2 mb 0.00 in0.0 mm 0.00 in0.0 mm 0.00 in0.0 mm
04:18 PM 59.5°F15.3°C 46.0°F7.8°C 61% 15.0 mph ESE24.1 kmh ESE 23.0 mph37.0 kmh 29.86 in1011.2 mb 0.00 in0.0 mm 0.00 in0.0 mm 0.00 in0.0 mm
04:19 PM 59.6°F15.3°C 45.7°F7.6°C 60% 17.3 mph E27.8 kmh E 21.0 mph33.8 kmh 29.86 in1011.2 mb 0.00 in0.0 mm 0.00 in0.0 mm 0.00 in0.0 mm
04:20 PM 59.6°F15.3°C 45.7°F7.6°C 60% 15.4 mph E24.8 kmh E 21.0 mph33.8 kmh 29.86 in1011.2 mb 0.00 in0.0 mm 0.00 in0.0 mm 0.00 in0.0 mm
04:21 PM 59.7°F15.4°C 45.8°F7.7°C 60% 13.9 mph E22.4 kmh E 20.0 mph32.2 kmh 29.86 in1011.2 mb 0.00 in0.0 mm 0.00 in0.0 mm 0.00 in0.0 mm
04:22 PM 59.7°F15.4°C 45.8°F7.7°C 60% 13.1 mph E21.1 kmh E 18.0 mph29.0 kmh 29.86 in1011.2 mb 0.00 in0.0 mm 0.00 in0.0 mm 0.00 in0.0 mm
04:23 PM 59.8°F15.4°C 45.9°F7.7°C 60% 10.0 mph E16.1 kmh E 13.0 mph20.9 kmh 29.86 in1011.2 mb 0.00 in0.0 mm 0.00 in0.0 mm 0.00 in0.0 mm
04:24 PM 59.8°F15.4°C 46.3°F7.9°C 61% 10.0 mph E16.1 kmh E 12.0 mph19.3 kmh 29.86 in1011.2 mb 0.00 in0.0 mm 0.00 in0.0 mm 0.00 in0.0 mm
04:25 PM 60.0°F15.6°C 46.5°F8.1°C 61% 13.9 mph E22.4 kmh E 17.0 mph27.4 kmh 29.86 in1011.2 mb 0.00 in0.0 mm 0.00 in0.0 mm 0.00 in0.0 mm
04:26 PM 60.1°F15.6°C 46.2°F7.9°C 60% 11.2 mph E18.0 kmh E 17.0 mph27.4 kmh 29.86 in1011.2 mb 0.00 in0.0 mm 0.00 in0.0 mm 0.00 in0.0 mm
04:27 PM 60.1°F15.6°C 46.2°F7.9°C 60% 12.7 mph E20.4 kmh E 20.0 mph32.2 kmh 29.86 in1011.2 mb 0.00 in0.0 mm 0.00 in0.0 mm 0.00 in0.0 mm
04:28 PM 60.1°F15.6°C 46.2°F7.9°C 60% 13.3 mph E21.4 kmh E 20.0 mph32.2 kmh 29.86 in1011.2 mb 0.00 in0.0 mm 0.00 in0.0 mm 0.00 in0.0 mm
04:29 PM 60.1°F15.6°C 46.2°F7.9°C 60% 10.3 mph E16.6 kmh E 18.0 mph29.0 kmh 29.86 in1011.2 mb 0.00 in0.0 mm 0.00 in0.0 mm 0.00 in0.0 mm
04:30 PM 60.2°F15.7°C 46.3°F7.9°C 60% 12.5 mph E20.1 kmh E 17.0 mph27.4 kmh 29.86 in1011.2 mb 0.00 in0.0 mm 0.00 in0.0 mm 0.00 in0.0 mm
04:31 PM 60.2°F15.7°C 46.3°F7.9°C 60% 12.0 mph E19.3 kmh E 18.0 mph29.0 kmh 29.86 in1011.2 mb 0.00 in0.0 mm 0.00 in0.0 mm 0.00 in0.0 mm
04:32 PM 60.2°F15.7°C 46.3°F7.9°C 60% 10.0 mph E16.1 kmh E 15.0 mph24.1 kmh 29.86 in1011.2 mb 0.00 in0.0 mm 0.00 in0.0 mm 0.00 in0.0 mm
04:33 PM 60.2°F15.7°C 46.3°F7.9°C 60% 11.3 mph E18.2 kmh E 17.0 mph27.4 kmh 29.86 in1011.2 mb 0.00 in0.0 mm 0.00 in0.0 mm 0.00 in0.0 mm
04:34 PM 60.2°F15.7°C 46.3°F7.9°C 60% 13.2 mph E21.2 kmh E 17.0 mph27.4 kmh 29.86 in1011.2 mb 0.00 in0.0 mm 0.00 in0.0 mm 0.00 in0.0 mm
04:35 PM 60.2°F15.7°C 46.3°F7.9°C 60% 10.0 mph ESE16.1 kmh ESE 13.0 mph20.9 kmh 29.86 in1011.2 mb 0.00 in0.0 mm 0.00 in0.0 mm 0.00 in0.0 mm
04:36 PM 60.2°F15.7°C 46.3°F7.9°C 60% 13.0 mph ESE20.9 kmh ESE 19.0 mph30.6 kmh 29.86 in1011.2 mb 0.00 in0.0 mm 0.00 in0.0 mm 0.00 in0.0 mm
04:37 PM 60.2°F15.7°C 46.3°F7.9°C 60% 13.0 mph E20.9 kmh E 17.0 mph27.4 kmh 29.86 in1011.2 mb 0.00 in0.0 mm 0.00 in0.0 mm 0.00 in0.0 mm
04:38 PM 60.2°F15.7°C 46.3°F7.9°C 60% 11.0 mph E17.7 kmh E 14.0 mph22.5 kmh 29.86 in1011.2 mb 0.00 in0.0 mm 0.00 in0.0 mm 0.00 in0.0 mm
04:39 PM 60.2°F15.7°C 46.3°F7.9°C 60% 13.0 mph E20.9 kmh E 19.0 mph30.6 kmh 29.86 in1011.2 mb 0.00 in0.0 mm 0.00 in0.0 mm 0.00 in0.0 mm
04:40 PM 60.2°F15.7°C 46.3°F7.9°C 60% 15.0 mph E24.1 kmh E 20.0 mph32.2 kmh 29.86 in1011.2 mb 0.00 in0.0 mm 0.00 in0.0 mm 0.00 in0.0 mm
04:41 PM 60.2°F15.7°C 46.3°F7.9°C 60% 11.4 mph E18.3 kmh E 14.0 mph22.5 kmh 29.86 in1011.2 mb 0.00 in0.0 mm 0.00 in0.0 mm 0.00 in0.0 mm
04:42 PM 60.2°F15.7°C 46.3°F7.9°C 60% 15.1 mph E24.3 kmh E 18.0 mph29.0 kmh 29.86 in1011.2 mb 0.00 in0.0 mm 0.00 in0.0 mm 0.00 in0.0 mm
04:43 PM 60.3°F15.7°C 46.4°F8.0°C 60% 16.0 mph E25.7 kmh E 20.0 mph32.2 kmh 29.86 in1011.2 mb 0.00 in0.0 mm 0.00 in0.0 mm 0.00 in0.0 mm
04:44 PM 60.3°F15.7°C 46.4°F8.0°C 60% 14.6 mph E23.5 kmh E 20.0 mph32.2 kmh 29.86 in1011.2 mb 0.00 in0.0 mm 0.00 in0.0 mm 0.00 in0.0 mm
04:45 PM 60.3°F15.7°C 46.4°F8.0°C 60% 13.0 mph E20.9 kmh E 19.0 mph30.6 kmh 29.86 in1011.2 mb 0.00 in0.0 mm 0.00 in0.0 mm 0.00 in0.0 mm
04:46 PM 60.4°F15.8°C 46.4°F8.0°C 60% 13.1 mph E21.1 kmh E 18.0 mph29.0 kmh 29.86 in1011.2 mb 0.00 in0.0 mm 0.00 in0.0 mm 0.00 in0.0 mm
04:47 PM 60.4°F15.8°C 46.0°F7.8°C 59% 14.2 mph E22.9 kmh E 21.0 mph33.8 kmh 29.86 in1011.2 mb 0.00 in0.0 mm 0.00 in0.0 mm 0.00 in0.0 mm
04:48 PM 60.5°F15.8°C 46.5°F8.1°C 60% 10.0 mph E16.1 kmh E 14.0 mph22.5 kmh 29.86 in1011.2 mb 0.00 in0.0 mm 0.00 in0.0 mm 0.00 in0.0 mm
04:49 PM 60.5°F15.8°C 46.5°F8.1°C 60% 9.0 mph E14.5 kmh E 14.0 mph22.5 kmh 29.86 in1011.2 mb 0.00 in0.0 mm 0.00 in0.0 mm 0.00 in0.0 mm
04:50 PM 60.7°F15.9°C 46.7°F8.2°C 60% 16.1 mph ESE25.9 kmh ESE 22.0 mph35.4 kmh 29.86 in1011.2 mb 0.00 in0.0 mm 0.00 in0.0 mm 0.00 in0.0 mm
04:51 PM 60.7°F15.9°C 46.3°F7.9°C 59% 15.0 mph E24.1 kmh E 23.0 mph37.0 kmh 29.86 in1011.2 mb 0.00 in0.0 mm 0.00 in0.0 mm 0.00 in0.0 mm
04:52 PM 60.8°F16.0°C 46.4°F8.0°C 59% 13.5 mph E21.7 kmh E 23.0 mph37.0 kmh 29.86 in1011.2 mb 0.00 in0.0 mm 0.00 in0.0 mm 0.00 in0.0 mm
04:53 PM 60.8°F16.0°C 46.4°F8.0°C 59% 10.7 mph E17.2 kmh E 18.0 mph29.0 kmh 29.86 in1011.2 mb 0.00 in0.0 mm 0.00 in0.0 mm 0.00 in0.0 mm
04:54 PM 60.9°F16.1°C 46.5°F8.1°C 59% 15.0 mph E24.1 kmh E 19.0 mph30.6 kmh 29.86 in1011.2 mb 0.00 in0.0 mm 0.00 in0.0 mm 0.00 in0.0 mm
04:55 PM 60.9°F16.1°C 46.5°F8.1°C 59% 12.0 mph E19.3 kmh E 17.0 mph27.4 kmh 29.86 in1011.2 mb 0.00 in0.0 mm 0.00 in0.0 mm 0.00 in0.0 mm
04:56 PM 60.9°F16.1°C 46.5°F8.1°C 59% 15.0 mph E24.1 kmh E 19.0 mph30.6 kmh 29.86 in1011.2 mb 0.00 in0.0 mm 0.00 in0.0 mm 0.00 in0.0 mm
04:57 PM 61.0°F16.1°C 46.1°F7.8°C 58% 17.0 mph E27.4 kmh E 21.0 mph33.8 kmh 29.86 in1011.2 mb 0.00 in0.0 mm 0.00 in0.0 mm 0.00 in0.0 mm
04:58 PM 61.0°F16.1°C 46.6°F8.1°C 59% 15.8 mph E25.4 kmh E 24.0 mph38.6 kmh 29.86 in1011.2 mb 0.00 in0.0 mm 0.00 in0.0 mm 0.00 in0.0 mm
04:59 PM 61.0°F16.1°C 46.1°F7.8°C 58% 17.6 mph E28.3 kmh E 24.0 mph38.6 kmh 29.86 in1011.2 mb 0.00 in0.0 mm 0.00 in0.0 mm 0.00 in0.0 mm
05:00 PM 61.0°F16.1°C 46.1°F7.8°C 58% 15.3 mph E24.6 kmh E 24.0 mph38.6 kmh 29.86 in1011.2 mb 0.00 in0.0 mm 0.00 in0.0 mm 0.00 in0.0 mm
05:01 PM 61.0°F16.1°C 46.1°F7.8°C 58% 12.6 mph E20.3 kmh E 18.0 mph29.0 kmh 29.86 in1011.2 mb 0.00 in0.0 mm 0.00 in0.0 mm 0.00 in0.0 mm
05:02 PM 61.0°F16.1°C 46.6°F8.1°C 59% 12.0 mph E19.3 kmh E 18.0 mph29.0 kmh 29.86 in1011.2 mb 0.00 in0.0 mm 0.00 in0.0 mm 0.00 in0.0 mm
05:03 PM 61.1°F16.2°C 46.7°F8.2°C 59% 11.7 mph E18.8 kmh E 18.0 mph29.0 kmh 29.86 in1011.2 mb 0.00 in0.0 mm 0.00 in0.0 mm 0.00 in0.0 mm
05:04 PM 61.1°F16.2°C 46.7°F8.2°C 59% 14.1 mph E22.7 kmh E 23.0 mph37.0 kmh 29.86 in1011.2 mb 0.00 in0.0 mm 0.00 in0.0 mm 0.00 in0.0 mm
05:05 PM 61.1°F16.2°C 46.7°F8.2°C 59% 15.1 mph E24.3 kmh E 23.0 mph37.0 kmh 29.86 in1011.2 mb 0.00 in0.0 mm 0.00 in0.0 mm 0.00 in0.0 mm
05:06 PM 61.1°F16.2°C 46.2°F7.9°C 58% 16.3 mph E26.2 kmh E 23.0 mph37.0 kmh 29.86 in1011.2 mb 0.00 in0.0 mm 0.00 in0.0 mm 0.00 in0.0 mm
05:07 PM 61.0°F16.1°C 46.1°F7.8°C 58% 17.0 mph E27.4 kmh E 21.0 mph33.8 kmh 29.86 in1011.2 mb 0.00 in0.0 mm 0.00 in0.0 mm 0.00 in0.0 mm
05:08 PM 61.0°F16.1°C 46.1°F7.8°C 58% 16.0 mph ESE25.7 kmh ESE 22.0 mph35.4 kmh 29.86 in1011.2 mb 0.00 in0.0 mm 0.00 in0.0 mm 0.00 in0.0 mm
05:09 PM 61.0°F16.1°C 46.1°F7.8°C 58% 12.3 mph E19.8 kmh E 15.0 mph24.1 kmh 29.86 in1011.2 mb 0.00 in0.0 mm 0.00 in0.0 mm 0.00 in0.0 mm
05:10 PM 60.9°F16.1°C 46.5°F8.1°C 59% 13.8 mph E22.2 kmh E 19.0 mph30.6 kmh 29.86 in1011.2 mb 0.00 in0.0 mm 0.00 in0.0 mm 0.00 in0.0 mm
05:11 PM 60.9°F16.1°C 46.5°F8.1°C 59% 14.0 mph E22.5 kmh E 18.0 mph29.0 kmh 29.86 in1011.2 mb 0.00 in0.0 mm 0.00 in0.0 mm 0.00 in0.0 mm
05:12 PM 60.9°F16.1°C 46.5°F8.1°C 59% 14.0 mph E22.5 kmh E 20.0 mph32.2 kmh 29.86 in1011.2 mb 0.00 in0.0 mm 0.00 in0.0 mm 0.00 in0.0 mm
05:13 PM 60.8°F16.0°C 46.4°F8.0°C 59% 17.0 mph E27.4 kmh E 22.0 mph35.4 kmh 29.86 in1011.2 mb 0.00 in0.0 mm 0.00 in0.0 mm 0.00 in0.0 mm
05:14 PM 60.8°F16.0°C 45.9°F7.7°C 58% 18.0 mph E29.0 kmh E 23.0 mph37.0 kmh 29.86 in1011.2 mb 0.00 in0.0 mm 0.00 in0.0 mm 0.00 in0.0 mm
05:15 PM 60.7°F15.9°C 46.3°F7.9°C 59% 13.8 mph E22.2 kmh E 23.0 mph37.0 kmh 29.86 in1011.2 mb 0.00 in0.0 mm 0.00 in0.0 mm 0.00 in0.0 mm
05:16 PM 60.7°F15.9°C 46.3°F7.9°C 59% 12.0 mph E19.3 kmh E 18.0 mph29.0 kmh 29.86 in1011.2 mb 0.00 in0.0 mm 0.00 in0.0 mm 0.00 in0.0 mm
05:17 PM 60.7°F15.9°C 46.3°F7.9°C 59% 13.5 mph E21.7 kmh E 20.0 mph32.2 kmh 29.86 in1011.2 mb 0.00 in0.0 mm 0.00 in0.0 mm 0.00 in0.0 mm
05:18 PM 60.5°F15.8°C 46.1°F7.8°C 59% 17.0 mph E27.4 kmh E 21.0 mph33.8 kmh 29.86 in1011.2 mb 0.00 in0.0 mm 0.00 in0.0 mm 0.00 in0.0 mm
05:19 PM 60.5°F15.8°C 46.1°F7.8°C 59% 14.0 mph E22.5 kmh E 18.0 mph29.0 kmh 29.86 in1011.2 mb 0.00 in0.0 mm 0.00 in0.0 mm 0.00 in0.0 mm
05:20 PM 60.5°F15.8°C 46.1°F7.8°C 59% 13.0 mph ESE20.9 kmh ESE 17.0 mph27.4 kmh 29.86 in1011.2 mb 0.00 in0.0 mm 0.00 in0.0 mm 0.00 in0.0 mm
05:21 PM 60.5°F15.8°C 45.6°F7.6°C 58% 16.4 mph E26.4 kmh E 25.0 mph40.2 kmh 29.86 in1011.2 mb 0.00 in0.0 mm 0.00 in0.0 mm 0.00 in0.0 mm
05:22 PM 60.4°F15.8°C 46.0°F7.8°C 59% 16.0 mph E25.7 kmh E 19.0 mph30.6 kmh 29.86 in1011.2 mb 0.00 in0.0 mm 0.00 in0.0 mm 0.00 in0.0 mm
05:23 PM 60.4°F15.8°C 46.0°F7.8°C 59% 16.0 mph E25.7 kmh E 18.0 mph29.0 kmh 29.86 in1011.2 mb 0.00 in0.0 mm 0.00 in0.0 mm 0.00 in0.0 mm
05:24 PM 60.3°F15.7°C 45.9°F7.7°C 59% 10.5 mph E16.9 kmh E 13.0 mph20.9 kmh 29.86 in1011.2 mb 0.00 in0.0 mm 0.00 in0.0 mm 0.00 in0.0 mm
05:25 PM 60.4°F15.8°C 46.0°F7.8°C 59% 14.5 mph E23.3 kmh E 22.0 mph35.4 kmh 29.86 in1011.2 mb 0.00 in0.0 mm 0.00 in0.0 mm 0.00 in0.0 mm
05:26 PM 60.2°F15.7°C 45.8°F7.7°C 59% 16.5 mph E26.6 kmh E 22.0 mph35.4 kmh 29.86 in1011.2 mb 0.00 in0.0 mm 0.00 in0.0 mm 0.00 in0.0 mm
05:27 PM 60.2°F15.7°C 45.8°F7.7°C 59% 12.8 mph E20.6 kmh E 21.0 mph33.8 kmh 29.86 in1011.2 mb 0.00 in0.0 mm 0.00 in0.0 mm 0.00 in0.0 mm
05:28 PM 60.2°F15.7°C 45.8°F7.7°C 59% 17.1 mph E27.5 kmh E 21.0 mph33.8 kmh 29.86 in1011.2 mb 0.00 in0.0 mm 0.00 in0.0 mm 0.00 in0.0 mm
05:29 PM 60.2°F15.7°C 45.8°F7.7°C 59% 14.0 mph E22.5 kmh E 18.0 mph29.0 kmh 29.86 in1011.2 mb 0.00 in0.0 mm 0.00 in0.0 mm 0.00 in0.0 mm
05:30 PM 60.2°F15.7°C 45.8°F7.7°C 59% 14.0 mph E22.5 kmh E 17.0 mph27.4 kmh 29.86 in1011.2 mb 0.00 in0.0 mm 0.00 in0.0 mm 0.00 in0.0 mm
05:31 PM 60.2°F15.7°C 46.3°F7.9°C 60% 13.5 mph E21.7 kmh E 15.0 mph24.1 kmh 29.86 in1011.2 mb 0.00 in0.0 mm 0.00 in0.0 mm 0.00 in0.0 mm
05:32 PM 60.2°F15.7°C 46.3°F7.9°C 60% 14.0 mph E22.5 kmh E 16.0 mph25.7 kmh 29.86 in1011.2 mb 0.00 in0.0 mm 0.00 in0.0 mm 0.00 in0.0 mm
05:33 PM 60.2°F15.7°C 45.8°F7.7°C 59% 16.0 mph E25.7 kmh E 25.0 mph40.2 kmh 29.86 in1011.2 mb 0.00 in0.0 mm 0.00 in0.0 mm 0.00 in0.0 mm
05:34 PM 60.2°F15.7°C 45.8°F7.7°C 59% 13.7 mph E22.0 kmh E 16.0 mph25.7 kmh 29.86 in1011.2 mb 0.00 in0.0 mm 0.00 in0.0 mm 0.00 in0.0 mm
05:35 PM 60.2°F15.7°C 46.3°F7.9°C 60% 13.5 mph E21.7 kmh E 18.0 mph29.0 kmh 29.86 in1011.2 mb 0.00 in0.0 mm 0.00 in0.0 mm 0.00 in0.0 mm
05:36 PM 60.2°F15.7°C 46.3°F7.9°C 60% 11.0 mph ESE17.7 kmh ESE 15.0 mph24.1 kmh 29.86 in1011.2 mb 0.00 in0.0 mm 0.00 in0.0 mm 0.00 in0.0 mm
05:37 PM 60.2°F15.7°C 46.3°F7.9°C 60% 14.0 mph E22.5 kmh E 18.0 mph29.0 kmh 29.86 in1011.2 mb 0.00 in0.0 mm 0.00 in0.0 mm 0.00 in0.0 mm
05:38 PM 60.2°F15.7°C 46.3°F7.9°C 60% 10.3 mph ESE16.6 kmh ESE 12.0 mph19.3 kmh 29.86 in1011.2 mb 0.00 in0.0 mm 0.00 in0.0 mm 0.00 in0.0 mm
05:39 PM 60.1°F15.6°C 46.2°F7.9°C 60% 14.4 mph E23.2 kmh E 19.0 mph30.6 kmh 29.86 in1011.2 mb 0.00 in0.0 mm 0.00 in0.0 mm 0.00 in0.0 mm
05:40 PM 60.1°F15.6°C 46.2°F7.9°C 60% 14.0 mph E22.5 kmh E 20.0 mph32.2 kmh 29.86 in1011.2 mb 0.00 in0.0 mm 0.00 in0.0 mm 0.00 in0.0 mm
05:41 PM 60.1°F15.6°C 46.2°F7.9°C 60% 12.8 mph E20.6 kmh E 20.0 mph32.2 kmh 29.86 in1011.2 mb 0.00 in0.0 mm 0.00 in0.0 mm 0.00 in0.0 mm
05:42 PM 60.1°F15.6°C 46.2°F7.9°C 60% 15.1 mph E24.3 kmh E 19.0 mph30.6 kmh 29.86 in1011.2 mb 0.00 in0.0 mm 0.00 in0.0 mm 0.00 in0.0 mm
05:43 PM 60.0°F15.6°C 46.1°F7.8°C 60% 15.0 mph E24.1 kmh E 19.0 mph30.6 kmh 29.86 in1011.2 mb 0.00 in0.0 mm 0.00 in0.0 mm 0.00 in0.0 mm
05:44 PM 60.0°F15.6°C 46.1°F7.8°C 60% 15.0 mph E24.1 kmh E 18.0 mph29.0 kmh 29.86 in1011.2 mb 0.00 in0.0 mm 0.00 in0.0 mm 0.00 in0.0 mm
05:45 PM 59.9°F15.5°C 46.0°F7.8°C 60% 16.0 mph E25.7 kmh E 20.0 mph32.2 kmh 29.86 in1011.2 mb 0.00 in0.0 mm 0.00 in0.0 mm 0.00 in0.0 mm
05:46 PM 59.9°F15.5°C 46.0°F7.8°C 60% 10.6 mph E17.1 kmh E 15.0 mph24.1 kmh 29.86 in1011.2 mb 0.00 in0.0 mm 0.00 in0.0 mm 0.00 in0.0 mm
05:47 PM 59.9°F15.5°C 46.0°F7.8°C 60% 14.0 mph E22.5 kmh E 19.0 mph30.6 kmh 29.86 in1011.2 mb 0.00 in0.0 mm 0.00 in0.0 mm 0.00 in0.0 mm
05:48 PM 59.9°F15.5°C 46.0°F7.8°C 60% 14.0 mph E22.5 kmh E 17.0 mph27.4 kmh 29.86 in1011.2 mb 0.00 in0.0 mm 0.00 in0.0 mm 0.00 in0.0 mm
05:49 PM 59.8°F15.4°C 45.9°F7.7°C 60% 15.0 mph E24.1 kmh E 22.0 mph35.4 kmh 29.86 in1011.2 mb 0.00 in0.0 mm 0.00 in0.0 mm 0.00 in0.0 mm
05:50 PM 59.8°F15.4°C 45.9°F7.7°C 60% 14.0 mph E22.5 kmh E 18.0 mph29.0 kmh 29.86 in1011.2 mb 0.00 in0.0 mm 0.00 in0.0 mm 0.00 in0.0 mm
05:51 PM 59.7°F15.4°C 45.8°F7.7°C 60% 14.0 mph E22.5 kmh E 16.0 mph25.7 kmh 29.86 in1011.2 mb 0.00 in0.0 mm 0.00 in0.0 mm 0.00 in0.0 mm
05:52 PM 59.7°F15.4°C 45.8°F7.7°C 60% 15.8 mph E25.4 kmh E 21.0 mph33.8 kmh 29.86 in1011.2 mb 0.00 in0.0 mm 0.00 in0.0 mm 0.00 in0.0 mm
05:53 PM 59.6°F15.3°C 45.7°F7.6°C 60% 13.0 mph E20.9 kmh E 19.0 mph30.6 kmh 29.86 in1011.2 mb 0.00 in0.0 mm 0.00 in0.0 mm 0.00 in0.0 mm
05:54 PM 59.6°F15.3°C 45.7°F7.6°C 60% 13.0 mph E20.9 kmh E 17.0 mph27.4 kmh 29.86 in1011.2 mb 0.00 in0.0 mm 0.00 in0.0 mm 0.00 in0.0 mm
05:55 PM 59.5°F15.3°C 46.0°F7.8°C 61% 13.0 mph E20.9 kmh E 19.0 mph30.6 kmh 29.86 in1011.2 mb 0.00 in0.0 mm 0.00 in0.0 mm 0.00 in0.0 mm
05:56 PM 59.5°F15.3°C 46.0°F7.8°C 61% 11.1 mph E17.9 kmh E 13.0 mph20.9 kmh 29.86 in1011.2 mb 0.00 in0.0 mm 0.00 in0.0 mm 0.00 in0.0 mm
05:57 PM 59.5°F15.3°C 46.0°F7.8°C 61% 12.0 mph E19.3 kmh E 17.0 mph27.4 kmh 29.86 in1011.2 mb 0.00 in0.0 mm 0.00 in0.0 mm 0.00 in0.0 mm
05:58 PM 59.4°F15.2°C 45.9°F7.7°C 61% 13.0 mph E20.9 kmh E 20.0 mph32.2 kmh 29.86 in1011.2 mb 0.00 in0.0 mm 0.00 in0.0 mm 0.00 in0.0 mm
05:59 PM 59.4°F15.2°C 45.9°F7.7°C 61% 12.0 mph E19.3 kmh E 15.0 mph24.1 kmh 29.86 in1011.2 mb 0.00 in0.0 mm 0.00 in0.0 mm 0.00 in0.0 mm
06:00 PM 59.3°F15.2°C 45.9°F7.7°C 61% 11.7 mph E18.8 kmh E 18.0 mph29.0 kmh 29.86 in1011.2 mb 0.00 in0.0 mm 0.00 in0.0 mm 0.00 in0.0 mm
06:01 PM 59.3°F15.2°C 45.9°F7.7°C 61% 12.0 mph E19.3 kmh E 16.0 mph25.7 kmh 29.86 in1011.2 mb 0.00 in0.0 mm 0.00 in0.0 mm 0.00 in0.0 mm
06:02 PM 59.2°F15.1°C 45.8°F7.7°C 61% 14.0 mph E22.5 kmh E 16.0 mph25.7 kmh 29.86 in1011.2 mb 0.00 in0.0 mm 0.00 in0.0 mm 0.00 in0.0 mm
06:03 PM 59.2°F15.1°C 45.8°F7.7°C 61% 12.5 mph E20.1 kmh E 14.0 mph22.5 kmh 29.86 in1011.2 mb 0.00 in0.0 mm 0.00 in0.0 mm 0.00 in0.0 mm
06:04 PM 59.1°F15.1°C 45.7°F7.6°C 61% 13.0 mph E20.9 kmh E 16.0 mph25.7 kmh 29.86 in1011.2 mb 0.00 in0.0 mm 0.00 in0.0 mm 0.00 in0.0 mm
06:05 PM 59.1°F15.1°C 45.7°F7.6°C 61% 12.0 mph E19.3 kmh E 16.0 mph25.7 kmh 29.86 in1011.2 mb 0.00 in0.0 mm 0.00 in0.0 mm 0.00 in0.0 mm
06:06 PM 59.1°F15.1°C 45.7°F7.6°C 61% 15.2 mph E24.5 kmh E 17.0 mph27.4 kmh 29.86 in1011.2 mb 0.00 in0.0 mm 0.00 in0.0 mm 0.00 in0.0 mm
06:07 PM 59.1°F15.1°C 45.7°F7.6°C 61% 14.0 mph E22.5 kmh E 17.0 mph27.4 kmh 29.86 in1011.2 mb 0.00 in0.0 mm 0.00 in0.0 mm 0.00 in0.0 mm
06:08 PM 59.0°F15.0°C 45.6°F7.6°C 61% 13.0 mph E20.9 kmh E 16.0 mph25.7 kmh 29.86 in1011.2 mb 0.00 in0.0 mm 0.00 in0.0 mm 0.00 in0.0 mm
06:09 PM 59.0°F15.0°C 45.6°F7.6°C 61% 11.9 mph ESE19.2 kmh ESE 14.0 mph22.5 kmh 29.86 in1011.2 mb 0.00 in0.0 mm 0.00 in0.0 mm 0.00 in0.0 mm
06:10 PM 58.9°F14.9°C 45.5°F7.5°C 61% 12.2 mph E19.6 kmh E 17.0 mph27.4 kmh 29.86 in1011.2 mb 0.00 in0.0 mm 0.00 in0.0 mm 0.00 in0.0 mm
06:11 PM 58.9°F14.9°C 45.5°F7.5°C 61% 11.0 mph E17.7 kmh E 18.0 mph29.0 kmh 29.86 in1011.2 mb 0.00 in0.0 mm 0.00 in0.0 mm 0.00 in0.0 mm
06:12 PM 58.9°F14.9°C 45.9°F7.7°C 62% 12.0 mph E19.3 kmh E 16.0 mph25.7 kmh 29.86 in1011.2 mb 0.00 in0.0 mm 0.00 in0.0 mm 0.00 in0.0 mm
06:13 PM 58.9°F14.9°C 45.9°F7.7°C 62% 10.6 mph E17.1 kmh E 13.0 mph20.9 kmh 29.86 in1011.2 mb 0.00 in0.0 mm 0.00 in0.0 mm 0.00 in0.0 mm
06:14 PM 58.9°F14.9°C 45.9°F7.7°C 62% 12.2 mph E19.6 kmh E 17.0 mph27.4 kmh 29.85 in1010.8 mb 0.00 in0.0 mm 0.00 in0.0 mm 0.00 in0.0 mm
06:15 PM 58.8°F14.9°C 45.8°F7.7°C 62% 13.8 mph E22.2 kmh E 17.0 mph27.4 kmh 29.86 in1011.2 mb 0.00 in0.0 mm 0.00 in0.0 mm 0.00 in0.0 mm
06:16 PM 58.8°F14.9°C 45.8°F7.7°C 62% 14.4 mph E23.2 kmh E 18.0 mph29.0 kmh 29.86 in1011.2 mb 0.00 in0.0 mm 0.00 in0.0 mm 0.00 in0.0 mm
06:17 PM 58.7°F14.8°C 45.7°F7.6°C 62% 15.0 mph E24.1 kmh E 18.0 mph29.0 kmh 29.86 in1011.2 mb 0.00 in0.0 mm 0.00 in0.0 mm 0.00 in0.0 mm
06:18 PM 58.7°F14.8°C 45.7°F7.6°C 62% 16.0 mph E25.7 kmh E 20.0 mph32.2 kmh 29.86 in1011.2 mb 0.00 in0.0 mm 0.00 in0.0 mm 0.00 in0.0 mm
06:19 PM 58.7°F14.8°C 45.7°F7.6°C 62% 13.0 mph E20.9 kmh E 16.0 mph25.7 kmh 29.86 in1011.2 mb 0.00 in0.0 mm 0.00 in0.0 mm 0.00 in0.0 mm
06:20 PM 58.7°F14.8°C 45.7°F7.6°C 62% 12.0 mph E19.3 kmh E 17.0 mph27.4 kmh 29.86 in1011.2 mb 0.00 in0.0 mm 0.00 in0.0 mm 0.00 in0.0 mm
06:21 PM 58.7°F14.8°C 45.7°F7.6°C 62% 11.0 mph E17.7 kmh E 18.0 mph29.0 kmh 29.86 in1011.2 mb 0.00 in0.0 mm 0.00 in0.0 mm 0.00 in0.0 mm
06:22 PM 58.7°F14.8°C 45.7°F7.6°C 62% 14.0 mph E22.5 kmh E 17.0 mph27.4 kmh 29.86 in1011.2 mb 0.00 in0.0 mm 0.00 in0.0 mm 0.00 in0.0 mm
06:23 PM 58.7°F14.8°C 45.7°F7.6°C 62% 15.0 mph E24.1 kmh E 16.0 mph25.7 kmh 29.86 in1011.2 mb 0.00 in0.0 mm 0.00 in0.0 mm 0.00 in0.0 mm
06:24 PM 58.7°F14.8°C 45.7°F7.6°C 62% 14.3 mph E23.0 kmh E 17.0 mph27.4 kmh 29.86 in1011.2 mb 0.00 in0.0 mm 0.00 in0.0 mm 0.00 in0.0 mm
06:25 PM 58.6°F14.8°C 45.6°F7.6°C 62% 12.5 mph E20.1 kmh E 17.0 mph27.4 kmh 29.86 in1011.2 mb 0.00 in0.0 mm 0.00 in0.0 mm 0.00 in0.0 mm
06:26 PM 58.6°F14.8°C 45.6°F7.6°C 62% 15.5 mph E24.9 kmh E 21.0 mph33.8 kmh 29.86 in1011.2 mb 0.00 in0.0 mm 0.00 in0.0 mm 0.00 in0.0 mm
06:27 PM 58.6°F14.8°C 45.6°F7.6°C 62% 13.0 mph E20.9 kmh E 19.0 mph30.6 kmh 29.86 in1011.2 mb 0.00 in0.0 mm 0.00 in0.0 mm 0.00 in0.0 mm
06:28 PM 58.5°F14.7°C 45.5°F7.5°C 62% 14.0 mph E22.5 kmh E 18.0 mph29.0 kmh 29.86 in1011.2 mb 0.00 in0.0 mm 0.00 in0.0 mm 0.00 in0.0 mm
06:29 PM 58.5°F14.7°C 45.5°F7.5°C 62% 14.0 mph E22.5 kmh E 16.0 mph25.7 kmh 29.86 in1011.2 mb 0.00 in0.0 mm 0.00 in0.0 mm 0.00 in0.0 mm
06:30 PM 58.4°F14.7°C 45.4°F7.4°C 62% 15.3 mph E24.6 kmh E 21.0 mph33.8 kmh 29.86 in1011.2 mb 0.00 in0.0 mm 0.00 in0.0 mm 0.00 in0.0 mm
06:31 PM 58.4°F14.7°C 45.4°F7.4°C 62% 10.9 mph E17.5 kmh E 21.0 mph33.8 kmh 29.86 in1011.2 mb 0.00 in0.0 mm 0.00 in0.0 mm 0.00 in0.0 mm
06:32 PM 58.3°F14.6°C 45.3°F7.4°C 62% 12.7 mph E20.4 kmh E 17.0 mph27.4 kmh 29.86 in1011.2 mb 0.00 in0.0 mm 0.00 in0.0 mm 0.00 in0.0 mm
06:33 PM 58.3°F14.6°C 45.3°F7.4°C 62% 12.5 mph E20.1 kmh E 17.0 mph27.4 kmh 29.86 in1011.2 mb 0.00 in0.0 mm 0.00 in0.0 mm 0.00 in0.0 mm
06:34 PM 58.3°F14.6°C 45.8°F7.7°C 63% 13.2 mph E21.2 kmh E 17.0 mph27.4 kmh 29.86 in1011.2 mb 0.00 in0.0 mm 0.00 in0.0 mm 0.00 in0.0 mm
06:35 PM 58.2°F14.6°C 45.7°F7.6°C 63% 13.0 mph E20.9 kmh E 18.0 mph29.0 kmh 29.86 in1011.2 mb 0.00 in0.0 mm 0.00 in0.0 mm 0.00 in0.0 mm
06:36 PM 58.2°F14.6°C 45.7°F7.6°C 63% 14.0 mph E22.5 kmh E 17.0 mph27.4 kmh 29.86 in1011.2 mb 0.00 in0.0 mm 0.00 in0.0 mm 0.00 in0.0 mm
06:37 PM 58.2°F14.6°C 45.7°F7.6°C 63% 11.0 mph E17.7 kmh E 16.0 mph25.7 kmh 29.86 in1011.2 mb 0.00 in0.0 mm 0.00 in0.0 mm 0.00 in0.0 mm
06:38 PM 58.1°F14.5°C 45.6°F7.6°C 63% 15.3 mph E24.6 kmh E 18.0 mph29.0 kmh 29.86 in1011.2 mb 0.00 in0.0 mm 0.00 in0.0 mm 0.00 in0.0 mm
06:39 PM 58.1°F14.5°C 45.6°F7.6°C 63% 14.0 mph E22.5 kmh E 21.0 mph33.8 kmh 29.86 in1011.2 mb 0.00 in0.0 mm 0.00 in0.0 mm 0.00 in0.0 mm
06:40 PM 58.1°F14.5°C 45.6°F7.6°C 63% 14.0 mph E22.5 kmh E 17.0 mph27.4 kmh 29.86 in1011.2 mb 0.00 in0.0 mm 0.00 in0.0 mm 0.00 in0.0 mm
06:41 PM 58.1°F14.5°C 45.6°F7.6°C 63% 12.0 mph E19.3 kmh E 18.0 mph29.0 kmh 29.86 in1011.2 mb 0.00 in0.0 mm 0.00 in0.0 mm 0.00 in0.0 mm
06:42 PM 58.0°F14.4°C 45.5°F7.5°C 63% 13.6 mph E21.9 kmh E 18.0 mph29.0 kmh 29.86 in1011.2 mb 0.00 in0.0 mm 0.00 in0.0 mm 0.00 in0.0 mm
06:43 PM 58.0°F14.4°C 45.5°F7.5°C 63% 13.8 mph E22.2 kmh E 18.0 mph29.0 kmh 29.86 in1011.2 mb 0.00 in0.0 mm 0.00 in0.0 mm 0.00 in0.0 mm
06:44 PM 57.9°F14.4°C 45.4°F7.4°C 63% 13.3 mph E21.4 kmh E 17.0 mph27.4 kmh 29.86 in1011.2 mb 0.00 in0.0 mm 0.00 in0.0 mm 0.00 in0.0 mm
06:45 PM 57.9°F14.4°C 45.4°F7.4°C 63% 11.0 mph E17.7 kmh E 16.0 mph25.7 kmh 29.86 in1011.2 mb 0.00 in0.0 mm 0.00 in0.0 mm 0.00 in0.0 mm
06:46 PM 57.8°F14.3°C 45.3°F7.4°C 63% 14.0 mph E22.5 kmh E 17.0 mph27.4 kmh 29.86 in1011.2 mb 0.00 in0.0 mm 0.00 in0.0 mm 0.00 in0.0 mm
06:47 PM 57.8°F14.3°C 45.3°F7.4°C 63% 12.2 mph E19.6 kmh E 16.0 mph25.7 kmh 29.86 in1011.2 mb 0.00 in0.0 mm 0.00 in0.0 mm 0.00 in0.0 mm
06:48 PM 57.8°F14.3°C 45.3°F7.4°C 63% 13.7 mph E22.0 kmh E 18.0 mph29.0 kmh 29.86 in1011.2 mb 0.00 in0.0 mm 0.00 in0.0 mm 0.00 in0.0 mm
06:49 PM 57.8°F14.3°C 45.3°F7.4°C 63% 13.0 mph E20.9 kmh E 17.0 mph27.4 kmh 29.86 in1011.2 mb 0.00 in0.0 mm 0.00 in0.0 mm 0.00 in0.0 mm
06:50 PM 57.7°F14.3°C 45.2°F7.3°C 63% 13.0 mph E20.9 kmh E 19.0 mph30.6 kmh 29.86 in1011.2 mb 0.00 in0.0 mm 0.00 in0.0 mm 0.00 in0.0 mm
06:51 PM 57.7°F14.3°C 45.2°F7.3°C 63% 13.5 mph E21.7 kmh E 16.0 mph25.7 kmh 29.86 in1011.2 mb 0.00 in0.0 mm 0.00 in0.0 mm 0.00 in0.0 mm
06:52 PM 57.6°F14.2°C 45.1°F7.3°C 63% 12.5 mph E20.1 kmh E 17.0 mph27.4 kmh 29.86 in1011.2 mb 0.00 in0.0 mm 0.00 in0.0 mm 0.00 in0.0 mm
06:53 PM 57.6°F14.2°C 45.5°F7.5°C 64% 16.7 mph E26.9 kmh E 21.0 mph33.8 kmh 29.86 in1011.2 mb 0.00 in0.0 mm 0.00 in0.0 mm 0.00 in0.0 mm
06:54 PM 57.6°F14.2°C 45.5°F7.5°C 64% 12.6 mph E20.3 kmh E 21.0 mph33.8 kmh 29.86 in1011.2 mb 0.00 in0.0 mm 0.00 in0.0 mm 0.00 in0.0 mm
06:55 PM 57.5°F14.2°C 45.4°F7.4°C 64% 13.0 mph E20.9 kmh E 19.0 mph30.6 kmh 29.86 in1011.2 mb 0.00 in0.0 mm 0.00 in0.0 mm 0.00 in0.0 mm
06:56 PM 57.5°F14.2°C 45.4°F7.4°C 64% 16.0 mph E25.7 kmh E 19.0 mph30.6 kmh 29.86 in1011.2 mb 0.00 in0.0 mm 0.00 in0.0 mm 0.00 in0.0 mm
06:57 PM 57.5°F14.2°C 45.4°F7.4°C 64% 13.9 mph E22.4 kmh E 16.0 mph25.7 kmh 29.86 in1011.2 mb 0.00 in0.0 mm 0.00 in0.0 mm 0.00 in0.0 mm
06:58 PM 57.4°F14.1°C 45.3°F7.4°C 64% 13.3 mph E21.4 kmh E 17.0 mph27.4 kmh 29.86 in1011.2 mb 0.00 in0.0 mm 0.00 in0.0 mm 0.00 in0.0 mm
06:59 PM 57.4°F14.1°C 45.3°F7.4°C 64% 13.0 mph E20.9 kmh E 17.0 mph27.4 kmh 29.86 in1011.2 mb 0.00 in0.0 mm 0.00 in0.0 mm 0.00 in0.0 mm
07:00 PM 57.4°F14.1°C 45.3°F7.4°C 64% 14.0 mph E22.5 kmh E 18.0 mph29.0 kmh 29.86 in1011.2 mb 0.00 in0.0 mm 0.00 in0.0 mm 0.00 in0.0 mm
07:01 PM 57.3°F14.1°C 45.2°F7.3°C 64% 11.0 mph E17.7 kmh E 15.0 mph24.1 kmh 29.86 in1011.2 mb 0.00 in0.0 mm 0.00 in0.0 mm 0.00 in0.0 mm
07:02 PM 57.3°F14.1°C 45.2°F7.3°C 64% 12.3 mph E19.8 kmh E 14.0 mph22.5 kmh 29.86 in1011.2 mb 0.00 in0.0 mm 0.00 in0.0 mm 0.00 in0.0 mm
07:03 PM 57.3°F14.1°C 45.2°F7.3°C 64% 14.0 mph E22.5 kmh E 18.0 mph29.0 kmh 29.86 in1011.2 mb 0.00 in0.0 mm 0.00 in0.0 mm 0.00 in0.0 mm
07:04 PM 57.1°F13.9°C 45.0°F7.2°C 64% 13.0 mph E20.9 kmh E 16.0 mph25.7 kmh 29.86 in1011.2 mb 0.00 in0.0 mm 0.00 in0.0 mm 0.00 in0.0 mm
07:05 PM 57.1°F13.9°C 45.0°F7.2°C 64% 13.0 mph E20.9 kmh E 13.0 mph20.9 kmh 29.86 in1011.2 mb 0.00 in0.0 mm 0.00 in0.0 mm 0.00 in0.0 mm
07:06 PM 57.1°F13.9°C 45.0°F7.2°C 64% 12.5 mph E20.1 kmh E 16.0 mph25.7 kmh 29.86 in1011.2 mb 0.00 in0.0 mm 0.00 in0.0 mm 0.00 in0.0 mm
07:07 PM 57.0°F13.9°C 44.9°F7.2°C 64% 11.8 mph E19.0 kmh E 16.0 mph25.7 kmh 29.86 in1011.2 mb 0.00 in0.0 mm 0.00 in0.0 mm 0.00 in0.0 mm
07:08 PM 57.0°F13.9°C 45.4°F7.4°C 65% 12.4 mph E20.0 kmh E 17.0 mph27.4 kmh 29.86 in1011.2 mb 0.00 in0.0 mm 0.00 in0.0 mm 0.00 in0.0 mm
07:09 PM 56.9°F13.8°C 44.8°F7.1°C 64% 11.0 mph E17.7 kmh E 14.0 mph22.5 kmh 29.86 in1011.2 mb 0.00 in0.0 mm 0.00 in0.0 mm 0.00 in0.0 mm
07:10 PM 56.9°F13.8°C 44.8°F7.1°C 64% 14.0 mph E22.5 kmh E 18.0 mph29.0 kmh 29.86 in1011.2 mb 0.00 in0.0 mm 0.00 in0.0 mm 0.00 in0.0 mm
07:11 PM 56.9°F13.8°C 45.3°F7.4°C 65% 12.0 mph E19.3 kmh E 15.0 mph24.1 kmh 29.86 in1011.2 mb 0.00 in0.0 mm 0.00 in0.0 mm 0.00 in0.0 mm
07:12 PM 56.9°F13.8°C 45.3°F7.4°C 65% 11.5 mph E18.5 kmh E 16.0 mph25.7 kmh 29.86 in1011.2 mb 0.00 in0.0 mm 0.00 in0.0 mm 0.00 in0.0 mm
07:13 PM 56.8°F13.8°C 45.2°F7.3°C 65% 13.1 mph E21.1 kmh E 16.0 mph25.7 kmh 29.86 in1011.2 mb 0.00 in0.0 mm 0.00 in0.0 mm 0.00 in0.0 mm
07:14 PM 56.8°F13.8°C 45.2°F7.3°C 65% 11.0 mph E17.7 kmh E 17.0 mph27.4 kmh 29.86 in1011.2 mb 0.00 in0.0 mm 0.00 in0.0 mm 0.00 in0.0 mm
07:15 PM 56.7°F13.7°C 45.1°F7.3°C 65% 12.6 mph E20.3 kmh E 18.0 mph29.0 kmh 29.86 in1011.2 mb 0.00 in0.0 mm 0.00 in0.0 mm 0.00 in0.0 mm
07:16 PM 56.7°F13.7°C 45.1°F7.3°C 65% 14.0 mph E22.5 kmh E 16.0 mph25.7 kmh 29.86 in1011.2 mb 0.00 in0.0 mm 0.00 in0.0 mm 0.00 in0.0 mm
07:17 PM 56.7°F13.7°C 45.1°F7.3°C 65% 14.0 mph E22.5 kmh E 16.0 mph25.7 kmh 29.86 in1011.2 mb 0.00 in0.0 mm 0.00 in0.0 mm 0.00 in0.0 mm
07:18 PM 56.7°F13.7°C 45.1°F7.3°C 65% 11.8 mph E19.0 kmh E 15.0 mph24.1 kmh 29.86 in1011.2 mb 0.00 in0.0 mm 0.00 in0.0 mm 0.00 in0.0 mm
07:19 PM 56.6°F13.7°C 45.0°F7.2°C 65% 11.0 mph E17.7 kmh E 14.0 mph22.5 kmh 29.86 in1011.2 mb 0.00 in0.0 mm 0.00 in0.0 mm 0.00 in0.0 mm
07:20 PM 56.5°F13.6°C 44.9°F7.2°C 65% 12.0 mph E19.3 kmh E 13.0 mph20.9 kmh 29.86 in1011.2 mb 0.00 in0.0 mm 0.00 in0.0 mm 0.00 in0.0 mm
07:21 PM 56.5°F13.6°C 44.9°F7.2°C 65% 13.0 mph E20.9 kmh E 16.0 mph25.7 kmh 29.86 in1011.2 mb 0.00 in0.0 mm 0.00 in0.0 mm 0.00 in0.0 mm
07:22 PM 56.4°F13.6°C 44.8°F7.1°C 65% 13.0 mph E20.9 kmh E 16.0 mph25.7 kmh 29.87 in1011.5 mb 0.00 in0.0 mm 0.00 in0.0 mm 0.00 in0.0 mm
07:23 PM 56.4°F13.6°C 44.8°F7.1°C 65% 14.0 mph E22.5 kmh E 16.0 mph25.7 kmh 29.87 in1011.5 mb 0.00 in0.0 mm 0.00 in0.0 mm 0.00 in0.0 mm
07:24 PM 56.3°F13.5°C 44.7°F7.1°C 65% 12.5 mph E20.1 kmh E 16.0 mph25.7 kmh 29.87 in1011.5 mb 0.00 in0.0 mm 0.00 in0.0 mm 0.00 in0.0 mm
07:25 PM 56.3°F13.5°C 44.7°F7.1°C 65% 14.7 mph E23.7 kmh E 18.0 mph29.0 kmh 29.87 in1011.5 mb 0.00 in0.0 mm 0.00 in0.0 mm 0.00 in0.0 mm
07:26 PM 56.3°F13.5°C 44.7°F7.1°C 65% 14.1 mph E22.7 kmh E 18.0 mph29.0 kmh 29.87 in1011.5 mb 0.00 in0.0 mm 0.00 in0.0 mm 0.00 in0.0 mm
07:27 PM 56.3°F13.5°C 44.7°F7.1°C 65% 12.5 mph E20.1 kmh E 17.0 mph27.4 kmh 29.87 in1011.5 mb 0.00 in0.0 mm 0.00 in0.0 mm 0.00 in0.0 mm
07:28 PM 56.2°F13.4°C 44.6°F7.0°C 65% 15.7 mph E25.3 kmh E 19.0 mph30.6 kmh 29.87 in1011.5 mb 0.00 in0.0 mm 0.00 in0.0 mm 0.00 in0.0 mm
07:29 PM 56.2°F13.4°C 45.0°F7.2°C 66% 13.0 mph E20.9 kmh E 15.0 mph24.1 kmh 29.87 in1011.5 mb 0.00 in0.0 mm 0.00 in0.0 mm 0.00 in0.0 mm
07:30 PM 56.1°F13.4°C 44.9°F7.2°C 66% 15.0 mph E24.1 kmh E 19.0 mph30.6 kmh 29.87 in1011.5 mb 0.00 in0.0 mm 0.00 in0.0 mm 0.00 in0.0 mm
07:31 PM 56.1°F13.4°C 44.9°F7.2°C 66% 13.9 mph E22.4 kmh E 16.0 mph25.7 kmh 29.87 in1011.5 mb 0.00 in0.0 mm 0.00 in0.0 mm 0.00 in0.0 mm
07:32 PM 56.1°F13.4°C 44.9°F7.2°C 66% 12.4 mph E20.0 kmh E 17.0 mph27.4 kmh 29.87 in1011.5 mb 0.00 in0.0 mm 0.00 in0.0 mm 0.00 in0.0 mm
07:33 PM 56.1°F13.4°C 44.9°F7.2°C 66% 14.0 mph E22.5 kmh E 17.0 mph27.4 kmh 29.87 in1011.5 mb 0.00 in0.0 mm 0.00 in0.0 mm 0.00 in0.0 mm
07:34 PM 56.0°F13.3°C 44.8°F7.1°C 66% 14.0 mph E22.5 kmh E 17.0 mph27.4 kmh 29.87 in1011.5 mb 0.00 in0.0 mm 0.00 in0.0 mm 0.00 in0.0 mm
07:35 PM 55.9°F13.3°C 44.7°F7.1°C 66% 13.9 mph E22.4 kmh E 19.0 mph30.6 kmh 29.87 in1011.5 mb 0.00 in0.0 mm 0.00 in0